<?xml version="1.0" encoding="UTF-8" standalone="no" ?>
<gpx xmlns="http://www.topografix.com/GPX/1/1" creator="MapSource 6.13.7" version="1.1" xmlns:xsi="http://www.w3.org/2001/XMLSchema-instance" xsi:schemaLocation="http://www.garmin.com/xmlschemas/GpxExtensions/v3 http://www.garmin.com/xmlschemas/GpxExtensions/v3/GpxExtensionsv3.xsd http://www.topografix.com/GPX/1/1 http://www.topografix.com/GPX/1/1/gpx.xsd">

  <metadata>
    <link href="http://www.garmin.com">
      <text>Garmin International</text>
    </link>
    <time>2026-08-08T13:18:18Z</time>
    <bounds maxlat="53.9073187" maxlon="14.6660192" minlat="53.4038638" minlon="13.8541012"/>
  </metadata>

  <trk>
    <name>20260801</name>
    <extensions>
      <gpxx:TrackExtension xmlns:gpxx="http://www.garmin.com/xmlschemas/GpxExtensions/v3">
        <gpxx:DisplayColor>Transparent</gpxx:DisplayColor>
      </gpxx:TrackExtension>
    </extensions>
    <trkseg>
      <trkpt lat="53.4038638" lon="14.6656745">
        <time>2026-08-01T09:29:56Z</time>
      </trkpt>
      <trkpt lat="53.4039438" lon="14.6657367">
        <time>2026-08-01T09:41:27Z</time>
      </trkpt>
      <trkpt lat="53.4041083" lon="14.6657445">
        <time>2026-08-01T09:47:15Z</time>
      </trkpt>
      <trkpt lat="53.4042082" lon="14.6655573">
        <time>2026-08-01T11:25:30Z</time>
      </trkpt>
      <trkpt lat="53.4041728" lon="14.6655118">
        <time>2026-08-01T14:38:49Z</time>
      </trkpt>
      <trkpt lat="53.4042655" lon="14.6658918">
        <time>2026-08-01T14:50:43Z</time>
      </trkpt>
      <trkpt lat="53.4043087" lon="14.6659620">
        <time>2026-08-01T14:50:55Z</time>
      </trkpt>
      <trkpt lat="53.4048017" lon="14.6659342">
        <time>2026-08-01T14:51:36Z</time>
      </trkpt>
      <trkpt lat="53.4050600" lon="14.6658338">
        <time>2026-08-01T14:51:50Z</time>
      </trkpt>
      <trkpt lat="53.4061450" lon="14.6648798">
        <time>2026-08-01T14:52:50Z</time>
      </trkpt>
      <trkpt lat="53.4062808" lon="14.6647200">
        <time>2026-08-01T14:52:58Z</time>
      </trkpt>
      <trkpt lat="53.4063952" lon="14.6644900">
        <time>2026-08-01T14:53:06Z</time>
      </trkpt>
      <trkpt lat="53.4064726" lon="14.6641923">
        <time>2026-08-01T14:53:16Z</time>
      </trkpt>
      <trkpt lat="53.4065910" lon="14.6633197">
        <time>2026-08-01T14:53:43Z</time>
      </trkpt>
      <trkpt lat="53.4066495" lon="14.6627065">
        <time>2026-08-01T14:54:01Z</time>
      </trkpt>
      <trkpt lat="53.4066304" lon="14.6611930">
        <time>2026-08-01T14:54:45Z</time>
      </trkpt>
      <trkpt lat="53.4067910" lon="14.6595883">
        <time>2026-08-01T14:55:31Z</time>
      </trkpt>
      <trkpt lat="53.4069392" lon="14.6581775">
        <time>2026-08-01T14:56:13Z</time>
      </trkpt>
      <trkpt lat="53.4069884" lon="14.6565893">
        <time>2026-08-01T14:57:00Z</time>
      </trkpt>
      <trkpt lat="53.4069317" lon="14.6543324">
        <time>2026-08-01T14:58:04Z</time>
      </trkpt>
      <trkpt lat="53.4072656" lon="14.6511320">
        <time>2026-08-01T14:59:41Z</time>
      </trkpt>
      <trkpt lat="53.4075344" lon="14.6491533">
        <time>2026-08-01T15:00:43Z</time>
      </trkpt>
      <trkpt lat="53.4078843" lon="14.6475605">
        <time>2026-08-01T15:01:35Z</time>
      </trkpt>
      <trkpt lat="53.4084495" lon="14.6442303">
        <time>2026-08-01T15:03:22Z</time>
      </trkpt>
      <trkpt lat="53.4089010" lon="14.6423891">
        <time>2026-08-01T15:04:20Z</time>
      </trkpt>
      <trkpt lat="53.4092811" lon="14.6411781">
        <time>2026-08-01T15:05:00Z</time>
      </trkpt>
      <trkpt lat="53.4095900" lon="14.6394229">
        <time>2026-08-01T15:05:53Z</time>
      </trkpt>
      <trkpt lat="53.4099872" lon="14.6382895">
        <time>2026-08-01T15:06:29Z</time>
      </trkpt>
      <trkpt lat="53.4103043" lon="14.6365894">
        <time>2026-08-01T15:07:16Z</time>
      </trkpt>
      <trkpt lat="53.4108692" lon="14.6342921">
        <time>2026-08-01T15:08:20Z</time>
      </trkpt>
      <trkpt lat="53.4110154" lon="14.6324048">
        <time>2026-08-01T15:09:10Z</time>
      </trkpt>
      <trkpt lat="53.4109077" lon="14.6310457">
        <time>2026-08-01T15:09:47Z</time>
      </trkpt>
      <trkpt lat="53.4113713" lon="14.6293342">
        <time>2026-08-01T15:10:37Z</time>
      </trkpt>
      <trkpt lat="53.4122630" lon="14.6279087">
        <time>2026-08-01T15:11:32Z</time>
      </trkpt>
      <trkpt lat="53.4127997" lon="14.6259285">
        <time>2026-08-01T15:12:32Z</time>
      </trkpt>
      <trkpt lat="53.4127933" lon="14.6244185">
        <time>2026-08-01T15:13:12Z</time>
      </trkpt>
      <trkpt lat="53.4123580" lon="14.6224308">
        <time>2026-08-01T15:14:11Z</time>
      </trkpt>
      <trkpt lat="53.4119258" lon="14.6203674">
        <time>2026-08-01T15:15:11Z</time>
      </trkpt>
      <trkpt lat="53.4116288" lon="14.6187311">
        <time>2026-08-01T15:15:57Z</time>
      </trkpt>
      <trkpt lat="53.4113675" lon="14.6162794">
        <time>2026-08-01T15:17:03Z</time>
      </trkpt>
      <trkpt lat="53.4113415" lon="14.6145554">
        <time>2026-08-01T15:17:50Z</time>
      </trkpt>
      <trkpt lat="53.4116091" lon="14.6133779">
        <time>2026-08-01T15:18:24Z</time>
      </trkpt>
      <trkpt lat="53.4130346" lon="14.6128188">
        <time>2026-08-01T15:19:41Z</time>
      </trkpt>
      <trkpt lat="53.4156027" lon="14.6120068">
        <time>2026-08-01T15:21:49Z</time>
      </trkpt>
      <trkpt lat="53.4168327" lon="14.6115040">
        <time>2026-08-01T15:22:51Z</time>
      </trkpt>
      <trkpt lat="53.4179275" lon="14.6108113">
        <time>2026-08-01T15:23:50Z</time>
      </trkpt>
      <trkpt lat="53.4193753" lon="14.6100795">
        <time>2026-08-01T15:25:04Z</time>
      </trkpt>
      <trkpt lat="53.4215188" lon="14.6092228">
        <time>2026-08-01T15:26:50Z</time>
      </trkpt>
      <trkpt lat="53.4229492" lon="14.6083751">
        <time>2026-08-01T15:28:05Z</time>
      </trkpt>
      <trkpt lat="53.4238877" lon="14.6078851">
        <time>2026-08-01T15:28:53Z</time>
      </trkpt>
      <trkpt lat="53.4249875" lon="14.6071578">
        <time>2026-08-01T15:29:51Z</time>
      </trkpt>
      <trkpt lat="53.4257458" lon="14.6068108">
        <time>2026-08-01T15:30:30Z</time>
      </trkpt>
      <trkpt lat="53.4267288" lon="14.6062574">
        <time>2026-08-01T15:31:20Z</time>
      </trkpt>
      <trkpt lat="53.4279092" lon="14.6054357">
        <time>2026-08-01T15:32:22Z</time>
      </trkpt>
      <trkpt lat="53.4291178" lon="14.6047583">
        <time>2026-08-01T15:33:22Z</time>
      </trkpt>
      <trkpt lat="53.4298170" lon="14.6042832">
        <time>2026-08-01T15:33:59Z</time>
      </trkpt>
      <trkpt lat="53.4309204" lon="14.6036839">
        <time>2026-08-01T15:34:55Z</time>
      </trkpt>
      <trkpt lat="53.4322532" lon="14.6027780">
        <time>2026-08-01T15:36:03Z</time>
      </trkpt>
      <trkpt lat="53.4347538" lon="14.6012812">
        <time>2026-08-01T15:38:12Z</time>
      </trkpt>
      <trkpt lat="53.4358494" lon="14.6007708">
        <time>2026-08-01T15:39:06Z</time>
      </trkpt>
      <trkpt lat="53.4371778" lon="14.6000462">
        <time>2026-08-01T15:40:14Z</time>
      </trkpt>
      <trkpt lat="53.4382173" lon="14.5993738">
        <time>2026-08-01T15:41:09Z</time>
      </trkpt>
      <trkpt lat="53.4391437" lon="14.5986173">
        <time>2026-08-01T15:41:59Z</time>
      </trkpt>
      <trkpt lat="53.4399915" lon="14.5980931">
        <time>2026-08-01T15:42:43Z</time>
      </trkpt>
      <trkpt lat="53.4409092" lon="14.5976045">
        <time>2026-08-01T15:43:29Z</time>
      </trkpt>
      <trkpt lat="53.4419138" lon="14.5972528">
        <time>2026-08-01T15:44:19Z</time>
      </trkpt>
      <trkpt lat="53.4431935" lon="14.5965792">
        <time>2026-08-01T15:45:26Z</time>
      </trkpt>
      <trkpt lat="53.4439602" lon="14.5964253">
        <time>2026-08-01T15:46:04Z</time>
      </trkpt>
      <trkpt lat="53.4446888" lon="14.5961703">
        <time>2026-08-01T15:46:40Z</time>
      </trkpt>
      <trkpt lat="53.4456350" lon="14.5959310">
        <time>2026-08-01T15:47:28Z</time>
      </trkpt>
      <trkpt lat="53.4484027" lon="14.5965354">
        <time>2026-08-01T15:49:47Z</time>
      </trkpt>
      <trkpt lat="53.4493515" lon="14.5968990">
        <time>2026-08-01T15:50:36Z</time>
      </trkpt>
      <trkpt lat="53.4502982" lon="14.5970605">
        <time>2026-08-01T15:51:24Z</time>
      </trkpt>
      <trkpt lat="53.4527128" lon="14.5977092">
        <time>2026-08-01T15:53:27Z</time>
      </trkpt>
      <trkpt lat="53.4547583" lon="14.5982838">
        <time>2026-08-01T15:55:11Z</time>
      </trkpt>
      <trkpt lat="53.4560466" lon="14.5987908">
        <time>2026-08-01T15:56:17Z</time>
      </trkpt>
      <trkpt lat="53.4568268" lon="14.5989568">
        <time>2026-08-01T15:56:58Z</time>
      </trkpt>
      <trkpt lat="53.4577787" lon="14.5990550">
        <time>2026-08-01T15:57:48Z</time>
      </trkpt>
      <trkpt lat="53.4586210" lon="14.5995755">
        <time>2026-08-01T15:58:34Z</time>
      </trkpt>
      <trkpt lat="53.4590256" lon="14.6018395">
        <time>2026-08-01T15:59:52Z</time>
      </trkpt>
      <trkpt lat="53.4591037" lon="14.6032985">
        <time>2026-08-01T16:00:35Z</time>
      </trkpt>
      <trkpt lat="53.4592835" lon="14.6047715">
        <time>2026-08-01T16:01:19Z</time>
      </trkpt>
      <trkpt lat="53.4594850" lon="14.6059077">
        <time>2026-08-01T16:01:53Z</time>
      </trkpt>
      <trkpt lat="53.4597623" lon="14.6070420">
        <time>2026-08-01T16:02:29Z</time>
      </trkpt>
      <trkpt lat="53.4598763" lon="14.6072836">
        <time>2026-08-01T16:02:39Z</time>
      </trkpt>
      <trkpt lat="53.4600510" lon="14.6074867">
        <time>2026-08-01T16:02:56Z</time>
      </trkpt>
      <trkpt lat="53.4601425" lon="14.6075148">
        <time>2026-08-01T16:03:06Z</time>
      </trkpt>
      <trkpt lat="53.4605893" lon="14.6071393">
        <time>2026-08-01T16:03:58Z</time>
      </trkpt>
      <trkpt lat="53.4607740" lon="14.6069340">
        <time>2026-08-01T16:04:22Z</time>
      </trkpt>
      <trkpt lat="53.4608931" lon="14.6067080">
        <time>2026-08-01T16:04:53Z</time>
      </trkpt>
      <trkpt lat="53.4609744" lon="14.6066103">
        <time>2026-08-01T16:05:33Z</time>
      </trkpt>
      <trkpt lat="53.4610307" lon="14.6066825">
        <time>2026-08-01T16:06:51Z</time>
      </trkpt>
    </trkseg>
  </trk>

  <trk>
    <name>20260802</name>
    <extensions>
      <gpxx:TrackExtension xmlns:gpxx="http://www.garmin.com/xmlschemas/GpxExtensions/v3">
        <gpxx:DisplayColor>Transparent</gpxx:DisplayColor>
      </gpxx:TrackExtension>
    </extensions>
    <trkseg>
      <trkpt lat="53.4610068" lon="14.6068872">
        <time>2026-08-02T07:13:31Z</time>
      </trkpt>
      <trkpt lat="53.4607615" lon="14.6069899">
        <time>2026-08-02T07:55:11Z</time>
      </trkpt>
      <trkpt lat="53.4602254" lon="14.6075467">
        <time>2026-08-02T07:56:06Z</time>
      </trkpt>
      <trkpt lat="53.4601176" lon="14.6076100">
        <time>2026-08-02T07:56:14Z</time>
      </trkpt>
      <trkpt lat="53.4600150" lon="14.6075797">
        <time>2026-08-02T07:56:22Z</time>
      </trkpt>
      <trkpt lat="53.4598748" lon="14.6073642">
        <time>2026-08-02T07:56:36Z</time>
      </trkpt>
      <trkpt lat="53.4596903" lon="14.6069209">
        <time>2026-08-02T07:56:56Z</time>
      </trkpt>
      <trkpt lat="53.4595615" lon="14.6064348">
        <time>2026-08-02T07:57:13Z</time>
      </trkpt>
      <trkpt lat="53.4592510" lon="14.6043382">
        <time>2026-08-02T07:58:15Z</time>
      </trkpt>
      <trkpt lat="53.4591015" lon="14.6024747">
        <time>2026-08-02T07:59:17Z</time>
      </trkpt>
      <trkpt lat="53.4590789" lon="14.6011337">
        <time>2026-08-02T07:59:57Z</time>
      </trkpt>
      <trkpt lat="53.4590997" lon="14.6005158">
        <time>2026-08-02T08:00:17Z</time>
      </trkpt>
      <trkpt lat="53.4591588" lon="14.6002462">
        <time>2026-08-02T08:00:26Z</time>
      </trkpt>
      <trkpt lat="53.4592613" lon="14.6000535">
        <time>2026-08-02T08:00:34Z</time>
      </trkpt>
      <trkpt lat="53.4593996" lon="14.5999355">
        <time>2026-08-02T08:00:42Z</time>
      </trkpt>
      <trkpt lat="53.4595560" lon="14.5999017">
        <time>2026-08-02T08:00:50Z</time>
      </trkpt>
      <trkpt lat="53.4604150" lon="14.6000945">
        <time>2026-08-02T08:01:28Z</time>
      </trkpt>
      <trkpt lat="53.4628465" lon="14.6010364">
        <time>2026-08-02T08:03:13Z</time>
      </trkpt>
      <trkpt lat="53.4639740" lon="14.6015150">
        <time>2026-08-02T08:04:07Z</time>
      </trkpt>
      <trkpt lat="53.4650786" lon="14.6022604">
        <time>2026-08-02T08:05:04Z</time>
      </trkpt>
      <trkpt lat="53.4665787" lon="14.6029908">
        <time>2026-08-02T08:06:16Z</time>
      </trkpt>
      <trkpt lat="53.4676816" lon="14.6035970">
        <time>2026-08-02T08:07:11Z</time>
      </trkpt>
      <trkpt lat="53.4689631" lon="14.6046425">
        <time>2026-08-02T08:08:18Z</time>
      </trkpt>
      <trkpt lat="53.4697545" lon="14.6051981">
        <time>2026-08-02T08:08:58Z</time>
      </trkpt>
      <trkpt lat="53.4718904" lon="14.6067238">
        <time>2026-08-02T08:10:47Z</time>
      </trkpt>
      <trkpt lat="53.4746553" lon="14.6092105">
        <time>2026-08-02T08:13:16Z</time>
      </trkpt>
      <trkpt lat="53.4764847" lon="14.6110960">
        <time>2026-08-02T08:14:57Z</time>
      </trkpt>
      <trkpt lat="53.4771677" lon="14.6120303">
        <time>2026-08-02T08:15:39Z</time>
      </trkpt>
      <trkpt lat="53.4782142" lon="14.6132355">
        <time>2026-08-02T08:16:40Z</time>
      </trkpt>
      <trkpt lat="53.4798793" lon="14.6150459">
        <time>2026-08-02T08:18:15Z</time>
      </trkpt>
      <trkpt lat="53.4812855" lon="14.6158210">
        <time>2026-08-02T08:19:27Z</time>
      </trkpt>
      <trkpt lat="53.4826920" lon="14.6166119">
        <time>2026-08-02T08:20:40Z</time>
      </trkpt>
      <trkpt lat="53.4842048" lon="14.6177204">
        <time>2026-08-02T08:22:03Z</time>
      </trkpt>
      <trkpt lat="53.4852865" lon="14.6182623">
        <time>2026-08-02T08:22:59Z</time>
      </trkpt>
      <trkpt lat="53.4859655" lon="14.6188026">
        <time>2026-08-02T08:23:37Z</time>
      </trkpt>
      <trkpt lat="53.4877385" lon="14.6199848">
        <time>2026-08-02T08:25:12Z</time>
      </trkpt>
      <trkpt lat="53.4886080" lon="14.6204382">
        <time>2026-08-02T08:25:56Z</time>
      </trkpt>
      <trkpt lat="53.4893698" lon="14.6207038">
        <time>2026-08-02T08:26:39Z</time>
      </trkpt>
      <trkpt lat="53.4910537" lon="14.6217162">
        <time>2026-08-02T08:28:10Z</time>
      </trkpt>
      <trkpt lat="53.4921087" lon="14.6222846">
        <time>2026-08-02T08:29:06Z</time>
      </trkpt>
      <trkpt lat="53.4930427" lon="14.6226910">
        <time>2026-08-02T08:29:55Z</time>
      </trkpt>
      <trkpt lat="53.4944581" lon="14.6235063">
        <time>2026-08-02T08:31:11Z</time>
      </trkpt>
      <trkpt lat="53.4969564" lon="14.6247158">
        <time>2026-08-02T08:33:25Z</time>
      </trkpt>
      <trkpt lat="53.4983151" lon="14.6255429">
        <time>2026-08-02T08:34:37Z</time>
      </trkpt>
      <trkpt lat="53.4996138" lon="14.6261889">
        <time>2026-08-02T08:35:46Z</time>
      </trkpt>
      <trkpt lat="53.5004023" lon="14.6266347">
        <time>2026-08-02T08:36:28Z</time>
      </trkpt>
      <trkpt lat="53.5016719" lon="14.6275321">
        <time>2026-08-02T08:37:37Z</time>
      </trkpt>
      <trkpt lat="53.5031313" lon="14.6280780">
        <time>2026-08-02T08:38:51Z</time>
      </trkpt>
      <trkpt lat="53.5041000" lon="14.6287160">
        <time>2026-08-02T08:39:44Z</time>
      </trkpt>
      <trkpt lat="53.5050232" lon="14.6291105">
        <time>2026-08-02T08:40:32Z</time>
      </trkpt>
      <trkpt lat="53.5057815" lon="14.6296031">
        <time>2026-08-02T08:41:13Z</time>
      </trkpt>
      <trkpt lat="53.5070509" lon="14.6301076">
        <time>2026-08-02T08:42:19Z</time>
      </trkpt>
      <trkpt lat="53.5097750" lon="14.6316740">
        <time>2026-08-02T08:44:46Z</time>
      </trkpt>
      <trkpt lat="53.5116612" lon="14.6326531">
        <time>2026-08-02T08:46:29Z</time>
      </trkpt>
      <trkpt lat="53.5126167" lon="14.6330275">
        <time>2026-08-02T08:47:20Z</time>
      </trkpt>
      <trkpt lat="53.5137446" lon="14.6338578">
        <time>2026-08-02T08:48:24Z</time>
      </trkpt>
      <trkpt lat="53.5154627" lon="14.6349005">
        <time>2026-08-02T08:50:01Z</time>
      </trkpt>
      <trkpt lat="53.5165527" lon="14.6351204">
        <time>2026-08-02T08:51:00Z</time>
      </trkpt>
      <trkpt lat="53.5175598" lon="14.6349562">
        <time>2026-08-02T08:51:54Z</time>
      </trkpt>
      <trkpt lat="53.5185595" lon="14.6350050">
        <time>2026-08-02T08:52:47Z</time>
      </trkpt>
      <trkpt lat="53.5197138" lon="14.6348489">
        <time>2026-08-02T08:53:49Z</time>
      </trkpt>
      <trkpt lat="53.5206523" lon="14.6349550">
        <time>2026-08-02T08:54:39Z</time>
      </trkpt>
      <trkpt lat="53.5214370" lon="14.6348093">
        <time>2026-08-02T08:55:22Z</time>
      </trkpt>
      <trkpt lat="53.5225041" lon="14.6346938">
        <time>2026-08-02T08:56:18Z</time>
      </trkpt>
      <trkpt lat="53.5242750" lon="14.6348943">
        <time>2026-08-02T08:57:50Z</time>
      </trkpt>
      <trkpt lat="53.5266345" lon="14.6345365">
        <time>2026-08-02T08:59:52Z</time>
      </trkpt>
      <trkpt lat="53.5278818" lon="14.6344548">
        <time>2026-08-02T09:00:54Z</time>
      </trkpt>
      <trkpt lat="53.5300637" lon="14.6340299">
        <time>2026-08-02T09:02:43Z</time>
      </trkpt>
      <trkpt lat="53.5313033" lon="14.6337426">
        <time>2026-08-02T09:03:45Z</time>
      </trkpt>
      <trkpt lat="53.5322243" lon="14.6333887">
        <time>2026-08-02T09:04:34Z</time>
      </trkpt>
      <trkpt lat="53.5339545" lon="14.6321832">
        <time>2026-08-02T09:06:09Z</time>
      </trkpt>
      <trkpt lat="53.5346443" lon="14.6318041">
        <time>2026-08-02T09:06:45Z</time>
      </trkpt>
      <trkpt lat="53.5356655" lon="14.6312978">
        <time>2026-08-02T09:07:38Z</time>
      </trkpt>
      <trkpt lat="53.5370442" lon="14.6300425">
        <time>2026-08-02T09:08:56Z</time>
      </trkpt>
      <trkpt lat="53.5377404" lon="14.6294404">
        <time>2026-08-02T09:09:35Z</time>
      </trkpt>
      <trkpt lat="53.5384823" lon="14.6289657">
        <time>2026-08-02T09:10:15Z</time>
      </trkpt>
      <trkpt lat="53.5393022" lon="14.6286123">
        <time>2026-08-02T09:10:57Z</time>
      </trkpt>
      <trkpt lat="53.5404818" lon="14.6273901">
        <time>2026-08-02T09:12:06Z</time>
      </trkpt>
      <trkpt lat="53.5415677" lon="14.6263511">
        <time>2026-08-02T09:13:08Z</time>
      </trkpt>
      <trkpt lat="53.5435828" lon="14.6244337">
        <time>2026-08-02T09:15:05Z</time>
      </trkpt>
      <trkpt lat="53.5443813" lon="14.6236747">
        <time>2026-08-02T09:15:54Z</time>
      </trkpt>
      <trkpt lat="53.5449739" lon="14.6228812">
        <time>2026-08-02T09:16:38Z</time>
      </trkpt>
      <trkpt lat="53.5456468" lon="14.6218692">
        <time>2026-08-02T09:17:24Z</time>
      </trkpt>
      <trkpt lat="53.5462855" lon="14.6207753">
        <time>2026-08-02T09:18:13Z</time>
      </trkpt>
      <trkpt lat="53.5472697" lon="14.6194402">
        <time>2026-08-02T09:19:19Z</time>
      </trkpt>
      <trkpt lat="53.5482588" lon="14.6176503">
        <time>2026-08-02T09:20:36Z</time>
      </trkpt>
      <trkpt lat="53.5488157" lon="14.6166868">
        <time>2026-08-02T09:21:18Z</time>
      </trkpt>
      <trkpt lat="53.5500394" lon="14.6145795">
        <time>2026-08-02T09:22:51Z</time>
      </trkpt>
      <trkpt lat="53.5509164" lon="14.6132226">
        <time>2026-08-02T09:23:55Z</time>
      </trkpt>
      <trkpt lat="53.5514868" lon="14.6119871">
        <time>2026-08-02T09:24:45Z</time>
      </trkpt>
      <trkpt lat="53.5523143" lon="14.6105287">
        <time>2026-08-02T09:25:50Z</time>
      </trkpt>
      <trkpt lat="53.5528262" lon="14.6094642">
        <time>2026-08-02T09:26:34Z</time>
      </trkpt>
      <trkpt lat="53.5534368" lon="14.6085289">
        <time>2026-08-02T09:27:19Z</time>
      </trkpt>
      <trkpt lat="53.5542858" lon="14.6070899">
        <time>2026-08-02T09:28:25Z</time>
      </trkpt>
      <trkpt lat="53.5550719" lon="14.6056558">
        <time>2026-08-02T09:29:30Z</time>
      </trkpt>
      <trkpt lat="53.5555759" lon="14.6045320">
        <time>2026-08-02T09:30:17Z</time>
      </trkpt>
      <trkpt lat="53.5571466" lon="14.6022640">
        <time>2026-08-02T09:32:06Z</time>
      </trkpt>
      <trkpt lat="53.5579645" lon="14.6014283">
        <time>2026-08-02T09:32:56Z</time>
      </trkpt>
      <trkpt lat="53.5592632" lon="14.6007963">
        <time>2026-08-02T09:34:06Z</time>
      </trkpt>
      <trkpt lat="53.5607079" lon="14.6003705">
        <time>2026-08-02T09:35:25Z</time>
      </trkpt>
      <trkpt lat="53.5619080" lon="14.6002339">
        <time>2026-08-02T09:36:30Z</time>
      </trkpt>
      <trkpt lat="53.5630318" lon="14.5999503">
        <time>2026-08-02T09:37:32Z</time>
      </trkpt>
      <trkpt lat="53.5640191" lon="14.5998268">
        <time>2026-08-02T09:38:25Z</time>
      </trkpt>
      <trkpt lat="53.5656315" lon="14.5992455">
        <time>2026-08-02T09:39:54Z</time>
      </trkpt>
      <trkpt lat="53.5668282" lon="14.5989976">
        <time>2026-08-02T09:40:59Z</time>
      </trkpt>
      <trkpt lat="53.5675498" lon="14.5987335">
        <time>2026-08-02T09:41:39Z</time>
      </trkpt>
      <trkpt lat="53.5684439" lon="14.5986821">
        <time>2026-08-02T09:42:27Z</time>
      </trkpt>
      <trkpt lat="53.5704567" lon="14.5981722">
        <time>2026-08-02T09:44:17Z</time>
      </trkpt>
      <trkpt lat="53.5727490" lon="14.5976345">
        <time>2026-08-02T09:46:20Z</time>
      </trkpt>
      <trkpt lat="53.5736708" lon="14.5973125">
        <time>2026-08-02T09:47:10Z</time>
      </trkpt>
      <trkpt lat="53.5752153" lon="14.5970350">
        <time>2026-08-02T09:48:33Z</time>
      </trkpt>
      <trkpt lat="53.5761133" lon="14.5969977">
        <time>2026-08-02T09:49:20Z</time>
      </trkpt>
      <trkpt lat="53.5771728" lon="14.5968237">
        <time>2026-08-02T09:50:16Z</time>
      </trkpt>
      <trkpt lat="53.5780782" lon="14.5969161">
        <time>2026-08-02T09:51:03Z</time>
      </trkpt>
      <trkpt lat="53.5796900" lon="14.5968685">
        <time>2026-08-02T09:52:25Z</time>
      </trkpt>
      <trkpt lat="53.5811828" lon="14.5969115">
        <time>2026-08-02T09:53:46Z</time>
      </trkpt>
      <trkpt lat="53.5824218" lon="14.5967158">
        <time>2026-08-02T09:54:53Z</time>
      </trkpt>
      <trkpt lat="53.5832584" lon="14.5966768">
        <time>2026-08-02T09:55:37Z</time>
      </trkpt>
      <trkpt lat="53.5849583" lon="14.5963946">
        <time>2026-08-02T09:57:06Z</time>
      </trkpt>
      <trkpt lat="53.5866615" lon="14.5958982">
        <time>2026-08-02T09:58:36Z</time>
      </trkpt>
      <trkpt lat="53.5892333" lon="14.5950569">
        <time>2026-08-02T10:00:56Z</time>
      </trkpt>
      <trkpt lat="53.5925080" lon="14.5938034">
        <time>2026-08-02T10:03:53Z</time>
      </trkpt>
      <trkpt lat="53.5933187" lon="14.5936175">
        <time>2026-08-02T10:04:36Z</time>
      </trkpt>
      <trkpt lat="53.5945998" lon="14.5930975">
        <time>2026-08-02T10:05:46Z</time>
      </trkpt>
      <trkpt lat="53.5957310" lon="14.5927203">
        <time>2026-08-02T10:06:47Z</time>
      </trkpt>
      <trkpt lat="53.5965945" lon="14.5925242">
        <time>2026-08-02T10:07:33Z</time>
      </trkpt>
      <trkpt lat="53.5986798" lon="14.5918210">
        <time>2026-08-02T10:09:26Z</time>
      </trkpt>
      <trkpt lat="53.5999530" lon="14.5912144">
        <time>2026-08-02T10:10:37Z</time>
      </trkpt>
      <trkpt lat="53.6020557" lon="14.5908628">
        <time>2026-08-02T10:12:30Z</time>
      </trkpt>
      <trkpt lat="53.6032127" lon="14.5904435">
        <time>2026-08-02T10:13:33Z</time>
      </trkpt>
      <trkpt lat="53.6049032" lon="14.5903627">
        <time>2026-08-02T10:15:03Z</time>
      </trkpt>
      <trkpt lat="53.6059937" lon="14.5900752">
        <time>2026-08-02T10:16:04Z</time>
      </trkpt>
      <trkpt lat="53.6067210" lon="14.5899393">
        <time>2026-08-02T10:16:44Z</time>
      </trkpt>
      <trkpt lat="53.6092093" lon="14.5892213">
        <time>2026-08-02T10:19:03Z</time>
      </trkpt>
      <trkpt lat="53.6109807" lon="14.5885613">
        <time>2026-08-02T10:20:44Z</time>
      </trkpt>
      <trkpt lat="53.6117221" lon="14.5881607">
        <time>2026-08-02T10:21:24Z</time>
      </trkpt>
      <trkpt lat="53.6155314" lon="14.5865045">
        <time>2026-08-02T10:25:00Z</time>
      </trkpt>
      <trkpt lat="53.6178002" lon="14.5856064">
        <time>2026-08-02T10:27:05Z</time>
      </trkpt>
      <trkpt lat="53.6188657" lon="14.5852820">
        <time>2026-08-02T10:28:02Z</time>
      </trkpt>
      <trkpt lat="53.6207800" lon="14.5845026">
        <time>2026-08-02T10:29:46Z</time>
      </trkpt>
      <trkpt lat="53.6218400" lon="14.5842347">
        <time>2026-08-02T10:30:45Z</time>
      </trkpt>
      <trkpt lat="53.6230541" lon="14.5836013">
        <time>2026-08-02T10:31:55Z</time>
      </trkpt>
      <trkpt lat="53.6248842" lon="14.5830610">
        <time>2026-08-02T10:33:36Z</time>
      </trkpt>
      <trkpt lat="53.6260990" lon="14.5824574">
        <time>2026-08-02T10:34:46Z</time>
      </trkpt>
      <trkpt lat="53.6268506" lon="14.5819428">
        <time>2026-08-02T10:35:30Z</time>
      </trkpt>
      <trkpt lat="53.6278440" lon="14.5809130">
        <time>2026-08-02T10:36:35Z</time>
      </trkpt>
      <trkpt lat="53.6286467" lon="14.5803662">
        <time>2026-08-02T10:37:21Z</time>
      </trkpt>
      <trkpt lat="53.6301663" lon="14.5788383">
        <time>2026-08-02T10:39:00Z</time>
      </trkpt>
      <trkpt lat="53.6312935" lon="14.5774107">
        <time>2026-08-02T10:40:24Z</time>
      </trkpt>
      <trkpt lat="53.6322168" lon="14.5765459">
        <time>2026-08-02T10:41:25Z</time>
      </trkpt>
      <trkpt lat="53.6327165" lon="14.5748944">
        <time>2026-08-02T10:42:31Z</time>
      </trkpt>
      <trkpt lat="53.6328538" lon="14.5736780">
        <time>2026-08-02T10:43:14Z</time>
      </trkpt>
      <trkpt lat="53.6340824" lon="14.5712195">
        <time>2026-08-02T10:45:05Z</time>
      </trkpt>
      <trkpt lat="53.6349085" lon="14.5697635">
        <time>2026-08-02T10:46:13Z</time>
      </trkpt>
      <trkpt lat="53.6365670" lon="14.5675970">
        <time>2026-08-02T10:48:12Z</time>
      </trkpt>
      <trkpt lat="53.6376088" lon="14.5664955">
        <time>2026-08-02T10:49:22Z</time>
      </trkpt>
      <trkpt lat="53.6381890" lon="14.5657668">
        <time>2026-08-02T10:50:02Z</time>
      </trkpt>
      <trkpt lat="53.6390798" lon="14.5647072">
        <time>2026-08-02T10:51:05Z</time>
      </trkpt>
      <trkpt lat="53.6402757" lon="14.5632555">
        <time>2026-08-02T10:52:28Z</time>
      </trkpt>
      <trkpt lat="53.6414113" lon="14.5613160">
        <time>2026-08-02T10:53:58Z</time>
      </trkpt>
      <trkpt lat="53.6428343" lon="14.5590082">
        <time>2026-08-02T10:55:49Z</time>
      </trkpt>
      <trkpt lat="53.6436186" lon="14.5579302">
        <time>2026-08-02T10:56:46Z</time>
      </trkpt>
      <trkpt lat="53.6444217" lon="14.5567647">
        <time>2026-08-02T10:57:46Z</time>
      </trkpt>
      <trkpt lat="53.6450497" lon="14.5559278">
        <time>2026-08-02T10:58:32Z</time>
      </trkpt>
      <trkpt lat="53.6478542" lon="14.5528963">
        <time>2026-08-02T11:01:42Z</time>
      </trkpt>
      <trkpt lat="53.6489215" lon="14.5515625">
        <time>2026-08-02T11:02:57Z</time>
      </trkpt>
      <trkpt lat="53.6498439" lon="14.5501545">
        <time>2026-08-02T11:04:07Z</time>
      </trkpt>
      <trkpt lat="53.6514865" lon="14.5453967">
        <time>2026-08-02T11:07:12Z</time>
      </trkpt>
      <trkpt lat="53.6525910" lon="14.5426101">
        <time>2026-08-02T11:09:05Z</time>
      </trkpt>
      <trkpt lat="53.6546455" lon="14.5370888">
        <time>2026-08-02T11:12:45Z</time>
      </trkpt>
      <trkpt lat="53.6557068" lon="14.5339671">
        <time>2026-08-02T11:14:46Z</time>
      </trkpt>
      <trkpt lat="53.6565113" lon="14.5319530">
        <time>2026-08-02T11:16:07Z</time>
      </trkpt>
      <trkpt lat="53.6569845" lon="14.5305977">
        <time>2026-08-02T11:16:59Z</time>
      </trkpt>
      <trkpt lat="53.6574370" lon="14.5294946">
        <time>2026-08-02T11:17:43Z</time>
      </trkpt>
      <trkpt lat="53.6578223" lon="14.5283601">
        <time>2026-08-02T11:18:28Z</time>
      </trkpt>
      <trkpt lat="53.6584720" lon="14.5267087">
        <time>2026-08-02T11:19:34Z</time>
      </trkpt>
      <trkpt lat="53.6593764" lon="14.5238855">
        <time>2026-08-02T11:21:23Z</time>
      </trkpt>
      <trkpt lat="53.6597403" lon="14.5221842">
        <time>2026-08-02T11:22:23Z</time>
      </trkpt>
      <trkpt lat="53.6605378" lon="14.5199325">
        <time>2026-08-02T11:23:48Z</time>
      </trkpt>
      <trkpt lat="53.6610403" lon="14.5185487">
        <time>2026-08-02T11:24:40Z</time>
      </trkpt>
      <trkpt lat="53.6616450" lon="14.5174269">
        <time>2026-08-02T11:25:31Z</time>
      </trkpt>
      <trkpt lat="53.6625685" lon="14.5159228">
        <time>2026-08-02T11:26:43Z</time>
      </trkpt>
      <trkpt lat="53.6632960" lon="14.5152535">
        <time>2026-08-02T11:27:31Z</time>
      </trkpt>
      <trkpt lat="53.6648458" lon="14.5137869">
        <time>2026-08-02T11:29:14Z</time>
      </trkpt>
      <trkpt lat="53.6667906" lon="14.5120133">
        <time>2026-08-02T11:31:19Z</time>
      </trkpt>
      <trkpt lat="53.6678230" lon="14.5108472">
        <time>2026-08-02T11:32:30Z</time>
      </trkpt>
      <trkpt lat="53.6687270" lon="14.5100922">
        <time>2026-08-02T11:33:26Z</time>
      </trkpt>
      <trkpt lat="53.6693975" lon="14.5093471">
        <time>2026-08-02T11:34:11Z</time>
      </trkpt>
      <trkpt lat="53.6703323" lon="14.5081050">
        <time>2026-08-02T11:35:17Z</time>
      </trkpt>
      <trkpt lat="53.6720105" lon="14.5068567">
        <time>2026-08-02T11:36:58Z</time>
      </trkpt>
      <trkpt lat="53.6741465" lon="14.5048694">
        <time>2026-08-02T11:39:08Z</time>
      </trkpt>
      <trkpt lat="53.6749498" lon="14.5042092">
        <time>2026-08-02T11:39:59Z</time>
      </trkpt>
      <trkpt lat="53.6767315" lon="14.5021913">
        <time>2026-08-02T11:41:58Z</time>
      </trkpt>
      <trkpt lat="53.6775840" lon="14.5004205">
        <time>2026-08-02T11:43:10Z</time>
      </trkpt>
      <trkpt lat="53.6783501" lon="14.4974210">
        <time>2026-08-02T11:44:55Z</time>
      </trkpt>
      <trkpt lat="53.6786713" lon="14.4958740">
        <time>2026-08-02T11:45:47Z</time>
      </trkpt>
      <trkpt lat="53.6791587" lon="14.4928319">
        <time>2026-08-02T11:47:26Z</time>
      </trkpt>
      <trkpt lat="53.6797522" lon="14.4893650">
        <time>2026-08-02T11:49:18Z</time>
      </trkpt>
      <trkpt lat="53.6804182" lon="14.4868883">
        <time>2026-08-02T11:50:45Z</time>
      </trkpt>
      <trkpt lat="53.6811733" lon="14.4832451">
        <time>2026-08-02T11:52:48Z</time>
      </trkpt>
      <trkpt lat="53.6816721" lon="14.4812345">
        <time>2026-08-02T11:53:57Z</time>
      </trkpt>
      <trkpt lat="53.6822715" lon="14.4797805">
        <time>2026-08-02T11:54:53Z</time>
      </trkpt>
      <trkpt lat="53.6828283" lon="14.4782323">
        <time>2026-08-02T11:55:51Z</time>
      </trkpt>
      <trkpt lat="53.6836220" lon="14.4763200">
        <time>2026-08-02T11:57:08Z</time>
      </trkpt>
      <trkpt lat="53.6844205" lon="14.4740482">
        <time>2026-08-02T11:58:33Z</time>
      </trkpt>
      <trkpt lat="53.6853158" lon="14.4720664">
        <time>2026-08-02T11:59:53Z</time>
      </trkpt>
      <trkpt lat="53.6861021" lon="14.4700539">
        <time>2026-08-02T12:01:12Z</time>
      </trkpt>
      <trkpt lat="53.6866670" lon="14.4688950">
        <time>2026-08-02T12:02:00Z</time>
      </trkpt>
      <trkpt lat="53.6872546" lon="14.4675246">
        <time>2026-08-02T12:02:55Z</time>
      </trkpt>
      <trkpt lat="53.6883002" lon="14.4656153">
        <time>2026-08-02T12:04:19Z</time>
      </trkpt>
      <trkpt lat="53.6893315" lon="14.4636455">
        <time>2026-08-02T12:05:44Z</time>
      </trkpt>
      <trkpt lat="53.6916880" lon="14.4587375">
        <time>2026-08-02T12:09:06Z</time>
      </trkpt>
      <trkpt lat="53.6922918" lon="14.4573702">
        <time>2026-08-02T12:10:00Z</time>
      </trkpt>
      <trkpt lat="53.6947254" lon="14.4524652">
        <time>2026-08-02T12:13:32Z</time>
      </trkpt>
      <trkpt lat="53.6954795" lon="14.4505755">
        <time>2026-08-02T12:14:50Z</time>
      </trkpt>
      <trkpt lat="53.6964586" lon="14.4478395">
        <time>2026-08-02T12:16:35Z</time>
      </trkpt>
      <trkpt lat="53.6974857" lon="14.4449200">
        <time>2026-08-02T12:18:24Z</time>
      </trkpt>
      <trkpt lat="53.6992717" lon="14.4409192">
        <time>2026-08-02T12:21:04Z</time>
      </trkpt>
      <trkpt lat="53.6997853" lon="14.4395678">
        <time>2026-08-02T12:21:54Z</time>
      </trkpt>
      <trkpt lat="53.7003850" lon="14.4381208">
        <time>2026-08-02T12:22:48Z</time>
      </trkpt>
      <trkpt lat="53.7010255" lon="14.4369609">
        <time>2026-08-02T12:23:39Z</time>
      </trkpt>
      <trkpt lat="53.7019280" lon="14.4347133">
        <time>2026-08-02T12:25:03Z</time>
      </trkpt>
      <trkpt lat="53.7030962" lon="14.4320953">
        <time>2026-08-02T12:26:46Z</time>
      </trkpt>
      <trkpt lat="53.7036113" lon="14.4306002">
        <time>2026-08-02T12:27:41Z</time>
      </trkpt>
      <trkpt lat="53.7041570" lon="14.4294800">
        <time>2026-08-02T12:28:27Z</time>
      </trkpt>
      <trkpt lat="53.7047278" lon="14.4280103">
        <time>2026-08-02T12:29:21Z</time>
      </trkpt>
      <trkpt lat="53.7056139" lon="14.4262388">
        <time>2026-08-02T12:30:34Z</time>
      </trkpt>
      <trkpt lat="53.7061705" lon="14.4241990">
        <time>2026-08-02T12:31:47Z</time>
      </trkpt>
      <trkpt lat="53.7065668" lon="14.4229948">
        <time>2026-08-02T12:32:31Z</time>
      </trkpt>
      <trkpt lat="53.7072130" lon="14.4216656">
        <time>2026-08-02T12:33:25Z</time>
      </trkpt>
      <trkpt lat="53.7081128" lon="14.4196956">
        <time>2026-08-02T12:34:46Z</time>
      </trkpt>
      <trkpt lat="53.7088500" lon="14.4176970">
        <time>2026-08-02T12:36:01Z</time>
      </trkpt>
      <trkpt lat="53.7094733" lon="14.4165385">
        <time>2026-08-02T12:36:51Z</time>
      </trkpt>
      <trkpt lat="53.7102196" lon="14.4146890">
        <time>2026-08-02T12:38:01Z</time>
      </trkpt>
      <trkpt lat="53.7108410" lon="14.4131995">
        <time>2026-08-02T12:39:00Z</time>
      </trkpt>
      <trkpt lat="53.7114214" lon="14.4120525">
        <time>2026-08-02T12:39:46Z</time>
      </trkpt>
      <trkpt lat="53.7126154" lon="14.4085506">
        <time>2026-08-02T12:41:51Z</time>
      </trkpt>
      <trkpt lat="53.7129148" lon="14.4072993">
        <time>2026-08-02T12:42:33Z</time>
      </trkpt>
      <trkpt lat="53.7135809" lon="14.4051794">
        <time>2026-08-02T12:43:48Z</time>
      </trkpt>
      <trkpt lat="53.7138917" lon="14.4040336">
        <time>2026-08-02T12:44:26Z</time>
      </trkpt>
      <trkpt lat="53.7145918" lon="14.4022392">
        <time>2026-08-02T12:45:33Z</time>
      </trkpt>
      <trkpt lat="53.7156838" lon="14.3991225">
        <time>2026-08-02T12:47:25Z</time>
      </trkpt>
      <trkpt lat="53.7166857" lon="14.3965270">
        <time>2026-08-02T12:49:00Z</time>
      </trkpt>
      <trkpt lat="53.7172585" lon="14.3944942">
        <time>2026-08-02T12:50:09Z</time>
      </trkpt>
      <trkpt lat="53.7183223" lon="14.3913579">
        <time>2026-08-02T12:52:00Z</time>
      </trkpt>
      <trkpt lat="53.7187444" lon="14.3897305">
        <time>2026-08-02T12:52:54Z</time>
      </trkpt>
      <trkpt lat="53.7199819" lon="14.3866272">
        <time>2026-08-02T12:54:51Z</time>
      </trkpt>
      <trkpt lat="53.7203414" lon="14.3855096">
        <time>2026-08-02T12:55:29Z</time>
      </trkpt>
      <trkpt lat="53.7211727" lon="14.3832892">
        <time>2026-08-02T12:56:50Z</time>
      </trkpt>
      <trkpt lat="53.7219157" lon="14.3806392">
        <time>2026-08-02T12:58:20Z</time>
      </trkpt>
      <trkpt lat="53.7231815" lon="14.3772055">
        <time>2026-08-02T13:00:23Z</time>
      </trkpt>
      <trkpt lat="53.7241374" lon="14.3743899">
        <time>2026-08-02T13:02:01Z</time>
      </trkpt>
      <trkpt lat="53.7247161" lon="14.3721790">
        <time>2026-08-02T13:03:15Z</time>
      </trkpt>
      <trkpt lat="53.7259811" lon="14.3691313">
        <time>2026-08-02T13:05:10Z</time>
      </trkpt>
      <trkpt lat="53.7275936" lon="14.3652190">
        <time>2026-08-02T13:07:37Z</time>
      </trkpt>
      <trkpt lat="53.7280567" lon="14.3638487">
        <time>2026-08-02T13:08:26Z</time>
      </trkpt>
      <trkpt lat="53.7288483" lon="14.3619533">
        <time>2026-08-02T13:09:37Z</time>
      </trkpt>
      <trkpt lat="53.7294410" lon="14.3606798">
        <time>2026-08-02T13:10:27Z</time>
      </trkpt>
      <trkpt lat="53.7298037" lon="14.3595857">
        <time>2026-08-02T13:11:05Z</time>
      </trkpt>
      <trkpt lat="53.7308242" lon="14.3574312">
        <time>2026-08-02T13:12:30Z</time>
      </trkpt>
      <trkpt lat="53.7321158" lon="14.3542352">
        <time>2026-08-02T13:14:29Z</time>
      </trkpt>
      <trkpt lat="53.7328602" lon="14.3520357">
        <time>2026-08-02T13:15:47Z</time>
      </trkpt>
      <trkpt lat="53.7339068" lon="14.3498787">
        <time>2026-08-02T13:17:14Z</time>
      </trkpt>
      <trkpt lat="53.7347920" lon="14.3476580">
        <time>2026-08-02T13:18:36Z</time>
      </trkpt>
      <trkpt lat="53.7355048" lon="14.3462540">
        <time>2026-08-02T13:19:35Z</time>
      </trkpt>
      <trkpt lat="53.7359687" lon="14.3453008">
        <time>2026-08-02T13:20:13Z</time>
      </trkpt>
      <trkpt lat="53.7371620" lon="14.3435538">
        <time>2026-08-02T13:21:40Z</time>
      </trkpt>
      <trkpt lat="53.7377559" lon="14.3425695">
        <time>2026-08-02T13:22:26Z</time>
      </trkpt>
      <trkpt lat="53.7382315" lon="14.3413586">
        <time>2026-08-02T13:23:12Z</time>
      </trkpt>
      <trkpt lat="53.7387883" lon="14.3406022">
        <time>2026-08-02T13:23:53Z</time>
      </trkpt>
      <trkpt lat="53.7394472" lon="14.3395302">
        <time>2026-08-02T13:24:43Z</time>
      </trkpt>
      <trkpt lat="53.7405818" lon="14.3375083">
        <time>2026-08-02T13:26:11Z</time>
      </trkpt>
      <trkpt lat="53.7415725" lon="14.3354567">
        <time>2026-08-02T13:27:36Z</time>
      </trkpt>
      <trkpt lat="53.7421313" lon="14.3344855">
        <time>2026-08-02T13:28:18Z</time>
      </trkpt>
      <trkpt lat="53.7430410" lon="14.3332068">
        <time>2026-08-02T13:29:23Z</time>
      </trkpt>
      <trkpt lat="53.7438728" lon="14.3316200">
        <time>2026-08-02T13:30:29Z</time>
      </trkpt>
      <trkpt lat="53.7448523" lon="14.3300684">
        <time>2026-08-02T13:31:42Z</time>
      </trkpt>
      <trkpt lat="53.7458116" lon="14.3289506">
        <time>2026-08-02T13:32:44Z</time>
      </trkpt>
      <trkpt lat="53.7467382" lon="14.3282507">
        <time>2026-08-02T13:33:38Z</time>
      </trkpt>
      <trkpt lat="53.7478705" lon="14.3278990">
        <time>2026-08-02T13:34:43Z</time>
      </trkpt>
      <trkpt lat="53.7487621" lon="14.3263733">
        <time>2026-08-02T13:35:53Z</time>
      </trkpt>
      <trkpt lat="53.7493460" lon="14.3254470">
        <time>2026-08-02T13:36:36Z</time>
      </trkpt>
      <trkpt lat="53.7502261" lon="14.3245651">
        <time>2026-08-02T13:37:30Z</time>
      </trkpt>
      <trkpt lat="53.7509915" lon="14.3241308">
        <time>2026-08-02T13:38:12Z</time>
      </trkpt>
      <trkpt lat="53.7517435" lon="14.3230002">
        <time>2026-08-02T13:39:09Z</time>
      </trkpt>
      <trkpt lat="53.7523322" lon="14.3218932">
        <time>2026-08-02T13:39:55Z</time>
      </trkpt>
      <trkpt lat="53.7530648" lon="14.3198963">
        <time>2026-08-02T13:41:08Z</time>
      </trkpt>
      <trkpt lat="53.7535247" lon="14.3177023">
        <time>2026-08-02T13:42:20Z</time>
      </trkpt>
      <trkpt lat="53.7540507" lon="14.3156108">
        <time>2026-08-02T13:43:30Z</time>
      </trkpt>
      <trkpt lat="53.7547320" lon="14.3141298">
        <time>2026-08-02T13:44:29Z</time>
      </trkpt>
      <trkpt lat="53.7553314" lon="14.3123785">
        <time>2026-08-02T13:45:33Z</time>
      </trkpt>
      <trkpt lat="53.7565030" lon="14.3100095">
        <time>2026-08-02T13:47:12Z</time>
      </trkpt>
      <trkpt lat="53.7569716" lon="14.3084985">
        <time>2026-08-02T13:48:06Z</time>
      </trkpt>
      <trkpt lat="53.7572662" lon="14.3064028">
        <time>2026-08-02T13:49:15Z</time>
      </trkpt>
      <trkpt lat="53.7576623" lon="14.3042120">
        <time>2026-08-02T13:50:27Z</time>
      </trkpt>
      <trkpt lat="53.7576860" lon="14.3028041">
        <time>2026-08-02T13:51:14Z</time>
      </trkpt>
      <trkpt lat="53.7576940" lon="14.3011698">
        <time>2026-08-02T13:52:06Z</time>
      </trkpt>
      <trkpt lat="53.7575523" lon="14.2986110">
        <time>2026-08-02T13:53:26Z</time>
      </trkpt>
      <trkpt lat="53.7575250" lon="14.2970132">
        <time>2026-08-02T13:54:17Z</time>
      </trkpt>
      <trkpt lat="53.7574670" lon="14.2954757">
        <time>2026-08-02T13:55:05Z</time>
      </trkpt>
      <trkpt lat="53.7572766" lon="14.2939343">
        <time>2026-08-02T13:55:53Z</time>
      </trkpt>
      <trkpt lat="53.7567082" lon="14.2920712">
        <time>2026-08-02T13:57:00Z</time>
      </trkpt>
      <trkpt lat="53.7562280" lon="14.2901670">
        <time>2026-08-02T13:58:04Z</time>
      </trkpt>
      <trkpt lat="53.7552727" lon="14.2872824">
        <time>2026-08-02T13:59:48Z</time>
      </trkpt>
      <trkpt lat="53.7543995" lon="14.2840990">
        <time>2026-08-02T14:01:39Z</time>
      </trkpt>
      <trkpt lat="53.7537567" lon="14.2823937">
        <time>2026-08-02T14:02:44Z</time>
      </trkpt>
      <trkpt lat="53.7526392" lon="14.2802177">
        <time>2026-08-02T14:04:16Z</time>
      </trkpt>
      <trkpt lat="53.7520340" lon="14.2791699">
        <time>2026-08-02T14:05:02Z</time>
      </trkpt>
      <trkpt lat="53.7514408" lon="14.2782649">
        <time>2026-08-02T14:05:47Z</time>
      </trkpt>
      <trkpt lat="53.7496580" lon="14.2752195">
        <time>2026-08-02T14:08:05Z</time>
      </trkpt>
      <trkpt lat="53.7487997" lon="14.2739893">
        <time>2026-08-02T14:09:08Z</time>
      </trkpt>
      <trkpt lat="53.7481370" lon="14.2731520">
        <time>2026-08-02T14:09:54Z</time>
      </trkpt>
      <trkpt lat="53.7469610" lon="14.2723750">
        <time>2026-08-02T14:11:05Z</time>
      </trkpt>
      <trkpt lat="53.7461933" lon="14.2722188">
        <time>2026-08-02T14:11:49Z</time>
      </trkpt>
      <trkpt lat="53.7454980" lon="14.2718882">
        <time>2026-08-02T14:12:29Z</time>
      </trkpt>
      <trkpt lat="53.7446613" lon="14.2717255">
        <time>2026-08-02T14:13:15Z</time>
      </trkpt>
      <trkpt lat="53.7439185" lon="14.2718783">
        <time>2026-08-02T14:13:58Z</time>
      </trkpt>
      <trkpt lat="53.7406977" lon="14.2722805">
        <time>2026-08-02T14:16:55Z</time>
      </trkpt>
      <trkpt lat="53.7393060" lon="14.2723508">
        <time>2026-08-02T14:18:11Z</time>
      </trkpt>
      <trkpt lat="53.7390310" lon="14.2723252">
        <time>2026-08-02T14:18:31Z</time>
      </trkpt>
      <trkpt lat="53.7388673" lon="14.2721980">
        <time>2026-08-02T14:18:47Z</time>
      </trkpt>
      <trkpt lat="53.7387842" lon="14.2720758">
        <time>2026-08-02T14:19:01Z</time>
      </trkpt>
      <trkpt lat="53.7387508" lon="14.2719418">
        <time>2026-08-02T14:19:23Z</time>
      </trkpt>
      <trkpt lat="53.7387661" lon="14.2711917">
        <time>2026-08-02T14:20:32Z</time>
      </trkpt>
      <trkpt lat="53.7387013" lon="14.2705780">
        <time>2026-08-02T14:22:42Z</time>
      </trkpt>
    </trkseg>
  </trk>

  <trk>
    <name>20260803</name>
    <extensions>
      <gpxx:TrackExtension xmlns:gpxx="http://www.garmin.com/xmlschemas/GpxExtensions/v3">
        <gpxx:DisplayColor>Transparent</gpxx:DisplayColor>
      </gpxx:TrackExtension>
    </extensions>
    <trkseg>
      <trkpt lat="53.7386143" lon="14.2705250">
        <time>2026-08-03T09:48:56Z</time>
      </trkpt>
      <trkpt lat="53.7387660" lon="14.2705507">
        <time>2026-08-03T10:21:21Z</time>
      </trkpt>
      <trkpt lat="53.7387917" lon="14.2713573">
        <time>2026-08-03T10:22:09Z</time>
      </trkpt>
      <trkpt lat="53.7387531" lon="14.2719225">
        <time>2026-08-03T10:22:27Z</time>
      </trkpt>
      <trkpt lat="53.7387685" lon="14.2720995">
        <time>2026-08-03T10:22:33Z</time>
      </trkpt>
      <trkpt lat="53.7388433" lon="14.2722598">
        <time>2026-08-03T10:22:41Z</time>
      </trkpt>
      <trkpt lat="53.7394817" lon="14.2723913">
        <time>2026-08-03T10:23:20Z</time>
      </trkpt>
      <trkpt lat="53.7399193" lon="14.2724237">
        <time>2026-08-03T10:23:42Z</time>
      </trkpt>
      <trkpt lat="53.7403633" lon="14.2723175">
        <time>2026-08-03T10:24:04Z</time>
      </trkpt>
      <trkpt lat="53.7425087" lon="14.2721925">
        <time>2026-08-03T10:25:50Z</time>
      </trkpt>
      <trkpt lat="53.7433963" lon="14.2720280">
        <time>2026-08-03T10:26:34Z</time>
      </trkpt>
      <trkpt lat="53.7459063" lon="14.2713195">
        <time>2026-08-03T10:28:39Z</time>
      </trkpt>
      <trkpt lat="53.7496050" lon="14.2709073">
        <time>2026-08-03T10:31:38Z</time>
      </trkpt>
      <trkpt lat="53.7520042" lon="14.2703668">
        <time>2026-08-03T10:33:37Z</time>
      </trkpt>
      <trkpt lat="53.7530736" lon="14.2702348">
        <time>2026-08-03T10:34:31Z</time>
      </trkpt>
      <trkpt lat="53.7565856" lon="14.2695635">
        <time>2026-08-03T10:37:28Z</time>
      </trkpt>
      <trkpt lat="53.7578343" lon="14.2706220">
        <time>2026-08-03T10:38:43Z</time>
      </trkpt>
      <trkpt lat="53.7584410" lon="14.2714017">
        <time>2026-08-03T10:39:21Z</time>
      </trkpt>
      <trkpt lat="53.7614200" lon="14.2740128">
        <time>2026-08-03T10:42:14Z</time>
      </trkpt>
      <trkpt lat="53.7621894" lon="14.2748572">
        <time>2026-08-03T10:43:03Z</time>
      </trkpt>
      <trkpt lat="53.7634202" lon="14.2758229">
        <time>2026-08-03T10:44:13Z</time>
      </trkpt>
      <trkpt lat="53.7647510" lon="14.2769331">
        <time>2026-08-03T10:45:32Z</time>
      </trkpt>
      <trkpt lat="53.7654399" lon="14.2773645">
        <time>2026-08-03T10:46:10Z</time>
      </trkpt>
      <trkpt lat="53.7669111" lon="14.2786595">
        <time>2026-08-03T10:47:36Z</time>
      </trkpt>
      <trkpt lat="53.7683372" lon="14.2797438">
        <time>2026-08-03T10:48:59Z</time>
      </trkpt>
      <trkpt lat="53.7702714" lon="14.2812872">
        <time>2026-08-03T10:50:52Z</time>
      </trkpt>
      <trkpt lat="53.7714743" lon="14.2825220">
        <time>2026-08-03T10:52:06Z</time>
      </trkpt>
      <trkpt lat="53.7721745" lon="14.2835707">
        <time>2026-08-03T10:52:57Z</time>
      </trkpt>
      <trkpt lat="53.7733187" lon="14.2837327">
        <time>2026-08-03T10:53:59Z</time>
      </trkpt>
      <trkpt lat="53.7747103" lon="14.2834645">
        <time>2026-08-03T10:55:11Z</time>
      </trkpt>
      <trkpt lat="53.7783223" lon="14.2833161">
        <time>2026-08-03T10:58:18Z</time>
      </trkpt>
      <trkpt lat="53.7805352" lon="14.2834270">
        <time>2026-08-03T11:00:13Z</time>
      </trkpt>
      <trkpt lat="53.7815170" lon="14.2821395">
        <time>2026-08-03T11:01:17Z</time>
      </trkpt>
      <trkpt lat="53.7820027" lon="14.2812135">
        <time>2026-08-03T11:01:54Z</time>
      </trkpt>
      <trkpt lat="53.7826156" lon="14.2798875">
        <time>2026-08-03T11:02:42Z</time>
      </trkpt>
      <trkpt lat="53.7837760" lon="14.2775435">
        <time>2026-08-03T11:04:11Z</time>
      </trkpt>
      <trkpt lat="53.7844187" lon="14.2762270">
        <time>2026-08-03T11:05:01Z</time>
      </trkpt>
      <trkpt lat="53.7853937" lon="14.2743145">
        <time>2026-08-03T11:06:13Z</time>
      </trkpt>
      <trkpt lat="53.7863661" lon="14.2723135">
        <time>2026-08-03T11:07:28Z</time>
      </trkpt>
      <trkpt lat="53.7872002" lon="14.2699620">
        <time>2026-08-03T11:08:46Z</time>
      </trkpt>
      <trkpt lat="53.7892974" lon="14.2660085">
        <time>2026-08-03T11:11:21Z</time>
      </trkpt>
      <trkpt lat="53.7910802" lon="14.2624692">
        <time>2026-08-03T11:13:36Z</time>
      </trkpt>
      <trkpt lat="53.7920010" lon="14.2604910">
        <time>2026-08-03T11:14:51Z</time>
      </trkpt>
      <trkpt lat="53.7932115" lon="14.2583005">
        <time>2026-08-03T11:16:19Z</time>
      </trkpt>
      <trkpt lat="53.7943778" lon="14.2558785">
        <time>2026-08-03T11:17:54Z</time>
      </trkpt>
      <trkpt lat="53.7954667" lon="14.2538088">
        <time>2026-08-03T11:19:16Z</time>
      </trkpt>
      <trkpt lat="53.7959940" lon="14.2526960">
        <time>2026-08-03T11:19:59Z</time>
      </trkpt>
      <trkpt lat="53.7967838" lon="14.2511373">
        <time>2026-08-03T11:20:59Z</time>
      </trkpt>
      <trkpt lat="53.7975525" lon="14.2498573">
        <time>2026-08-03T11:21:53Z</time>
      </trkpt>
      <trkpt lat="53.7987920" lon="14.2476065">
        <time>2026-08-03T11:23:24Z</time>
      </trkpt>
      <trkpt lat="53.8005978" lon="14.2437382">
        <time>2026-08-03T11:25:46Z</time>
      </trkpt>
      <trkpt lat="53.8021015" lon="14.2407491">
        <time>2026-08-03T11:27:39Z</time>
      </trkpt>
      <trkpt lat="53.8032535" lon="14.2386273">
        <time>2026-08-03T11:29:02Z</time>
      </trkpt>
      <trkpt lat="53.8037095" lon="14.2375560">
        <time>2026-08-03T11:29:40Z</time>
      </trkpt>
      <trkpt lat="53.8057787" lon="14.2334711">
        <time>2026-08-03T11:32:15Z</time>
      </trkpt>
      <trkpt lat="53.8066772" lon="14.2318437">
        <time>2026-08-03T11:33:20Z</time>
      </trkpt>
      <trkpt lat="53.8087006" lon="14.2277838">
        <time>2026-08-03T11:35:52Z</time>
      </trkpt>
      <trkpt lat="53.8095720" lon="14.2261935">
        <time>2026-08-03T11:36:55Z</time>
      </trkpt>
      <trkpt lat="53.8109995" lon="14.2233009">
        <time>2026-08-03T11:38:45Z</time>
      </trkpt>
      <trkpt lat="53.8124804" lon="14.2203320">
        <time>2026-08-03T11:40:40Z</time>
      </trkpt>
      <trkpt lat="53.8143919" lon="14.2166523">
        <time>2026-08-03T11:43:06Z</time>
      </trkpt>
      <trkpt lat="53.8154325" lon="14.2146326">
        <time>2026-08-03T11:44:24Z</time>
      </trkpt>
      <trkpt lat="53.8161375" lon="14.2132366">
        <time>2026-08-03T11:45:18Z</time>
      </trkpt>
      <trkpt lat="53.8186400" lon="14.2083491">
        <time>2026-08-03T11:48:29Z</time>
      </trkpt>
      <trkpt lat="53.8195778" lon="14.2065585">
        <time>2026-08-03T11:49:40Z</time>
      </trkpt>
      <trkpt lat="53.8236060" lon="14.1982298">
        <time>2026-08-03T11:55:02Z</time>
      </trkpt>
      <trkpt lat="53.8241471" lon="14.1969559">
        <time>2026-08-03T11:55:51Z</time>
      </trkpt>
      <trkpt lat="53.8241304" lon="14.1919934">
        <time>2026-08-03T11:58:24Z</time>
      </trkpt>
      <trkpt lat="53.8241928" lon="14.1873642">
        <time>2026-08-03T12:00:45Z</time>
      </trkpt>
      <trkpt lat="53.8241737" lon="14.1855617">
        <time>2026-08-03T12:01:39Z</time>
      </trkpt>
      <trkpt lat="53.8242335" lon="14.1816652">
        <time>2026-08-03T12:03:38Z</time>
      </trkpt>
      <trkpt lat="53.8243004" lon="14.1802480">
        <time>2026-08-03T12:04:20Z</time>
      </trkpt>
      <trkpt lat="53.8243267" lon="14.1775259">
        <time>2026-08-03T12:05:42Z</time>
      </trkpt>
      <trkpt lat="53.8243820" lon="14.1759290">
        <time>2026-08-03T12:06:31Z</time>
      </trkpt>
      <trkpt lat="53.8244097" lon="14.1740408">
        <time>2026-08-03T12:07:27Z</time>
      </trkpt>
      <trkpt lat="53.8244413" lon="14.1722597">
        <time>2026-08-03T12:08:21Z</time>
      </trkpt>
      <trkpt lat="53.8243442" lon="14.1707436">
        <time>2026-08-03T12:09:07Z</time>
      </trkpt>
      <trkpt lat="53.8240638" lon="14.1693390">
        <time>2026-08-03T12:09:52Z</time>
      </trkpt>
      <trkpt lat="53.8239595" lon="14.1673348">
        <time>2026-08-03T12:10:52Z</time>
      </trkpt>
      <trkpt lat="53.8240818" lon="14.1657542">
        <time>2026-08-03T12:11:39Z</time>
      </trkpt>
      <trkpt lat="53.8243392" lon="14.1644025">
        <time>2026-08-03T12:12:21Z</time>
      </trkpt>
      <trkpt lat="53.8243903" lon="14.1623374">
        <time>2026-08-03T12:13:23Z</time>
      </trkpt>
      <trkpt lat="53.8245843" lon="14.1609626">
        <time>2026-08-03T12:14:06Z</time>
      </trkpt>
      <trkpt lat="53.8248034" lon="14.1593460">
        <time>2026-08-03T12:14:56Z</time>
      </trkpt>
      <trkpt lat="53.8248648" lon="14.1555193">
        <time>2026-08-03T12:16:50Z</time>
      </trkpt>
      <trkpt lat="53.8247816" lon="14.1523346">
        <time>2026-08-03T12:18:27Z</time>
      </trkpt>
      <trkpt lat="53.8247713" lon="14.1505687">
        <time>2026-08-03T12:19:19Z</time>
      </trkpt>
      <trkpt lat="53.8245475" lon="14.1487553">
        <time>2026-08-03T12:20:15Z</time>
      </trkpt>
      <trkpt lat="53.8244920" lon="14.1471669">
        <time>2026-08-03T12:21:03Z</time>
      </trkpt>
      <trkpt lat="53.8245203" lon="14.1457638">
        <time>2026-08-03T12:21:46Z</time>
      </trkpt>
      <trkpt lat="53.8246865" lon="14.1426669">
        <time>2026-08-03T12:23:20Z</time>
      </trkpt>
      <trkpt lat="53.8248236" lon="14.1413592">
        <time>2026-08-03T12:24:01Z</time>
      </trkpt>
      <trkpt lat="53.8250858" lon="14.1368318">
        <time>2026-08-03T12:26:17Z</time>
      </trkpt>
      <trkpt lat="53.8252406" lon="14.1351869">
        <time>2026-08-03T12:27:07Z</time>
      </trkpt>
      <trkpt lat="53.8255158" lon="14.1304419">
        <time>2026-08-03T12:29:32Z</time>
      </trkpt>
      <trkpt lat="53.8255777" lon="14.1287906">
        <time>2026-08-03T12:30:22Z</time>
      </trkpt>
      <trkpt lat="53.8257133" lon="14.1270438">
        <time>2026-08-03T12:31:16Z</time>
      </trkpt>
      <trkpt lat="53.8256792" lon="14.1248727">
        <time>2026-08-03T12:32:25Z</time>
      </trkpt>
      <trkpt lat="53.8257020" lon="14.1235979">
        <time>2026-08-03T12:33:03Z</time>
      </trkpt>
      <trkpt lat="53.8256895" lon="14.1213927">
        <time>2026-08-03T12:34:11Z</time>
      </trkpt>
      <trkpt lat="53.8254230" lon="14.1131670">
        <time>2026-08-03T12:38:26Z</time>
      </trkpt>
      <trkpt lat="53.8252565" lon="14.1115351">
        <time>2026-08-03T12:39:19Z</time>
      </trkpt>
      <trkpt lat="53.8251935" lon="14.1102850">
        <time>2026-08-03T12:39:57Z</time>
      </trkpt>
      <trkpt lat="53.8249808" lon="14.1078932">
        <time>2026-08-03T12:41:13Z</time>
      </trkpt>
      <trkpt lat="53.8248878" lon="14.1060618">
        <time>2026-08-03T12:42:11Z</time>
      </trkpt>
      <trkpt lat="53.8245577" lon="14.1021998">
        <time>2026-08-03T12:44:14Z</time>
      </trkpt>
      <trkpt lat="53.8244798" lon="14.0983735">
        <time>2026-08-03T12:46:16Z</time>
      </trkpt>
      <trkpt lat="53.8244801" lon="14.0930693">
        <time>2026-08-03T12:49:03Z</time>
      </trkpt>
      <trkpt lat="53.8245135" lon="14.0917729">
        <time>2026-08-03T12:49:45Z</time>
      </trkpt>
      <trkpt lat="53.8244853" lon="14.0881965">
        <time>2026-08-03T12:51:35Z</time>
      </trkpt>
      <trkpt lat="53.8245488" lon="14.0848382">
        <time>2026-08-03T12:53:21Z</time>
      </trkpt>
      <trkpt lat="53.8245260" lon="14.0819105">
        <time>2026-08-03T12:54:54Z</time>
      </trkpt>
      <trkpt lat="53.8245432" lon="14.0803413">
        <time>2026-08-03T12:55:44Z</time>
      </trkpt>
      <trkpt lat="53.8246159" lon="14.0785998">
        <time>2026-08-03T12:56:40Z</time>
      </trkpt>
      <trkpt lat="53.8246329" lon="14.0766425">
        <time>2026-08-03T12:57:43Z</time>
      </trkpt>
      <trkpt lat="53.8247127" lon="14.0752521">
        <time>2026-08-03T12:58:27Z</time>
      </trkpt>
      <trkpt lat="53.8247728" lon="14.0733339">
        <time>2026-08-03T12:59:29Z</time>
      </trkpt>
      <trkpt lat="53.8248381" lon="14.0665914">
        <time>2026-08-03T13:03:06Z</time>
      </trkpt>
      <trkpt lat="53.8248184" lon="14.0644115">
        <time>2026-08-03T13:04:17Z</time>
      </trkpt>
      <trkpt lat="53.8247120" lon="14.0616110">
        <time>2026-08-03T13:05:45Z</time>
      </trkpt>
      <trkpt lat="53.8246712" lon="14.0593026">
        <time>2026-08-03T13:06:59Z</time>
      </trkpt>
      <trkpt lat="53.8245897" lon="14.0574456">
        <time>2026-08-03T13:08:00Z</time>
      </trkpt>
      <trkpt lat="53.8244243" lon="14.0543767">
        <time>2026-08-03T13:09:38Z</time>
      </trkpt>
      <trkpt lat="53.8242722" lon="14.0530098">
        <time>2026-08-03T13:10:24Z</time>
      </trkpt>
      <trkpt lat="53.8242625" lon="14.0407577">
        <time>2026-08-03T13:16:59Z</time>
      </trkpt>
      <trkpt lat="53.8242882" lon="14.0380923">
        <time>2026-08-03T13:18:24Z</time>
      </trkpt>
      <trkpt lat="53.8244012" lon="14.0324782">
        <time>2026-08-03T13:21:22Z</time>
      </trkpt>
      <trkpt lat="53.8243897" lon="14.0291665">
        <time>2026-08-03T13:23:09Z</time>
      </trkpt>
      <trkpt lat="53.8244390" lon="14.0227625">
        <time>2026-08-03T13:26:37Z</time>
      </trkpt>
      <trkpt lat="53.8244925" lon="14.0198625">
        <time>2026-08-03T13:28:12Z</time>
      </trkpt>
      <trkpt lat="53.8244545" lon="14.0129125">
        <time>2026-08-03T13:31:56Z</time>
      </trkpt>
      <trkpt lat="53.8244325" lon="14.0074032">
        <time>2026-08-03T13:34:59Z</time>
      </trkpt>
      <trkpt lat="53.8240792" lon="14.0061112">
        <time>2026-08-03T13:35:47Z</time>
      </trkpt>
      <trkpt lat="53.8239638" lon="14.0045275">
        <time>2026-08-03T13:36:42Z</time>
      </trkpt>
      <trkpt lat="53.8239527" lon="14.0020882">
        <time>2026-08-03T13:38:02Z</time>
      </trkpt>
      <trkpt lat="53.8241050" lon="13.9922642">
        <time>2026-08-03T13:43:33Z</time>
      </trkpt>
      <trkpt lat="53.8242165" lon="13.9867523">
        <time>2026-08-03T13:46:42Z</time>
      </trkpt>
      <trkpt lat="53.8243107" lon="13.9855396">
        <time>2026-08-03T13:47:24Z</time>
      </trkpt>
      <trkpt lat="53.8243749" lon="13.9816151">
        <time>2026-08-03T13:49:41Z</time>
      </trkpt>
      <trkpt lat="53.8244670" lon="13.9800742">
        <time>2026-08-03T13:50:35Z</time>
      </trkpt>
      <trkpt lat="53.8245164" lon="13.9758056">
        <time>2026-08-03T13:53:03Z</time>
      </trkpt>
      <trkpt lat="53.8246555" lon="13.9703986">
        <time>2026-08-03T13:56:14Z</time>
      </trkpt>
      <trkpt lat="53.8246641" lon="13.9690220">
        <time>2026-08-03T13:57:00Z</time>
      </trkpt>
      <trkpt lat="53.8246205" lon="13.9667925">
        <time>2026-08-03T13:58:18Z</time>
      </trkpt>
      <trkpt lat="53.8245267" lon="13.9651380">
        <time>2026-08-03T13:59:15Z</time>
      </trkpt>
      <trkpt lat="53.8244092" lon="13.9626358">
        <time>2026-08-03T14:00:42Z</time>
      </trkpt>
      <trkpt lat="53.8243300" lon="13.9603559">
        <time>2026-08-03T14:02:00Z</time>
      </trkpt>
      <trkpt lat="53.8246702" lon="13.9567000">
        <time>2026-08-03T14:04:10Z</time>
      </trkpt>
      <trkpt lat="53.8249705" lon="13.9549125">
        <time>2026-08-03T14:05:18Z</time>
      </trkpt>
      <trkpt lat="53.8250816" lon="13.9536260">
        <time>2026-08-03T14:06:04Z</time>
      </trkpt>
      <trkpt lat="53.8256605" lon="13.9491492">
        <time>2026-08-03T14:08:47Z</time>
      </trkpt>
      <trkpt lat="53.8259497" lon="13.9474721">
        <time>2026-08-03T14:09:49Z</time>
      </trkpt>
      <trkpt lat="53.8264071" lon="13.9444800">
        <time>2026-08-03T14:11:38Z</time>
      </trkpt>
      <trkpt lat="53.8268493" lon="13.9421686">
        <time>2026-08-03T14:13:04Z</time>
      </trkpt>
      <trkpt lat="53.8270925" lon="13.9406996">
        <time>2026-08-03T14:13:58Z</time>
      </trkpt>
      <trkpt lat="53.8274370" lon="13.9381421">
        <time>2026-08-03T14:15:33Z</time>
      </trkpt>
      <trkpt lat="53.8279431" lon="13.9337418">
        <time>2026-08-03T14:18:09Z</time>
      </trkpt>
      <trkpt lat="53.8281438" lon="13.9320575">
        <time>2026-08-03T14:19:10Z</time>
      </trkpt>
      <trkpt lat="53.8285227" lon="13.9292826">
        <time>2026-08-03T14:20:48Z</time>
      </trkpt>
      <trkpt lat="53.8288474" lon="13.9273094">
        <time>2026-08-03T14:22:00Z</time>
      </trkpt>
      <trkpt lat="53.8291577" lon="13.9256278">
        <time>2026-08-03T14:23:05Z</time>
      </trkpt>
      <trkpt lat="53.8293367" lon="13.9244285">
        <time>2026-08-03T14:23:49Z</time>
      </trkpt>
      <trkpt lat="53.8295065" lon="13.9225515">
        <time>2026-08-03T14:24:57Z</time>
      </trkpt>
      <trkpt lat="53.8299797" lon="13.9199646">
        <time>2026-08-03T14:26:33Z</time>
      </trkpt>
      <trkpt lat="53.8310049" lon="13.9126642">
        <time>2026-08-03T14:30:53Z</time>
      </trkpt>
      <trkpt lat="53.8313339" lon="13.9099710">
        <time>2026-08-03T14:32:27Z</time>
      </trkpt>
      <trkpt lat="53.8316462" lon="13.9081394">
        <time>2026-08-03T14:33:34Z</time>
      </trkpt>
      <trkpt lat="53.8319005" lon="13.9053862">
        <time>2026-08-03T14:35:10Z</time>
      </trkpt>
      <trkpt lat="53.8323109" lon="13.9021210">
        <time>2026-08-03T14:37:04Z</time>
      </trkpt>
      <trkpt lat="53.8325605" lon="13.9002243">
        <time>2026-08-03T14:38:13Z</time>
      </trkpt>
      <trkpt lat="53.8334840" lon="13.8933291">
        <time>2026-08-03T14:42:25Z</time>
      </trkpt>
      <trkpt lat="53.8337932" lon="13.8920092">
        <time>2026-08-03T14:43:16Z</time>
      </trkpt>
      <trkpt lat="53.8340433" lon="13.8905860">
        <time>2026-08-03T14:44:06Z</time>
      </trkpt>
      <trkpt lat="53.8346068" lon="13.8872855">
        <time>2026-08-03T14:46:04Z</time>
      </trkpt>
      <trkpt lat="53.8348139" lon="13.8852513">
        <time>2026-08-03T14:47:15Z</time>
      </trkpt>
      <trkpt lat="53.8352370" lon="13.8822980">
        <time>2026-08-03T14:48:59Z</time>
      </trkpt>
      <trkpt lat="53.8358747" lon="13.8758202">
        <time>2026-08-03T14:52:44Z</time>
      </trkpt>
      <trkpt lat="53.8363827" lon="13.8718578">
        <time>2026-08-03T14:55:00Z</time>
      </trkpt>
      <trkpt lat="53.8365684" lon="13.8706661">
        <time>2026-08-03T14:55:42Z</time>
      </trkpt>
      <trkpt lat="53.8368188" lon="13.8693789">
        <time>2026-08-03T14:56:28Z</time>
      </trkpt>
      <trkpt lat="53.8377830" lon="13.8663909">
        <time>2026-08-03T14:58:25Z</time>
      </trkpt>
      <trkpt lat="53.8387542" lon="13.8637407">
        <time>2026-08-03T15:00:14Z</time>
      </trkpt>
      <trkpt lat="53.8396455" lon="13.8615377">
        <time>2026-08-03T15:01:46Z</time>
      </trkpt>
      <trkpt lat="53.8403246" lon="13.8598744">
        <time>2026-08-03T15:02:59Z</time>
      </trkpt>
      <trkpt lat="53.8410129" lon="13.8585669">
        <time>2026-08-03T15:04:02Z</time>
      </trkpt>
      <trkpt lat="53.8423737" lon="13.8550470">
        <time>2026-08-03T15:06:33Z</time>
      </trkpt>
      <trkpt lat="53.8426389" lon="13.8545453">
        <time>2026-08-03T15:06:57Z</time>
      </trkpt>
      <trkpt lat="53.8429613" lon="13.8542750">
        <time>2026-08-03T15:07:21Z</time>
      </trkpt>
      <trkpt lat="53.8434085" lon="13.8541148">
        <time>2026-08-03T15:07:50Z</time>
      </trkpt>
      <trkpt lat="53.8436117" lon="13.8541012">
        <time>2026-08-03T15:08:02Z</time>
      </trkpt>
      <trkpt lat="53.8437889" lon="13.8541701">
        <time>2026-08-03T15:08:12Z</time>
      </trkpt>
      <trkpt lat="53.8440737" lon="13.8543895">
        <time>2026-08-03T15:08:45Z</time>
      </trkpt>
      <trkpt lat="53.8441862" lon="13.8546885">
        <time>2026-08-03T15:09:31Z</time>
      </trkpt>
      <trkpt lat="53.8446278" lon="13.8553842">
        <time>2026-08-03T15:10:13Z</time>
      </trkpt>
      <trkpt lat="53.8452357" lon="13.8561737">
        <time>2026-08-03T15:11:03Z</time>
      </trkpt>
      <trkpt lat="53.8454451" lon="13.8565907">
        <time>2026-08-03T15:12:12Z</time>
      </trkpt>
      <trkpt lat="53.8453992" lon="13.8565385">
        <time>2026-08-03T15:13:58Z</time>
      </trkpt>
      <trkpt lat="53.8453092" lon="13.8565954">
        <time>2026-08-03T15:14:18Z</time>
      </trkpt>
      <trkpt lat="53.8451652" lon="13.8565389">
        <time>2026-08-03T15:15:21Z</time>
      </trkpt>
    </trkseg>
  </trk>

  <trk>
    <name>20260804</name>
    <extensions>
      <gpxx:TrackExtension xmlns:gpxx="http://www.garmin.com/xmlschemas/GpxExtensions/v3">
        <gpxx:DisplayColor>Transparent</gpxx:DisplayColor>
      </gpxx:TrackExtension>
    </extensions>
    <trkseg>
      <trkpt lat="53.8451148" lon="13.8566130">
        <time>2026-08-04T08:49:23Z</time>
      </trkpt>
      <trkpt lat="53.8452240" lon="13.8563377">
        <time>2026-08-04T08:52:55Z</time>
      </trkpt>
      <trkpt lat="53.8452265" lon="13.8561950">
        <time>2026-08-04T08:53:05Z</time>
      </trkpt>
      <trkpt lat="53.8450207" lon="13.8557710">
        <time>2026-08-04T08:53:32Z</time>
      </trkpt>
      <trkpt lat="53.8446193" lon="13.8551992">
        <time>2026-08-04T08:53:58Z</time>
      </trkpt>
      <trkpt lat="53.8441494" lon="13.8546736">
        <time>2026-08-04T08:54:24Z</time>
      </trkpt>
      <trkpt lat="53.8438865" lon="13.8544787">
        <time>2026-08-04T08:54:36Z</time>
      </trkpt>
      <trkpt lat="53.8435857" lon="13.8543581">
        <time>2026-08-04T08:54:50Z</time>
      </trkpt>
      <trkpt lat="53.8433269" lon="13.8543322">
        <time>2026-08-04T08:55:02Z</time>
      </trkpt>
      <trkpt lat="53.8430707" lon="13.8543870">
        <time>2026-08-04T08:55:15Z</time>
      </trkpt>
      <trkpt lat="53.8428770" lon="13.8545188">
        <time>2026-08-04T08:55:25Z</time>
      </trkpt>
      <trkpt lat="53.8427355" lon="13.8546785">
        <time>2026-08-04T08:55:33Z</time>
      </trkpt>
      <trkpt lat="53.8425288" lon="13.8550917">
        <time>2026-08-04T08:55:47Z</time>
      </trkpt>
      <trkpt lat="53.8423673" lon="13.8555242">
        <time>2026-08-04T08:56:01Z</time>
      </trkpt>
      <trkpt lat="53.8421447" lon="13.8564020">
        <time>2026-08-04T08:56:27Z</time>
      </trkpt>
      <trkpt lat="53.8419148" lon="13.8575995">
        <time>2026-08-04T08:57:01Z</time>
      </trkpt>
      <trkpt lat="53.8414992" lon="13.8587300">
        <time>2026-08-04T08:57:38Z</time>
      </trkpt>
      <trkpt lat="53.8408682" lon="13.8601257">
        <time>2026-08-04T08:58:24Z</time>
      </trkpt>
      <trkpt lat="53.8398174" lon="13.8621946">
        <time>2026-08-04T08:59:37Z</time>
      </trkpt>
      <trkpt lat="53.8388972" lon="13.8644648">
        <time>2026-08-04T09:00:49Z</time>
      </trkpt>
      <trkpt lat="53.8381742" lon="13.8659486">
        <time>2026-08-04T09:01:39Z</time>
      </trkpt>
      <trkpt lat="53.8375162" lon="13.8671810">
        <time>2026-08-04T09:02:23Z</time>
      </trkpt>
      <trkpt lat="53.8370597" lon="13.8685762">
        <time>2026-08-04T09:03:06Z</time>
      </trkpt>
      <trkpt lat="53.8363115" lon="13.8730872">
        <time>2026-08-04T09:05:09Z</time>
      </trkpt>
      <trkpt lat="53.8361190" lon="13.8750320">
        <time>2026-08-04T09:05:59Z</time>
      </trkpt>
      <trkpt lat="53.8359224" lon="13.8766067">
        <time>2026-08-04T09:06:41Z</time>
      </trkpt>
      <trkpt lat="53.8356375" lon="13.8777370">
        <time>2026-08-04T09:07:13Z</time>
      </trkpt>
      <trkpt lat="53.8354215" lon="13.8795988">
        <time>2026-08-04T09:08:04Z</time>
      </trkpt>
      <trkpt lat="53.8350407" lon="13.8818910">
        <time>2026-08-04T09:09:06Z</time>
      </trkpt>
      <trkpt lat="53.8346756" lon="13.8853176">
        <time>2026-08-04T09:10:36Z</time>
      </trkpt>
      <trkpt lat="53.8341502" lon="13.8889286">
        <time>2026-08-04T09:12:12Z</time>
      </trkpt>
      <trkpt lat="53.8336797" lon="13.8930605">
        <time>2026-08-04T09:14:01Z</time>
      </trkpt>
      <trkpt lat="53.8333914" lon="13.8943962">
        <time>2026-08-04T09:14:37Z</time>
      </trkpt>
      <trkpt lat="53.8329273" lon="13.8982405">
        <time>2026-08-04T09:16:20Z</time>
      </trkpt>
      <trkpt lat="53.8326051" lon="13.9001950">
        <time>2026-08-04T09:17:12Z</time>
      </trkpt>
      <trkpt lat="53.8322308" lon="13.9032843">
        <time>2026-08-04T09:18:34Z</time>
      </trkpt>
      <trkpt lat="53.8314654" lon="13.9081763">
        <time>2026-08-04T09:20:47Z</time>
      </trkpt>
      <trkpt lat="53.8311645" lon="13.9105772">
        <time>2026-08-04T09:21:51Z</time>
      </trkpt>
      <trkpt lat="53.8307857" lon="13.9122725">
        <time>2026-08-04T09:22:37Z</time>
      </trkpt>
      <trkpt lat="53.8304598" lon="13.9141172">
        <time>2026-08-04T09:23:27Z</time>
      </trkpt>
      <trkpt lat="53.8302767" lon="13.9172073">
        <time>2026-08-04T09:24:49Z</time>
      </trkpt>
      <trkpt lat="53.8299856" lon="13.9193940">
        <time>2026-08-04T09:25:47Z</time>
      </trkpt>
      <trkpt lat="53.8294380" lon="13.9229278">
        <time>2026-08-04T09:27:22Z</time>
      </trkpt>
      <trkpt lat="53.8291872" lon="13.9251853">
        <time>2026-08-04T09:28:22Z</time>
      </trkpt>
      <trkpt lat="53.8287946" lon="13.9278969">
        <time>2026-08-04T09:29:34Z</time>
      </trkpt>
      <trkpt lat="53.8285452" lon="13.9291184">
        <time>2026-08-04T09:30:08Z</time>
      </trkpt>
      <trkpt lat="53.8283513" lon="13.9304540">
        <time>2026-08-04T09:30:44Z</time>
      </trkpt>
      <trkpt lat="53.8279820" lon="13.9319677">
        <time>2026-08-04T09:31:27Z</time>
      </trkpt>
      <trkpt lat="53.8276245" lon="13.9347222">
        <time>2026-08-04T09:32:41Z</time>
      </trkpt>
      <trkpt lat="53.8271327" lon="13.9377552">
        <time>2026-08-04T09:34:04Z</time>
      </trkpt>
      <trkpt lat="53.8267495" lon="13.9421162">
        <time>2026-08-04T09:35:58Z</time>
      </trkpt>
      <trkpt lat="53.8265727" lon="13.9436302">
        <time>2026-08-04T09:36:38Z</time>
      </trkpt>
      <trkpt lat="53.8261050" lon="13.9468187">
        <time>2026-08-04T09:38:05Z</time>
      </trkpt>
      <trkpt lat="53.8258617" lon="13.9482120">
        <time>2026-08-04T09:38:43Z</time>
      </trkpt>
      <trkpt lat="53.8258192" lon="13.9501360">
        <time>2026-08-04T09:39:33Z</time>
      </trkpt>
      <trkpt lat="53.8256873" lon="13.9520203">
        <time>2026-08-04T09:40:23Z</time>
      </trkpt>
      <trkpt lat="53.8253900" lon="13.9547200">
        <time>2026-08-04T09:41:36Z</time>
      </trkpt>
      <trkpt lat="53.8253138" lon="13.9562807">
        <time>2026-08-04T09:42:16Z</time>
      </trkpt>
      <trkpt lat="53.8250900" lon="13.9582220">
        <time>2026-08-04T09:43:08Z</time>
      </trkpt>
      <trkpt lat="53.8250110" lon="13.9597255">
        <time>2026-08-04T09:43:49Z</time>
      </trkpt>
      <trkpt lat="53.8247820" lon="13.9650663">
        <time>2026-08-04T09:46:09Z</time>
      </trkpt>
      <trkpt lat="53.8246884" lon="13.9665637">
        <time>2026-08-04T09:46:50Z</time>
      </trkpt>
      <trkpt lat="53.8247926" lon="13.9682917">
        <time>2026-08-04T09:47:38Z</time>
      </trkpt>
      <trkpt lat="53.8245205" lon="13.9730670">
        <time>2026-08-04T09:49:49Z</time>
      </trkpt>
      <trkpt lat="53.8245923" lon="13.9788518">
        <time>2026-08-04T09:52:22Z</time>
      </trkpt>
      <trkpt lat="53.8245513" lon="13.9812882">
        <time>2026-08-04T09:53:26Z</time>
      </trkpt>
      <trkpt lat="53.8242358" lon="13.9833787">
        <time>2026-08-04T09:54:24Z</time>
      </trkpt>
      <trkpt lat="53.8240160" lon="13.9861422">
        <time>2026-08-04T09:55:39Z</time>
      </trkpt>
      <trkpt lat="53.8240572" lon="13.9887770">
        <time>2026-08-04T09:56:49Z</time>
      </trkpt>
      <trkpt lat="53.8240097" lon="13.9921545">
        <time>2026-08-04T09:58:17Z</time>
      </trkpt>
      <trkpt lat="53.8240995" lon="13.9942488">
        <time>2026-08-04T09:59:14Z</time>
      </trkpt>
      <trkpt lat="53.8241667" lon="13.9962789">
        <time>2026-08-04T10:00:08Z</time>
      </trkpt>
      <trkpt lat="53.8241636" lon="13.9983550">
        <time>2026-08-04T10:01:02Z</time>
      </trkpt>
      <trkpt lat="53.8242503" lon="14.0000062">
        <time>2026-08-04T10:01:47Z</time>
      </trkpt>
      <trkpt lat="53.8243467" lon="14.0031984">
        <time>2026-08-04T10:03:11Z</time>
      </trkpt>
      <trkpt lat="53.8243520" lon="14.0051337">
        <time>2026-08-04T10:04:01Z</time>
      </trkpt>
      <trkpt lat="53.8242565" lon="14.0078575">
        <time>2026-08-04T10:05:14Z</time>
      </trkpt>
      <trkpt lat="53.8242445" lon="14.0096055">
        <time>2026-08-04T10:06:00Z</time>
      </trkpt>
      <trkpt lat="53.8241078" lon="14.0132680">
        <time>2026-08-04T10:07:36Z</time>
      </trkpt>
      <trkpt lat="53.8241351" lon="14.0165840">
        <time>2026-08-04T10:09:05Z</time>
      </trkpt>
      <trkpt lat="53.8240898" lon="14.0190724">
        <time>2026-08-04T10:10:11Z</time>
      </trkpt>
      <trkpt lat="53.8241033" lon="14.0208807">
        <time>2026-08-04T10:10:59Z</time>
      </trkpt>
      <trkpt lat="53.8238987" lon="14.0228549">
        <time>2026-08-04T10:11:51Z</time>
      </trkpt>
      <trkpt lat="53.8238223" lon="14.0257860">
        <time>2026-08-04T10:13:09Z</time>
      </trkpt>
      <trkpt lat="53.8236853" lon="14.0302221">
        <time>2026-08-04T10:15:09Z</time>
      </trkpt>
      <trkpt lat="53.8236873" lon="14.0328391">
        <time>2026-08-04T10:16:19Z</time>
      </trkpt>
      <trkpt lat="53.8237387" lon="14.0359252">
        <time>2026-08-04T10:17:41Z</time>
      </trkpt>
      <trkpt lat="53.8238338" lon="14.0377715">
        <time>2026-08-04T10:18:32Z</time>
      </trkpt>
      <trkpt lat="53.8239860" lon="14.0426527">
        <time>2026-08-04T10:20:43Z</time>
      </trkpt>
      <trkpt lat="53.8239974" lon="14.0445311">
        <time>2026-08-04T10:21:33Z</time>
      </trkpt>
      <trkpt lat="53.8243075" lon="14.0491532">
        <time>2026-08-04T10:23:40Z</time>
      </trkpt>
      <trkpt lat="53.8243675" lon="14.0507549">
        <time>2026-08-04T10:24:24Z</time>
      </trkpt>
      <trkpt lat="53.8246194" lon="14.0532243">
        <time>2026-08-04T10:25:32Z</time>
      </trkpt>
      <trkpt lat="53.8247223" lon="14.0565765">
        <time>2026-08-04T10:27:05Z</time>
      </trkpt>
      <trkpt lat="53.8246567" lon="14.0586276">
        <time>2026-08-04T10:28:01Z</time>
      </trkpt>
      <trkpt lat="53.8248220" lon="14.0605541">
        <time>2026-08-04T10:28:55Z</time>
      </trkpt>
      <trkpt lat="53.8248617" lon="14.0621918">
        <time>2026-08-04T10:29:39Z</time>
      </trkpt>
      <trkpt lat="53.8247445" lon="14.0636350">
        <time>2026-08-04T10:30:20Z</time>
      </trkpt>
      <trkpt lat="53.8247570" lon="14.0653915">
        <time>2026-08-04T10:31:08Z</time>
      </trkpt>
      <trkpt lat="53.8245175" lon="14.0696062">
        <time>2026-08-04T10:33:02Z</time>
      </trkpt>
      <trkpt lat="53.8244805" lon="14.0723058">
        <time>2026-08-04T10:34:16Z</time>
      </trkpt>
      <trkpt lat="53.8245373" lon="14.0749275">
        <time>2026-08-04T10:35:29Z</time>
      </trkpt>
      <trkpt lat="53.8245152" lon="14.0772562">
        <time>2026-08-04T10:36:33Z</time>
      </trkpt>
      <trkpt lat="53.8244457" lon="14.0786672">
        <time>2026-08-04T10:37:11Z</time>
      </trkpt>
      <trkpt lat="53.8245063" lon="14.0810470">
        <time>2026-08-04T10:38:18Z</time>
      </trkpt>
      <trkpt lat="53.8245449" lon="14.0833122">
        <time>2026-08-04T10:39:20Z</time>
      </trkpt>
      <trkpt lat="53.8244931" lon="14.0849942">
        <time>2026-08-04T10:40:06Z</time>
      </trkpt>
      <trkpt lat="53.8245283" lon="14.0864350">
        <time>2026-08-04T10:40:47Z</time>
      </trkpt>
      <trkpt lat="53.8244356" lon="14.0923194">
        <time>2026-08-04T10:43:27Z</time>
      </trkpt>
      <trkpt lat="53.8244548" lon="14.0965910">
        <time>2026-08-04T10:45:26Z</time>
      </trkpt>
      <trkpt lat="53.8246272" lon="14.0996990">
        <time>2026-08-04T10:46:53Z</time>
      </trkpt>
      <trkpt lat="53.8246895" lon="14.1015770">
        <time>2026-08-04T10:47:45Z</time>
      </trkpt>
      <trkpt lat="53.8247955" lon="14.1029626">
        <time>2026-08-04T10:48:23Z</time>
      </trkpt>
      <trkpt lat="53.8246970" lon="14.1044608">
        <time>2026-08-04T10:49:06Z</time>
      </trkpt>
      <trkpt lat="53.8246774" lon="14.1059393">
        <time>2026-08-04T10:49:47Z</time>
      </trkpt>
      <trkpt lat="53.8245962" lon="14.1072729">
        <time>2026-08-04T10:50:23Z</time>
      </trkpt>
      <trkpt lat="53.8245490" lon="14.1105500">
        <time>2026-08-04T10:51:53Z</time>
      </trkpt>
      <trkpt lat="53.8245933" lon="14.1119258">
        <time>2026-08-04T10:52:31Z</time>
      </trkpt>
      <trkpt lat="53.8245324" lon="14.1134309">
        <time>2026-08-04T10:53:14Z</time>
      </trkpt>
      <trkpt lat="53.8245609" lon="14.1159277">
        <time>2026-08-04T10:54:22Z</time>
      </trkpt>
      <trkpt lat="53.8244948" lon="14.1192397">
        <time>2026-08-04T10:55:54Z</time>
      </trkpt>
      <trkpt lat="53.8243833" lon="14.1218279">
        <time>2026-08-04T10:57:07Z</time>
      </trkpt>
      <trkpt lat="53.8244837" lon="14.1234453">
        <time>2026-08-04T10:57:53Z</time>
      </trkpt>
      <trkpt lat="53.8244417" lon="14.1251885">
        <time>2026-08-04T10:58:42Z</time>
      </trkpt>
      <trkpt lat="53.8244548" lon="14.1268265">
        <time>2026-08-04T10:59:28Z</time>
      </trkpt>
      <trkpt lat="53.8246065" lon="14.1313088">
        <time>2026-08-04T11:01:34Z</time>
      </trkpt>
      <trkpt lat="53.8246322" lon="14.1339851">
        <time>2026-08-04T11:02:51Z</time>
      </trkpt>
      <trkpt lat="53.8245945" lon="14.1369377">
        <time>2026-08-04T11:04:13Z</time>
      </trkpt>
      <trkpt lat="53.8246796" lon="14.1397737">
        <time>2026-08-04T11:05:34Z</time>
      </trkpt>
      <trkpt lat="53.8247386" lon="14.1429245">
        <time>2026-08-04T11:07:04Z</time>
      </trkpt>
      <trkpt lat="53.8247427" lon="14.1480093">
        <time>2026-08-04T11:09:29Z</time>
      </trkpt>
      <trkpt lat="53.8246629" lon="14.1515575">
        <time>2026-08-04T11:11:09Z</time>
      </trkpt>
      <trkpt lat="53.8246727" lon="14.1556488">
        <time>2026-08-04T11:13:06Z</time>
      </trkpt>
      <trkpt lat="53.8247588" lon="14.1576727">
        <time>2026-08-04T11:14:04Z</time>
      </trkpt>
      <trkpt lat="53.8247750" lon="14.1594698">
        <time>2026-08-04T11:14:54Z</time>
      </trkpt>
      <trkpt lat="53.8248587" lon="14.1612870">
        <time>2026-08-04T11:15:46Z</time>
      </trkpt>
      <trkpt lat="53.8247922" lon="14.1656330">
        <time>2026-08-04T11:17:52Z</time>
      </trkpt>
      <trkpt lat="53.8247847" lon="14.1698206">
        <time>2026-08-04T11:19:52Z</time>
      </trkpt>
      <trkpt lat="53.8249391" lon="14.1725708">
        <time>2026-08-04T11:21:12Z</time>
      </trkpt>
      <trkpt lat="53.8249995" lon="14.1753876">
        <time>2026-08-04T11:22:34Z</time>
      </trkpt>
      <trkpt lat="53.8248413" lon="14.1768367">
        <time>2026-08-04T11:23:16Z</time>
      </trkpt>
      <trkpt lat="53.8249318" lon="14.1793765">
        <time>2026-08-04T11:24:31Z</time>
      </trkpt>
      <trkpt lat="53.8257313" lon="14.1879778">
        <time>2026-08-04T11:28:47Z</time>
      </trkpt>
      <trkpt lat="53.8257115" lon="14.1897630">
        <time>2026-08-04T11:29:39Z</time>
      </trkpt>
      <trkpt lat="53.8258903" lon="14.1914553">
        <time>2026-08-04T11:30:29Z</time>
      </trkpt>
      <trkpt lat="53.8265703" lon="14.1933302">
        <time>2026-08-04T11:31:34Z</time>
      </trkpt>
      <trkpt lat="53.8270615" lon="14.1944337">
        <time>2026-08-04T11:32:14Z</time>
      </trkpt>
      <trkpt lat="53.8275608" lon="14.1953854">
        <time>2026-08-04T11:32:50Z</time>
      </trkpt>
      <trkpt lat="53.8284933" lon="14.1967648">
        <time>2026-08-04T11:33:51Z</time>
      </trkpt>
      <trkpt lat="53.8291263" lon="14.1974990">
        <time>2026-08-04T11:34:27Z</time>
      </trkpt>
      <trkpt lat="53.8301908" lon="14.1984700">
        <time>2026-08-04T11:35:25Z</time>
      </trkpt>
      <trkpt lat="53.8310418" lon="14.1986225">
        <time>2026-08-04T11:36:08Z</time>
      </trkpt>
      <trkpt lat="53.8330105" lon="14.1988420">
        <time>2026-08-04T11:37:44Z</time>
      </trkpt>
      <trkpt lat="53.8341566" lon="14.1989760">
        <time>2026-08-04T11:38:38Z</time>
      </trkpt>
      <trkpt lat="53.8367896" lon="14.1991857">
        <time>2026-08-04T11:40:45Z</time>
      </trkpt>
      <trkpt lat="53.8400683" lon="14.1996525">
        <time>2026-08-04T11:43:22Z</time>
      </trkpt>
      <trkpt lat="53.8438310" lon="14.2007686">
        <time>2026-08-04T11:46:25Z</time>
      </trkpt>
      <trkpt lat="53.8448568" lon="14.2010198">
        <time>2026-08-04T11:47:15Z</time>
      </trkpt>
      <trkpt lat="53.8467187" lon="14.2013368">
        <time>2026-08-04T11:48:46Z</time>
      </trkpt>
      <trkpt lat="53.8485150" lon="14.2019943">
        <time>2026-08-04T11:50:12Z</time>
      </trkpt>
      <trkpt lat="53.8493310" lon="14.2022360">
        <time>2026-08-04T11:50:52Z</time>
      </trkpt>
      <trkpt lat="53.8508197" lon="14.2025355">
        <time>2026-08-04T11:52:05Z</time>
      </trkpt>
      <trkpt lat="53.8525605" lon="14.2029743">
        <time>2026-08-04T11:53:29Z</time>
      </trkpt>
      <trkpt lat="53.8539129" lon="14.2033965">
        <time>2026-08-04T11:54:36Z</time>
      </trkpt>
      <trkpt lat="53.8551909" lon="14.2041869">
        <time>2026-08-04T11:55:40Z</time>
      </trkpt>
      <trkpt lat="53.8562463" lon="14.2045170">
        <time>2026-08-04T11:56:32Z</time>
      </trkpt>
      <trkpt lat="53.8574810" lon="14.2047096">
        <time>2026-08-04T11:57:33Z</time>
      </trkpt>
      <trkpt lat="53.8587753" lon="14.2048525">
        <time>2026-08-04T11:58:35Z</time>
      </trkpt>
      <trkpt lat="53.8623308" lon="14.2059383">
        <time>2026-08-04T12:01:31Z</time>
      </trkpt>
      <trkpt lat="53.8632179" lon="14.2062897">
        <time>2026-08-04T12:02:15Z</time>
      </trkpt>
      <trkpt lat="53.8636777" lon="14.2065877">
        <time>2026-08-04T12:02:39Z</time>
      </trkpt>
      <trkpt lat="53.8645110" lon="14.2072728">
        <time>2026-08-04T12:03:24Z</time>
      </trkpt>
      <trkpt lat="53.8655877" lon="14.2080707">
        <time>2026-08-04T12:04:22Z</time>
      </trkpt>
      <trkpt lat="53.8657503" lon="14.2081530">
        <time>2026-08-04T12:04:32Z</time>
      </trkpt>
      <trkpt lat="53.8659022" lon="14.2081206">
        <time>2026-08-04T12:04:42Z</time>
      </trkpt>
      <trkpt lat="53.8661846" lon="14.2078700">
        <time>2026-08-04T12:05:03Z</time>
      </trkpt>
      <trkpt lat="53.8668803" lon="14.2070723">
        <time>2026-08-04T12:06:11Z</time>
      </trkpt>
      <trkpt lat="53.8670916" lon="14.2068988">
        <time>2026-08-04T12:06:39Z</time>
      </trkpt>
      <trkpt lat="53.8672827" lon="14.2068656">
        <time>2026-08-04T12:07:13Z</time>
      </trkpt>
      <trkpt lat="53.8675703" lon="14.2070805">
        <time>2026-08-04T12:08:44Z</time>
      </trkpt>
      <trkpt lat="53.8669392" lon="14.2063965">
        <time>2026-08-04T12:12:01Z</time>
      </trkpt>
      <trkpt lat="53.8669306" lon="14.2061495">
        <time>2026-08-04T12:12:40Z</time>
      </trkpt>
      <trkpt lat="53.8669830" lon="14.2059015">
        <time>2026-08-04T12:13:10Z</time>
      </trkpt>
    </trkseg>
  </trk>

  <trk>
    <name>20260805</name>
    <extensions>
      <gpxx:TrackExtension xmlns:gpxx="http://www.garmin.com/xmlschemas/GpxExtensions/v3">
        <gpxx:DisplayColor>Transparent</gpxx:DisplayColor>
      </gpxx:TrackExtension>
    </extensions>
    <trkseg>
      <trkpt lat="53.8671307" lon="14.2056259">
        <time>2026-08-04T23:44:38Z</time>
      </trkpt>
      <trkpt lat="53.8670678" lon="14.2056593">
        <time>2026-08-05T08:03:32Z</time>
      </trkpt>
      <trkpt lat="53.8670348" lon="14.2058952">
        <time>2026-08-05T08:03:52Z</time>
      </trkpt>
      <trkpt lat="53.8666512" lon="14.2068900">
        <time>2026-08-05T08:04:39Z</time>
      </trkpt>
      <trkpt lat="53.8664011" lon="14.2073918">
        <time>2026-08-05T08:05:01Z</time>
      </trkpt>
      <trkpt lat="53.8661954" lon="14.2077232">
        <time>2026-08-05T08:05:17Z</time>
      </trkpt>
      <trkpt lat="53.8658805" lon="14.2080920">
        <time>2026-08-05T08:05:39Z</time>
      </trkpt>
      <trkpt lat="53.8657978" lon="14.2081412">
        <time>2026-08-05T08:05:45Z</time>
      </trkpt>
      <trkpt lat="53.8650455" lon="14.2076663">
        <time>2026-08-05T08:06:35Z</time>
      </trkpt>
      <trkpt lat="53.8618555" lon="14.2053498">
        <time>2026-08-05T08:09:48Z</time>
      </trkpt>
      <trkpt lat="53.8617287" lon="14.2053273">
        <time>2026-08-05T08:09:54Z</time>
      </trkpt>
      <trkpt lat="53.8615978" lon="14.2053937">
        <time>2026-08-05T08:10:02Z</time>
      </trkpt>
      <trkpt lat="53.8613725" lon="14.2056581">
        <time>2026-08-05T08:10:19Z</time>
      </trkpt>
      <trkpt lat="53.8607815" lon="14.2066220">
        <time>2026-08-05T08:11:03Z</time>
      </trkpt>
      <trkpt lat="53.8600979" lon="14.2075060">
        <time>2026-08-05T08:11:47Z</time>
      </trkpt>
      <trkpt lat="53.8591958" lon="14.2089907">
        <time>2026-08-05T08:12:53Z</time>
      </trkpt>
      <trkpt lat="53.8581455" lon="14.2107102">
        <time>2026-08-05T08:14:12Z</time>
      </trkpt>
      <trkpt lat="53.8572555" lon="14.2120522">
        <time>2026-08-05T08:15:14Z</time>
      </trkpt>
      <trkpt lat="53.8557038" lon="14.2142342">
        <time>2026-08-05T08:16:47Z</time>
      </trkpt>
      <trkpt lat="53.8545925" lon="14.2157143">
        <time>2026-08-05T08:17:55Z</time>
      </trkpt>
      <trkpt lat="53.8536156" lon="14.2169565">
        <time>2026-08-05T08:19:04Z</time>
      </trkpt>
      <trkpt lat="53.8525297" lon="14.2182637">
        <time>2026-08-05T08:20:12Z</time>
      </trkpt>
      <trkpt lat="53.8516757" lon="14.2194353">
        <time>2026-08-05T08:21:08Z</time>
      </trkpt>
      <trkpt lat="53.8496233" lon="14.2220925">
        <time>2026-08-05T08:23:21Z</time>
      </trkpt>
      <trkpt lat="53.8462147" lon="14.2263900">
        <time>2026-08-05T08:27:01Z</time>
      </trkpt>
      <trkpt lat="53.8450817" lon="14.2276333">
        <time>2026-08-05T08:28:12Z</time>
      </trkpt>
      <trkpt lat="53.8426815" lon="14.2292073">
        <time>2026-08-05T08:30:28Z</time>
      </trkpt>
      <trkpt lat="53.8416807" lon="14.2301201">
        <time>2026-08-05T08:31:29Z</time>
      </trkpt>
      <trkpt lat="53.8395766" lon="14.2317390">
        <time>2026-08-05T08:33:31Z</time>
      </trkpt>
      <trkpt lat="53.8386990" lon="14.2324678">
        <time>2026-08-05T08:34:23Z</time>
      </trkpt>
      <trkpt lat="53.8373198" lon="14.2333505">
        <time>2026-08-05T08:35:42Z</time>
      </trkpt>
      <trkpt lat="53.8346837" lon="14.2355395">
        <time>2026-08-05T08:38:18Z</time>
      </trkpt>
      <trkpt lat="53.8332283" lon="14.2365299">
        <time>2026-08-05T08:39:43Z</time>
      </trkpt>
      <trkpt lat="53.8320252" lon="14.2374677">
        <time>2026-08-05T08:40:55Z</time>
      </trkpt>
      <trkpt lat="53.8290152" lon="14.2400990">
        <time>2026-08-05T08:43:55Z</time>
      </trkpt>
      <trkpt lat="53.8247373" lon="14.2442773">
        <time>2026-08-05T08:48:16Z</time>
      </trkpt>
      <trkpt lat="53.8231814" lon="14.2453946">
        <time>2026-08-05T08:49:47Z</time>
      </trkpt>
      <trkpt lat="53.8224665" lon="14.2456914">
        <time>2026-08-05T08:50:27Z</time>
      </trkpt>
      <trkpt lat="53.8206715" lon="14.2468900">
        <time>2026-08-05T08:52:09Z</time>
      </trkpt>
      <trkpt lat="53.8199365" lon="14.2474858">
        <time>2026-08-05T08:52:53Z</time>
      </trkpt>
      <trkpt lat="53.8187910" lon="14.2482726">
        <time>2026-08-05T08:53:59Z</time>
      </trkpt>
      <trkpt lat="53.8176220" lon="14.2489274">
        <time>2026-08-05T08:55:06Z</time>
      </trkpt>
      <trkpt lat="53.8166215" lon="14.2497683">
        <time>2026-08-05T08:56:06Z</time>
      </trkpt>
      <trkpt lat="53.8149062" lon="14.2510018">
        <time>2026-08-05T08:57:46Z</time>
      </trkpt>
      <trkpt lat="53.8138236" lon="14.2516857">
        <time>2026-08-05T08:58:48Z</time>
      </trkpt>
      <trkpt lat="53.8116640" lon="14.2535392">
        <time>2026-08-05T09:00:59Z</time>
      </trkpt>
      <trkpt lat="53.8102681" lon="14.2546397">
        <time>2026-08-05T09:02:21Z</time>
      </trkpt>
      <trkpt lat="53.8095002" lon="14.2552822">
        <time>2026-08-05T09:03:07Z</time>
      </trkpt>
      <trkpt lat="53.8086080" lon="14.2562847">
        <time>2026-08-05T09:04:05Z</time>
      </trkpt>
      <trkpt lat="53.8074319" lon="14.2573876">
        <time>2026-08-05T09:05:18Z</time>
      </trkpt>
      <trkpt lat="53.8065974" lon="14.2578802">
        <time>2026-08-05T09:06:04Z</time>
      </trkpt>
      <trkpt lat="53.8052734" lon="14.2615295">
        <time>2026-08-05T09:08:23Z</time>
      </trkpt>
      <trkpt lat="53.8046668" lon="14.2631256">
        <time>2026-08-05T09:09:23Z</time>
      </trkpt>
      <trkpt lat="53.8038275" lon="14.2656323">
        <time>2026-08-05T09:10:55Z</time>
      </trkpt>
      <trkpt lat="53.8033632" lon="14.2671785">
        <time>2026-08-05T09:11:52Z</time>
      </trkpt>
      <trkpt lat="53.8028034" lon="14.2686740">
        <time>2026-08-05T09:12:48Z</time>
      </trkpt>
      <trkpt lat="53.8018865" lon="14.2716850">
        <time>2026-08-05T09:14:27Z</time>
      </trkpt>
      <trkpt lat="53.8001217" lon="14.2758342">
        <time>2026-08-05T09:16:55Z</time>
      </trkpt>
      <trkpt lat="53.7993777" lon="14.2773957">
        <time>2026-08-05T09:17:54Z</time>
      </trkpt>
      <trkpt lat="53.7987653" lon="14.2790345">
        <time>2026-08-05T09:18:50Z</time>
      </trkpt>
      <trkpt lat="53.7979987" lon="14.2814993">
        <time>2026-08-05T09:20:12Z</time>
      </trkpt>
      <trkpt lat="53.7974747" lon="14.2826855">
        <time>2026-08-05T09:20:57Z</time>
      </trkpt>
      <trkpt lat="53.7969209" lon="14.2836015">
        <time>2026-08-05T09:21:35Z</time>
      </trkpt>
      <trkpt lat="53.7959862" lon="14.2849465">
        <time>2026-08-05T09:22:37Z</time>
      </trkpt>
      <trkpt lat="53.7953715" lon="14.2856803">
        <time>2026-08-05T09:23:15Z</time>
      </trkpt>
      <trkpt lat="53.7933085" lon="14.2883825">
        <time>2026-08-05T09:25:27Z</time>
      </trkpt>
      <trkpt lat="53.7921550" lon="14.2897994">
        <time>2026-08-05T09:26:40Z</time>
      </trkpt>
      <trkpt lat="53.7914746" lon="14.2909568">
        <time>2026-08-05T09:27:28Z</time>
      </trkpt>
      <trkpt lat="53.7899467" lon="14.2953826">
        <time>2026-08-05T09:30:05Z</time>
      </trkpt>
      <trkpt lat="53.7891703" lon="14.2980530">
        <time>2026-08-05T09:31:35Z</time>
      </trkpt>
      <trkpt lat="53.7886342" lon="14.3001699">
        <time>2026-08-05T09:32:45Z</time>
      </trkpt>
      <trkpt lat="53.7868006" lon="14.3034889">
        <time>2026-08-05T09:35:38Z</time>
      </trkpt>
      <trkpt lat="53.7864282" lon="14.3046210">
        <time>2026-08-05T09:36:32Z</time>
      </trkpt>
      <trkpt lat="53.7864955" lon="14.3059320">
        <time>2026-08-05T09:37:25Z</time>
      </trkpt>
      <trkpt lat="53.7867907" lon="14.3075213">
        <time>2026-08-05T09:38:31Z</time>
      </trkpt>
      <trkpt lat="53.7874437" lon="14.3104116">
        <time>2026-08-05T09:40:34Z</time>
      </trkpt>
      <trkpt lat="53.7882148" lon="14.3138739">
        <time>2026-08-05T09:42:58Z</time>
      </trkpt>
      <trkpt lat="53.7886352" lon="14.3153613">
        <time>2026-08-05T09:43:49Z</time>
      </trkpt>
      <trkpt lat="53.7895055" lon="14.3177584">
        <time>2026-08-05T09:45:09Z</time>
      </trkpt>
      <trkpt lat="53.7916528" lon="14.3230334">
        <time>2026-08-05T09:48:07Z</time>
      </trkpt>
      <trkpt lat="53.7930420" lon="14.3272745">
        <time>2026-08-05T09:50:22Z</time>
      </trkpt>
      <trkpt lat="53.7935886" lon="14.3292592">
        <time>2026-08-05T09:51:20Z</time>
      </trkpt>
      <trkpt lat="53.7940908" lon="14.3313216">
        <time>2026-08-05T09:52:20Z</time>
      </trkpt>
      <trkpt lat="53.7946800" lon="14.3335467">
        <time>2026-08-05T09:53:26Z</time>
      </trkpt>
      <trkpt lat="53.7953878" lon="14.3357258">
        <time>2026-08-05T09:54:35Z</time>
      </trkpt>
      <trkpt lat="53.7957815" lon="14.3367475">
        <time>2026-08-05T09:55:09Z</time>
      </trkpt>
      <trkpt lat="53.7967798" lon="14.3385323">
        <time>2026-08-05T09:56:19Z</time>
      </trkpt>
      <trkpt lat="53.7975965" lon="14.3394978">
        <time>2026-08-05T09:57:10Z</time>
      </trkpt>
      <trkpt lat="53.7990127" lon="14.3407937">
        <time>2026-08-05T09:58:28Z</time>
      </trkpt>
      <trkpt lat="53.8003662" lon="14.3423922">
        <time>2026-08-05T09:59:48Z</time>
      </trkpt>
      <trkpt lat="53.8019073" lon="14.3439517">
        <time>2026-08-05T10:01:15Z</time>
      </trkpt>
      <trkpt lat="53.8026597" lon="14.3443007">
        <time>2026-08-05T10:01:53Z</time>
      </trkpt>
      <trkpt lat="53.8040382" lon="14.3427115">
        <time>2026-08-05T10:03:15Z</time>
      </trkpt>
      <trkpt lat="53.8056978" lon="14.3418776">
        <time>2026-08-05T10:04:34Z</time>
      </trkpt>
      <trkpt lat="53.8068323" lon="14.3411208">
        <time>2026-08-05T10:05:26Z</time>
      </trkpt>
      <trkpt lat="53.8078308" lon="14.3402130">
        <time>2026-08-05T10:06:14Z</time>
      </trkpt>
      <trkpt lat="53.8084800" lon="14.3394070">
        <time>2026-08-05T10:06:49Z</time>
      </trkpt>
      <trkpt lat="53.8095730" lon="14.3383448">
        <time>2026-08-05T10:07:41Z</time>
      </trkpt>
      <trkpt lat="53.8116750" lon="14.3356641">
        <time>2026-08-05T10:09:31Z</time>
      </trkpt>
      <trkpt lat="53.8122929" lon="14.3350002">
        <time>2026-08-05T10:10:01Z</time>
      </trkpt>
      <trkpt lat="53.8131274" lon="14.3338133">
        <time>2026-08-05T10:10:48Z</time>
      </trkpt>
      <trkpt lat="53.8141342" lon="14.3325301">
        <time>2026-08-05T10:11:40Z</time>
      </trkpt>
      <trkpt lat="53.8158051" lon="14.3299642">
        <time>2026-08-05T10:13:14Z</time>
      </trkpt>
      <trkpt lat="53.8175005" lon="14.3279145">
        <time>2026-08-05T10:14:40Z</time>
      </trkpt>
      <trkpt lat="53.8190288" lon="14.3259502">
        <time>2026-08-05T10:16:03Z</time>
      </trkpt>
      <trkpt lat="53.8211514" lon="14.3227930">
        <time>2026-08-05T10:18:05Z</time>
      </trkpt>
      <trkpt lat="53.8233235" lon="14.3198250">
        <time>2026-08-05T10:20:03Z</time>
      </trkpt>
      <trkpt lat="53.8249054" lon="14.3175260">
        <time>2026-08-05T10:21:32Z</time>
      </trkpt>
      <trkpt lat="53.8269393" lon="14.3148578">
        <time>2026-08-05T10:23:20Z</time>
      </trkpt>
      <trkpt lat="53.8275639" lon="14.3141656">
        <time>2026-08-05T10:23:52Z</time>
      </trkpt>
      <trkpt lat="53.8283060" lon="14.3130871">
        <time>2026-08-05T10:24:36Z</time>
      </trkpt>
      <trkpt lat="53.8289567" lon="14.3119577">
        <time>2026-08-05T10:25:17Z</time>
      </trkpt>
      <trkpt lat="53.8295225" lon="14.3108170">
        <time>2026-08-05T10:25:57Z</time>
      </trkpt>
      <trkpt lat="53.8314475" lon="14.3084535">
        <time>2026-08-05T10:27:36Z</time>
      </trkpt>
      <trkpt lat="53.8323601" lon="14.3071815">
        <time>2026-08-05T10:28:24Z</time>
      </trkpt>
      <trkpt lat="53.8333835" lon="14.3059285">
        <time>2026-08-05T10:29:16Z</time>
      </trkpt>
      <trkpt lat="53.8340587" lon="14.3049844">
        <time>2026-08-05T10:29:52Z</time>
      </trkpt>
      <trkpt lat="53.8360292" lon="14.3024611">
        <time>2026-08-05T10:31:38Z</time>
      </trkpt>
      <trkpt lat="53.8385775" lon="14.2988498">
        <time>2026-08-05T10:33:57Z</time>
      </trkpt>
      <trkpt lat="53.8453498" lon="14.2897803">
        <time>2026-08-05T10:39:54Z</time>
      </trkpt>
      <trkpt lat="53.8472638" lon="14.2876235">
        <time>2026-08-05T10:41:30Z</time>
      </trkpt>
      <trkpt lat="53.8486013" lon="14.2864536">
        <time>2026-08-05T10:42:35Z</time>
      </trkpt>
      <trkpt lat="53.8501685" lon="14.2851650">
        <time>2026-08-05T10:43:49Z</time>
      </trkpt>
      <trkpt lat="53.8513335" lon="14.2844467">
        <time>2026-08-05T10:44:41Z</time>
      </trkpt>
      <trkpt lat="53.8534942" lon="14.2834690">
        <time>2026-08-05T10:46:16Z</time>
      </trkpt>
      <trkpt lat="53.8554374" lon="14.2827032">
        <time>2026-08-05T10:47:40Z</time>
      </trkpt>
      <trkpt lat="53.8589330" lon="14.2815012">
        <time>2026-08-05T10:50:11Z</time>
      </trkpt>
      <trkpt lat="53.8603694" lon="14.2810205">
        <time>2026-08-05T10:51:13Z</time>
      </trkpt>
      <trkpt lat="53.8623020" lon="14.2805561">
        <time>2026-08-05T10:52:35Z</time>
      </trkpt>
      <trkpt lat="53.8657785" lon="14.2791748">
        <time>2026-08-05T10:55:00Z</time>
      </trkpt>
      <trkpt lat="53.8743568" lon="14.2759297">
        <time>2026-08-05T11:00:59Z</time>
      </trkpt>
      <trkpt lat="53.8764190" lon="14.2744105">
        <time>2026-08-05T11:02:31Z</time>
      </trkpt>
      <trkpt lat="53.8773115" lon="14.2738372">
        <time>2026-08-05T11:03:10Z</time>
      </trkpt>
      <trkpt lat="53.8791482" lon="14.2725228">
        <time>2026-08-05T11:04:28Z</time>
      </trkpt>
      <trkpt lat="53.8799574" lon="14.2718600">
        <time>2026-08-05T11:05:04Z</time>
      </trkpt>
      <trkpt lat="53.8826432" lon="14.2692305">
        <time>2026-08-05T11:07:13Z</time>
      </trkpt>
      <trkpt lat="53.8842653" lon="14.2671098">
        <time>2026-08-05T11:08:41Z</time>
      </trkpt>
      <trkpt lat="53.8849459" lon="14.2660768">
        <time>2026-08-05T11:09:20Z</time>
      </trkpt>
      <trkpt lat="53.8863512" lon="14.2643582">
        <time>2026-08-05T11:10:34Z</time>
      </trkpt>
      <trkpt lat="53.8906240" lon="14.2587485">
        <time>2026-08-05T11:14:16Z</time>
      </trkpt>
      <trkpt lat="53.8918108" lon="14.2577548">
        <time>2026-08-05T11:15:11Z</time>
      </trkpt>
      <trkpt lat="53.8956339" lon="14.2562329">
        <time>2026-08-05T11:17:59Z</time>
      </trkpt>
      <trkpt lat="53.8964256" lon="14.2560749">
        <time>2026-08-05T11:18:34Z</time>
      </trkpt>
      <trkpt lat="53.8977909" lon="14.2554258">
        <time>2026-08-05T11:19:36Z</time>
      </trkpt>
      <trkpt lat="53.8990549" lon="14.2555874">
        <time>2026-08-05T11:20:33Z</time>
      </trkpt>
      <trkpt lat="53.9000653" lon="14.2560941">
        <time>2026-08-05T11:21:19Z</time>
      </trkpt>
      <trkpt lat="53.9014253" lon="14.2570112">
        <time>2026-08-05T11:22:21Z</time>
      </trkpt>
      <trkpt lat="53.9023902" lon="14.2577304">
        <time>2026-08-05T11:23:06Z</time>
      </trkpt>
      <trkpt lat="53.9030441" lon="14.2583880">
        <time>2026-08-05T11:23:36Z</time>
      </trkpt>
      <trkpt lat="53.9045034" lon="14.2603480">
        <time>2026-08-05T11:24:53Z</time>
      </trkpt>
      <trkpt lat="53.9050177" lon="14.2609814">
        <time>2026-08-05T11:25:19Z</time>
      </trkpt>
      <trkpt lat="53.9052072" lon="14.2611480">
        <time>2026-08-05T11:25:27Z</time>
      </trkpt>
      <trkpt lat="53.9056564" lon="14.2613539">
        <time>2026-08-05T11:25:47Z</time>
      </trkpt>
      <trkpt lat="53.9060729" lon="14.2614190">
        <time>2026-08-05T11:26:05Z</time>
      </trkpt>
      <trkpt lat="53.9062470" lon="14.2613752">
        <time>2026-08-05T11:26:13Z</time>
      </trkpt>
      <trkpt lat="53.9063892" lon="14.2612550">
        <time>2026-08-05T11:26:21Z</time>
      </trkpt>
      <trkpt lat="53.9065040" lon="14.2610315">
        <time>2026-08-05T11:26:32Z</time>
      </trkpt>
      <trkpt lat="53.9066332" lon="14.2606047">
        <time>2026-08-05T11:26:48Z</time>
      </trkpt>
      <trkpt lat="53.9067828" lon="14.2595252">
        <time>2026-08-05T11:27:22Z</time>
      </trkpt>
      <trkpt lat="53.9067992" lon="14.2585789">
        <time>2026-08-05T11:27:50Z</time>
      </trkpt>
      <trkpt lat="53.9067457" lon="14.2569043">
        <time>2026-08-05T11:28:35Z</time>
      </trkpt>
      <trkpt lat="53.9067671" lon="14.2557766">
        <time>2026-08-05T11:29:09Z</time>
      </trkpt>
      <trkpt lat="53.9067990" lon="14.2555665">
        <time>2026-08-05T11:29:23Z</time>
      </trkpt>
      <trkpt lat="53.9068422" lon="14.2554486">
        <time>2026-08-05T11:30:27Z</time>
      </trkpt>
      <trkpt lat="53.9069386" lon="14.2554285">
        <time>2026-08-05T11:32:04Z</time>
      </trkpt>
      <trkpt lat="53.9068236" lon="14.2553163">
        <time>2026-08-05T11:33:22Z</time>
      </trkpt>
      <trkpt lat="53.9068002" lon="14.2554147">
        <time>2026-08-05T11:33:42Z</time>
      </trkpt>
      <trkpt lat="53.9067417" lon="14.2554232">
        <time>2026-08-05T11:33:50Z</time>
      </trkpt>
      <trkpt lat="53.9065480" lon="14.2552318">
        <time>2026-08-05T11:34:07Z</time>
      </trkpt>
      <trkpt lat="53.9064098" lon="14.2550015">
        <time>2026-08-05T11:34:19Z</time>
      </trkpt>
      <trkpt lat="53.9063459" lon="14.2547820">
        <time>2026-08-05T11:34:27Z</time>
      </trkpt>
      <trkpt lat="53.9062962" lon="14.2542194">
        <time>2026-08-05T11:34:47Z</time>
      </trkpt>
      <trkpt lat="53.9063042" lon="14.2537465">
        <time>2026-08-05T11:35:05Z</time>
      </trkpt>
      <trkpt lat="53.9063638" lon="14.2532352">
        <time>2026-08-05T11:35:25Z</time>
      </trkpt>
      <trkpt lat="53.9068140" lon="14.2512498">
        <time>2026-08-05T11:36:45Z</time>
      </trkpt>
      <trkpt lat="53.9069126" lon="14.2504495">
        <time>2026-08-05T11:37:30Z</time>
      </trkpt>
      <trkpt lat="53.9070955" lon="14.2499588">
        <time>2026-08-05T11:38:40Z</time>
      </trkpt>
      <trkpt lat="53.9073187" lon="14.2496740">
        <time>2026-08-05T12:26:09Z</time>
      </trkpt>
      <trkpt lat="53.9071967" lon="14.2501898">
        <time>2026-08-05T12:43:12Z</time>
      </trkpt>
      <trkpt lat="53.9069526" lon="14.2508222">
        <time>2026-08-05T12:43:37Z</time>
      </trkpt>
      <trkpt lat="53.9067199" lon="14.2517105">
        <time>2026-08-05T12:44:09Z</time>
      </trkpt>
      <trkpt lat="53.9066280" lon="14.2522349">
        <time>2026-08-05T12:44:27Z</time>
      </trkpt>
      <trkpt lat="53.9065676" lon="14.2529855">
        <time>2026-08-05T12:44:49Z</time>
      </trkpt>
      <trkpt lat="53.9065447" lon="14.2549156">
        <time>2026-08-05T12:45:42Z</time>
      </trkpt>
      <trkpt lat="53.9063993" lon="14.2589168">
        <time>2026-08-05T12:47:30Z</time>
      </trkpt>
      <trkpt lat="53.9063749" lon="14.2590628">
        <time>2026-08-05T12:47:36Z</time>
      </trkpt>
      <trkpt lat="53.9063297" lon="14.2591365">
        <time>2026-08-05T12:47:42Z</time>
      </trkpt>
      <trkpt lat="53.9062195" lon="14.2591035">
        <time>2026-08-05T12:47:53Z</time>
      </trkpt>
      <trkpt lat="53.9052585" lon="14.2578333">
        <time>2026-08-05T12:48:57Z</time>
      </trkpt>
      <trkpt lat="53.9043220" lon="14.2562717">
        <time>2026-08-05T12:49:59Z</time>
      </trkpt>
      <trkpt lat="53.9031694" lon="14.2550129">
        <time>2026-08-05T12:51:03Z</time>
      </trkpt>
      <trkpt lat="53.9024008" lon="14.2541487">
        <time>2026-08-05T12:51:46Z</time>
      </trkpt>
      <trkpt lat="53.9008055" lon="14.2532683">
        <time>2026-08-05T12:53:04Z</time>
      </trkpt>
      <trkpt lat="53.8999122" lon="14.2530777">
        <time>2026-08-05T12:53:46Z</time>
      </trkpt>
      <trkpt lat="53.8988812" lon="14.2525170">
        <time>2026-08-05T12:54:35Z</time>
      </trkpt>
      <trkpt lat="53.8979117" lon="14.2523546">
        <time>2026-08-05T12:55:21Z</time>
      </trkpt>
      <trkpt lat="53.8970995" lon="14.2524048">
        <time>2026-08-05T12:55:59Z</time>
      </trkpt>
      <trkpt lat="53.8961942" lon="14.2530260">
        <time>2026-08-05T12:56:46Z</time>
      </trkpt>
      <trkpt lat="53.8951030" lon="14.2550953">
        <time>2026-08-05T12:58:02Z</time>
      </trkpt>
      <trkpt lat="53.8946040" lon="14.2567505">
        <time>2026-08-05T12:58:53Z</time>
      </trkpt>
      <trkpt lat="53.8938762" lon="14.2592581">
        <time>2026-08-05T13:00:05Z</time>
      </trkpt>
      <trkpt lat="53.8932455" lon="14.2598965">
        <time>2026-08-05T13:00:39Z</time>
      </trkpt>
      <trkpt lat="53.8924817" lon="14.2607961">
        <time>2026-08-05T13:01:22Z</time>
      </trkpt>
      <trkpt lat="53.8920613" lon="14.2620323">
        <time>2026-08-05T13:02:00Z</time>
      </trkpt>
      <trkpt lat="53.8916870" lon="14.2638165">
        <time>2026-08-05T13:02:50Z</time>
      </trkpt>
      <trkpt lat="53.8914275" lon="14.2656188">
        <time>2026-08-05T13:03:39Z</time>
      </trkpt>
      <trkpt lat="53.8911370" lon="14.2668922">
        <time>2026-08-05T13:04:15Z</time>
      </trkpt>
      <trkpt lat="53.8905787" lon="14.2686053">
        <time>2026-08-05T13:05:09Z</time>
      </trkpt>
      <trkpt lat="53.8897558" lon="14.2715485">
        <time>2026-08-05T13:06:40Z</time>
      </trkpt>
      <trkpt lat="53.8893941" lon="14.2734650">
        <time>2026-08-05T13:07:34Z</time>
      </trkpt>
      <trkpt lat="53.8890730" lon="14.2749012">
        <time>2026-08-05T13:08:16Z</time>
      </trkpt>
      <trkpt lat="53.8886050" lon="14.2760298">
        <time>2026-08-05T13:08:54Z</time>
      </trkpt>
      <trkpt lat="53.8877369" lon="14.2771790">
        <time>2026-08-05T13:09:46Z</time>
      </trkpt>
      <trkpt lat="53.8870727" lon="14.2779477">
        <time>2026-08-05T13:10:25Z</time>
      </trkpt>
      <trkpt lat="53.8863212" lon="14.2792719">
        <time>2026-08-05T13:11:15Z</time>
      </trkpt>
      <trkpt lat="53.8854634" lon="14.2805600">
        <time>2026-08-05T13:12:09Z</time>
      </trkpt>
      <trkpt lat="53.8843137" lon="14.2815025">
        <time>2026-08-05T13:13:10Z</time>
      </trkpt>
      <trkpt lat="53.8820336" lon="14.2811015">
        <time>2026-08-05T13:14:58Z</time>
      </trkpt>
      <trkpt lat="53.8812675" lon="14.2809950">
        <time>2026-08-05T13:15:35Z</time>
      </trkpt>
      <trkpt lat="53.8802174" lon="14.2809530">
        <time>2026-08-05T13:16:23Z</time>
      </trkpt>
      <trkpt lat="53.8787480" lon="14.2811178">
        <time>2026-08-05T13:17:33Z</time>
      </trkpt>
      <trkpt lat="53.8778630" lon="14.2810235">
        <time>2026-08-05T13:18:15Z</time>
      </trkpt>
      <trkpt lat="53.8764747" lon="14.2811502">
        <time>2026-08-05T13:19:22Z</time>
      </trkpt>
      <trkpt lat="53.8756552" lon="14.2811275">
        <time>2026-08-05T13:20:00Z</time>
      </trkpt>
      <trkpt lat="53.8742417" lon="14.2814252">
        <time>2026-08-05T13:21:08Z</time>
      </trkpt>
      <trkpt lat="53.8731016" lon="14.2815707">
        <time>2026-08-05T13:22:02Z</time>
      </trkpt>
      <trkpt lat="53.8697980" lon="14.2817565">
        <time>2026-08-05T13:24:39Z</time>
      </trkpt>
      <trkpt lat="53.8689912" lon="14.2819508">
        <time>2026-08-05T13:25:17Z</time>
      </trkpt>
      <trkpt lat="53.8681588" lon="14.2819769">
        <time>2026-08-05T13:25:55Z</time>
      </trkpt>
      <trkpt lat="53.8671485" lon="14.2821350">
        <time>2026-08-05T13:26:42Z</time>
      </trkpt>
      <trkpt lat="53.8650766" lon="14.2827612">
        <time>2026-08-05T13:28:18Z</time>
      </trkpt>
      <trkpt lat="53.8641910" lon="14.2832132">
        <time>2026-08-05T13:29:00Z</time>
      </trkpt>
      <trkpt lat="53.8627468" lon="14.2842976">
        <time>2026-08-05T13:30:10Z</time>
      </trkpt>
      <trkpt lat="53.8618307" lon="14.2848075">
        <time>2026-08-05T13:30:52Z</time>
      </trkpt>
      <trkpt lat="53.8609295" lon="14.2854916">
        <time>2026-08-05T13:31:35Z</time>
      </trkpt>
      <trkpt lat="53.8590547" lon="14.2860392">
        <time>2026-08-05T13:32:59Z</time>
      </trkpt>
      <trkpt lat="53.8582755" lon="14.2868900">
        <time>2026-08-05T13:33:40Z</time>
      </trkpt>
      <trkpt lat="53.8579903" lon="14.2880102">
        <time>2026-08-05T13:34:12Z</time>
      </trkpt>
      <trkpt lat="53.8582105" lon="14.2895702">
        <time>2026-08-05T13:34:55Z</time>
      </trkpt>
      <trkpt lat="53.8586300" lon="14.2916120">
        <time>2026-08-05T13:35:49Z</time>
      </trkpt>
      <trkpt lat="53.8592352" lon="14.2933097">
        <time>2026-08-05T13:36:39Z</time>
      </trkpt>
      <trkpt lat="53.8604249" lon="14.2957322">
        <time>2026-08-05T13:38:00Z</time>
      </trkpt>
      <trkpt lat="53.8611117" lon="14.2971983">
        <time>2026-08-05T13:38:48Z</time>
      </trkpt>
      <trkpt lat="53.8624812" lon="14.2994095">
        <time>2026-08-05T13:40:11Z</time>
      </trkpt>
      <trkpt lat="53.8632628" lon="14.3007798">
        <time>2026-08-05T13:41:01Z</time>
      </trkpt>
      <trkpt lat="53.8644667" lon="14.3025608">
        <time>2026-08-05T13:42:11Z</time>
      </trkpt>
      <trkpt lat="53.8658504" lon="14.3048725">
        <time>2026-08-05T13:43:35Z</time>
      </trkpt>
      <trkpt lat="53.8669657" lon="14.3068145">
        <time>2026-08-05T13:44:45Z</time>
      </trkpt>
      <trkpt lat="53.8682558" lon="14.3092108">
        <time>2026-08-05T13:46:10Z</time>
      </trkpt>
      <trkpt lat="53.8694449" lon="14.3116670">
        <time>2026-08-05T13:47:32Z</time>
      </trkpt>
      <trkpt lat="53.8699096" lon="14.3128247">
        <time>2026-08-05T13:48:08Z</time>
      </trkpt>
      <trkpt lat="53.8709778" lon="14.3172648">
        <time>2026-08-05T13:50:11Z</time>
      </trkpt>
      <trkpt lat="53.8720464" lon="14.3218139">
        <time>2026-08-05T13:52:17Z</time>
      </trkpt>
      <trkpt lat="53.8724452" lon="14.3229973">
        <time>2026-08-05T13:52:53Z</time>
      </trkpt>
      <trkpt lat="53.8749810" lon="14.3235042">
        <time>2026-08-05T13:55:36Z</time>
      </trkpt>
      <trkpt lat="53.8763148" lon="14.3232514">
        <time>2026-08-05T13:57:05Z</time>
      </trkpt>
      <trkpt lat="53.8770138" lon="14.3243990">
        <time>2026-08-05T13:58:19Z</time>
      </trkpt>
      <trkpt lat="53.8779815" lon="14.3260436">
        <time>2026-08-05T13:59:40Z</time>
      </trkpt>
      <trkpt lat="53.8785640" lon="14.3270653">
        <time>2026-08-05T14:00:30Z</time>
      </trkpt>
      <trkpt lat="53.8792800" lon="14.3275963">
        <time>2026-08-05T14:01:17Z</time>
      </trkpt>
      <trkpt lat="53.8801050" lon="14.3273350">
        <time>2026-08-05T14:02:07Z</time>
      </trkpt>
      <trkpt lat="53.8806558" lon="14.3281788">
        <time>2026-08-05T14:02:56Z</time>
      </trkpt>
      <trkpt lat="53.8808330" lon="14.3300863">
        <time>2026-08-05T14:04:06Z</time>
      </trkpt>
      <trkpt lat="53.8809113" lon="14.3326153">
        <time>2026-08-05T14:05:33Z</time>
      </trkpt>
      <trkpt lat="53.8805020" lon="14.3344404">
        <time>2026-08-05T14:06:41Z</time>
      </trkpt>
      <trkpt lat="53.8814995" lon="14.3387514">
        <time>2026-08-05T14:09:10Z</time>
      </trkpt>
      <trkpt lat="53.8819930" lon="14.3402008">
        <time>2026-08-05T14:09:59Z</time>
      </trkpt>
      <trkpt lat="53.8823058" lon="14.3424017">
        <time>2026-08-05T14:11:05Z</time>
      </trkpt>
      <trkpt lat="53.8825926" lon="14.3436142">
        <time>2026-08-05T14:11:43Z</time>
      </trkpt>
      <trkpt lat="53.8832383" lon="14.3451949">
        <time>2026-08-05T14:12:38Z</time>
      </trkpt>
      <trkpt lat="53.8837840" lon="14.3471925">
        <time>2026-08-05T14:13:42Z</time>
      </trkpt>
      <trkpt lat="53.8840746" lon="14.3489155">
        <time>2026-08-05T14:14:34Z</time>
      </trkpt>
      <trkpt lat="53.8841822" lon="14.3508415">
        <time>2026-08-05T14:15:31Z</time>
      </trkpt>
      <trkpt lat="53.8841097" lon="14.3528786">
        <time>2026-08-05T14:16:29Z</time>
      </trkpt>
      <trkpt lat="53.8841235" lon="14.3552030">
        <time>2026-08-05T14:17:35Z</time>
      </trkpt>
      <trkpt lat="53.8842451" lon="14.3565142">
        <time>2026-08-05T14:18:13Z</time>
      </trkpt>
      <trkpt lat="53.8846855" lon="14.3576110">
        <time>2026-08-05T14:18:52Z</time>
      </trkpt>
      <trkpt lat="53.8855287" lon="14.3584205">
        <time>2026-08-05T14:19:40Z</time>
      </trkpt>
      <trkpt lat="53.8859741" lon="14.3589471">
        <time>2026-08-05T14:20:07Z</time>
      </trkpt>
      <trkpt lat="53.8866740" lon="14.3599458">
        <time>2026-08-05T14:21:07Z</time>
      </trkpt>
      <trkpt lat="53.8868618" lon="14.3603977">
        <time>2026-08-05T14:24:22Z</time>
      </trkpt>
      <trkpt lat="53.8869337" lon="14.3608635">
        <time>2026-08-05T14:25:04Z</time>
      </trkpt>
      <trkpt lat="53.8868869" lon="14.3609452">
        <time>2026-08-05T14:25:16Z</time>
      </trkpt>
      <trkpt lat="53.8868184" lon="14.3609201">
        <time>2026-08-05T14:25:32Z</time>
      </trkpt>
      <trkpt lat="53.8867133" lon="14.3606470">
        <time>2026-08-05T14:25:55Z</time>
      </trkpt>
      <trkpt lat="53.8866862" lon="14.3604458">
        <time>2026-08-05T14:26:09Z</time>
      </trkpt>
      <trkpt lat="53.8867093" lon="14.3603360">
        <time>2026-08-05T14:26:21Z</time>
      </trkpt>
    </trkseg>
  </trk>

  <trk>
    <name>20260806</name>
    <extensions>
      <gpxx:TrackExtension xmlns:gpxx="http://www.garmin.com/xmlschemas/GpxExtensions/v3">
        <gpxx:DisplayColor>Transparent</gpxx:DisplayColor>
      </gpxx:TrackExtension>
    </extensions>
    <trkseg>
      <trkpt lat="53.8869444" lon="14.3604217">
        <time>2026-08-06T09:19:44Z</time>
      </trkpt>
      <trkpt lat="53.8868858" lon="14.3603080">
        <time>2026-08-06T10:18:57Z</time>
      </trkpt>
      <trkpt lat="53.8868299" lon="14.3603848">
        <time>2026-08-06T10:19:13Z</time>
      </trkpt>
      <trkpt lat="53.8867646" lon="14.3603674">
        <time>2026-08-06T10:19:23Z</time>
      </trkpt>
      <trkpt lat="53.8863007" lon="14.3592925">
        <time>2026-08-06T10:20:17Z</time>
      </trkpt>
      <trkpt lat="53.8860795" lon="14.3588997">
        <time>2026-08-06T10:20:34Z</time>
      </trkpt>
      <trkpt lat="53.8857750" lon="14.3585611">
        <time>2026-08-06T10:20:52Z</time>
      </trkpt>
      <trkpt lat="53.8849877" lon="14.3580426">
        <time>2026-08-06T10:21:32Z</time>
      </trkpt>
      <trkpt lat="53.8848044" lon="14.3578680">
        <time>2026-08-06T10:21:42Z</time>
      </trkpt>
      <trkpt lat="53.8844348" lon="14.3568802">
        <time>2026-08-06T10:22:16Z</time>
      </trkpt>
      <trkpt lat="53.8843432" lon="14.3565565">
        <time>2026-08-06T10:22:27Z</time>
      </trkpt>
      <trkpt lat="53.8842947" lon="14.3561337">
        <time>2026-08-06T10:22:39Z</time>
      </trkpt>
      <trkpt lat="53.8843955" lon="14.3541155">
        <time>2026-08-06T10:23:33Z</time>
      </trkpt>
      <trkpt lat="53.8844258" lon="14.3524331">
        <time>2026-08-06T10:24:20Z</time>
      </trkpt>
      <trkpt lat="53.8844053" lon="14.3512057">
        <time>2026-08-06T10:24:54Z</time>
      </trkpt>
      <trkpt lat="53.8842807" lon="14.3495790">
        <time>2026-08-06T10:25:38Z</time>
      </trkpt>
      <trkpt lat="53.8841028" lon="14.3482252">
        <time>2026-08-06T10:26:16Z</time>
      </trkpt>
      <trkpt lat="53.8839615" lon="14.3475295">
        <time>2026-08-06T10:26:36Z</time>
      </trkpt>
      <trkpt lat="53.8826707" lon="14.3435915">
        <time>2026-08-06T10:28:41Z</time>
      </trkpt>
      <trkpt lat="53.8825478" lon="14.3433028">
        <time>2026-08-06T10:28:51Z</time>
      </trkpt>
      <trkpt lat="53.8823860" lon="14.3430935">
        <time>2026-08-06T10:29:01Z</time>
      </trkpt>
      <trkpt lat="53.8821393" lon="14.3429140">
        <time>2026-08-06T10:29:13Z</time>
      </trkpt>
      <trkpt lat="53.8819328" lon="14.3428667">
        <time>2026-08-06T10:29:23Z</time>
      </trkpt>
      <trkpt lat="53.8815008" lon="14.3429200">
        <time>2026-08-06T10:29:44Z</time>
      </trkpt>
      <trkpt lat="53.8811675" lon="14.3430583">
        <time>2026-08-06T10:30:00Z</time>
      </trkpt>
      <trkpt lat="53.8808840" lon="14.3432482">
        <time>2026-08-06T10:30:14Z</time>
      </trkpt>
      <trkpt lat="53.8806617" lon="14.3434763">
        <time>2026-08-06T10:30:26Z</time>
      </trkpt>
      <trkpt lat="53.8804625" lon="14.3438075">
        <time>2026-08-06T10:30:39Z</time>
      </trkpt>
      <trkpt lat="53.8803688" lon="14.3440879">
        <time>2026-08-06T10:30:47Z</time>
      </trkpt>
      <trkpt lat="53.8802827" lon="14.3445757">
        <time>2026-08-06T10:31:01Z</time>
      </trkpt>
      <trkpt lat="53.8802662" lon="14.3449374">
        <time>2026-08-06T10:31:12Z</time>
      </trkpt>
      <trkpt lat="53.8802972" lon="14.3453750">
        <time>2026-08-06T10:31:24Z</time>
      </trkpt>
      <trkpt lat="53.8804820" lon="14.3464774">
        <time>2026-08-06T10:31:54Z</time>
      </trkpt>
      <trkpt lat="53.8811423" lon="14.3494765">
        <time>2026-08-06T10:33:21Z</time>
      </trkpt>
      <trkpt lat="53.8812246" lon="14.3500120">
        <time>2026-08-06T10:33:35Z</time>
      </trkpt>
      <trkpt lat="53.8812522" lon="14.3505997">
        <time>2026-08-06T10:33:51Z</time>
      </trkpt>
      <trkpt lat="53.8812246" lon="14.3508787">
        <time>2026-08-06T10:33:59Z</time>
      </trkpt>
      <trkpt lat="53.8810836" lon="14.3514063">
        <time>2026-08-06T10:34:15Z</time>
      </trkpt>
      <trkpt lat="53.8809180" lon="14.3518328">
        <time>2026-08-06T10:34:29Z</time>
      </trkpt>
      <trkpt lat="53.8807068" lon="14.3522017">
        <time>2026-08-06T10:34:44Z</time>
      </trkpt>
      <trkpt lat="53.8804916" lon="14.3524535">
        <time>2026-08-06T10:34:56Z</time>
      </trkpt>
      <trkpt lat="53.8802512" lon="14.3526185">
        <time>2026-08-06T10:35:08Z</time>
      </trkpt>
      <trkpt lat="53.8801098" lon="14.3526488">
        <time>2026-08-06T10:35:14Z</time>
      </trkpt>
      <trkpt lat="53.8798748" lon="14.3525613">
        <time>2026-08-06T10:35:26Z</time>
      </trkpt>
      <trkpt lat="53.8796493" lon="14.3523855">
        <time>2026-08-06T10:35:38Z</time>
      </trkpt>
      <trkpt lat="53.8787722" lon="14.3514345">
        <time>2026-08-06T10:36:29Z</time>
      </trkpt>
      <trkpt lat="53.8784767" lon="14.3511675">
        <time>2026-08-06T10:36:45Z</time>
      </trkpt>
      <trkpt lat="53.8772535" lon="14.3504615">
        <time>2026-08-06T10:37:47Z</time>
      </trkpt>
      <trkpt lat="53.8767698" lon="14.3500935">
        <time>2026-08-06T10:38:11Z</time>
      </trkpt>
      <trkpt lat="53.8763825" lon="14.3496662">
        <time>2026-08-06T10:38:34Z</time>
      </trkpt>
      <trkpt lat="53.8760899" lon="14.3492695">
        <time>2026-08-06T10:38:52Z</time>
      </trkpt>
      <trkpt lat="53.8758879" lon="14.3489096">
        <time>2026-08-06T10:39:06Z</time>
      </trkpt>
      <trkpt lat="53.8757311" lon="14.3484955">
        <time>2026-08-06T10:39:20Z</time>
      </trkpt>
      <trkpt lat="53.8752165" lon="14.3466743">
        <time>2026-08-06T10:40:18Z</time>
      </trkpt>
      <trkpt lat="53.8749957" lon="14.3459837">
        <time>2026-08-06T10:40:42Z</time>
      </trkpt>
      <trkpt lat="53.8748442" lon="14.3456171">
        <time>2026-08-06T10:40:54Z</time>
      </trkpt>
      <trkpt lat="53.8746758" lon="14.3453397">
        <time>2026-08-06T10:41:06Z</time>
      </trkpt>
      <trkpt lat="53.8745042" lon="14.3451804">
        <time>2026-08-06T10:41:17Z</time>
      </trkpt>
      <trkpt lat="53.8742707" lon="14.3451094">
        <time>2026-08-06T10:41:29Z</time>
      </trkpt>
      <trkpt lat="53.8740310" lon="14.3451323">
        <time>2026-08-06T10:41:41Z</time>
      </trkpt>
      <trkpt lat="53.8735495" lon="14.3454097">
        <time>2026-08-06T10:42:05Z</time>
      </trkpt>
      <trkpt lat="53.8723137" lon="14.3462475">
        <time>2026-08-06T10:43:09Z</time>
      </trkpt>
      <trkpt lat="53.8720992" lon="14.3464342">
        <time>2026-08-06T10:43:21Z</time>
      </trkpt>
      <trkpt lat="53.8718164" lon="14.3467975">
        <time>2026-08-06T10:43:40Z</time>
      </trkpt>
      <trkpt lat="53.8707920" lon="14.3484366">
        <time>2026-08-06T10:44:50Z</time>
      </trkpt>
      <trkpt lat="53.8697683" lon="14.3494876">
        <time>2026-08-06T10:45:51Z</time>
      </trkpt>
      <trkpt lat="53.8691610" lon="14.3501407">
        <time>2026-08-06T10:46:27Z</time>
      </trkpt>
      <trkpt lat="53.8659504" lon="14.3531008">
        <time>2026-08-06T10:49:27Z</time>
      </trkpt>
      <trkpt lat="53.8633032" lon="14.3557421">
        <time>2026-08-06T10:52:04Z</time>
      </trkpt>
      <trkpt lat="53.8606968" lon="14.3585532">
        <time>2026-08-06T10:54:40Z</time>
      </trkpt>
      <trkpt lat="53.8596625" lon="14.3595653">
        <time>2026-08-06T10:55:41Z</time>
      </trkpt>
      <trkpt lat="53.8588190" lon="14.3607870">
        <time>2026-08-06T10:56:37Z</time>
      </trkpt>
      <trkpt lat="53.8579881" lon="14.3622932">
        <time>2026-08-06T10:57:37Z</time>
      </trkpt>
      <trkpt lat="53.8566842" lon="14.3651967">
        <time>2026-08-06T10:59:26Z</time>
      </trkpt>
      <trkpt lat="53.8560337" lon="14.3669815">
        <time>2026-08-06T11:00:28Z</time>
      </trkpt>
      <trkpt lat="53.8554792" lon="14.3691453">
        <time>2026-08-06T11:01:40Z</time>
      </trkpt>
      <trkpt lat="53.8552592" lon="14.3705000">
        <time>2026-08-06T11:02:22Z</time>
      </trkpt>
      <trkpt lat="53.8551266" lon="14.3733134">
        <time>2026-08-06T11:03:47Z</time>
      </trkpt>
      <trkpt lat="53.8550815" lon="14.3761500">
        <time>2026-08-06T11:05:11Z</time>
      </trkpt>
      <trkpt lat="53.8551705" lon="14.3782797">
        <time>2026-08-06T11:06:16Z</time>
      </trkpt>
      <trkpt lat="53.8554472" lon="14.3804635">
        <time>2026-08-06T11:07:24Z</time>
      </trkpt>
      <trkpt lat="53.8557964" lon="14.3824948">
        <time>2026-08-06T11:08:29Z</time>
      </trkpt>
      <trkpt lat="53.8561033" lon="14.3838805">
        <time>2026-08-06T11:09:15Z</time>
      </trkpt>
      <trkpt lat="53.8565470" lon="14.3856727">
        <time>2026-08-06T11:10:17Z</time>
      </trkpt>
      <trkpt lat="53.8570220" lon="14.3871806">
        <time>2026-08-06T11:11:11Z</time>
      </trkpt>
      <trkpt lat="53.8576173" lon="14.3891073">
        <time>2026-08-06T11:12:24Z</time>
      </trkpt>
      <trkpt lat="53.8586186" lon="14.3916707">
        <time>2026-08-06T11:14:06Z</time>
      </trkpt>
      <trkpt lat="53.8598514" lon="14.3952451">
        <time>2026-08-06T11:16:16Z</time>
      </trkpt>
      <trkpt lat="53.8604370" lon="14.3970643">
        <time>2026-08-06T11:17:13Z</time>
      </trkpt>
      <trkpt lat="53.8607880" lon="14.3983381">
        <time>2026-08-06T11:17:51Z</time>
      </trkpt>
      <trkpt lat="53.8612500" lon="14.3997367">
        <time>2026-08-06T11:18:33Z</time>
      </trkpt>
      <trkpt lat="53.8617140" lon="14.4014350">
        <time>2026-08-06T11:19:24Z</time>
      </trkpt>
      <trkpt lat="53.8630975" lon="14.4058269">
        <time>2026-08-06T11:21:38Z</time>
      </trkpt>
      <trkpt lat="53.8635955" lon="14.4078628">
        <time>2026-08-06T11:22:36Z</time>
      </trkpt>
      <trkpt lat="53.8638882" lon="14.4093445">
        <time>2026-08-06T11:23:19Z</time>
      </trkpt>
      <trkpt lat="53.8640551" lon="14.4118850">
        <time>2026-08-06T11:24:27Z</time>
      </trkpt>
      <trkpt lat="53.8640317" lon="14.4134077">
        <time>2026-08-06T11:25:07Z</time>
      </trkpt>
      <trkpt lat="53.8640937" lon="14.4173423">
        <time>2026-08-06T11:26:50Z</time>
      </trkpt>
      <trkpt lat="53.8630430" lon="14.4202755">
        <time>2026-08-06T11:28:20Z</time>
      </trkpt>
      <trkpt lat="53.8619325" lon="14.4225286">
        <time>2026-08-06T11:29:37Z</time>
      </trkpt>
      <trkpt lat="53.8606955" lon="14.4257857">
        <time>2026-08-06T11:31:13Z</time>
      </trkpt>
      <trkpt lat="53.8601555" lon="14.4270792">
        <time>2026-08-06T11:31:54Z</time>
      </trkpt>
      <trkpt lat="53.8597998" lon="14.4281853">
        <time>2026-08-06T11:32:26Z</time>
      </trkpt>
      <trkpt lat="53.8596238" lon="14.4307303">
        <time>2026-08-06T11:33:30Z</time>
      </trkpt>
      <trkpt lat="53.8596120" lon="14.4329442">
        <time>2026-08-06T11:34:26Z</time>
      </trkpt>
      <trkpt lat="53.8594978" lon="14.4369933">
        <time>2026-08-06T11:36:09Z</time>
      </trkpt>
      <trkpt lat="53.8593393" lon="14.4409909">
        <time>2026-08-06T11:37:49Z</time>
      </trkpt>
      <trkpt lat="53.8594074" lon="14.4428522">
        <time>2026-08-06T11:38:35Z</time>
      </trkpt>
      <trkpt lat="53.8594190" lon="14.4441377">
        <time>2026-08-06T11:39:07Z</time>
      </trkpt>
      <trkpt lat="53.8593688" lon="14.4453998">
        <time>2026-08-06T11:39:40Z</time>
      </trkpt>
      <trkpt lat="53.8593702" lon="14.4470758">
        <time>2026-08-06T11:40:22Z</time>
      </trkpt>
      <trkpt lat="53.8594381" lon="14.4488549">
        <time>2026-08-06T11:41:06Z</time>
      </trkpt>
      <trkpt lat="53.8594050" lon="14.4505068">
        <time>2026-08-06T11:41:46Z</time>
      </trkpt>
      <trkpt lat="53.8588363" lon="14.4532393">
        <time>2026-08-06T11:42:59Z</time>
      </trkpt>
      <trkpt lat="53.8583041" lon="14.4547846">
        <time>2026-08-06T11:43:43Z</time>
      </trkpt>
      <trkpt lat="53.8577950" lon="14.4559550">
        <time>2026-08-06T11:44:19Z</time>
      </trkpt>
      <trkpt lat="53.8566267" lon="14.4578663">
        <time>2026-08-06T11:45:27Z</time>
      </trkpt>
      <trkpt lat="53.8560611" lon="14.4587200">
        <time>2026-08-06T11:45:59Z</time>
      </trkpt>
      <trkpt lat="53.8550980" lon="14.4599070">
        <time>2026-08-06T11:46:49Z</time>
      </trkpt>
      <trkpt lat="53.8540043" lon="14.4614410">
        <time>2026-08-06T11:47:50Z</time>
      </trkpt>
      <trkpt lat="53.8533275" lon="14.4622947">
        <time>2026-08-06T11:48:26Z</time>
      </trkpt>
      <trkpt lat="53.8521926" lon="14.4640642">
        <time>2026-08-06T11:49:30Z</time>
      </trkpt>
      <trkpt lat="53.8515318" lon="14.4652375">
        <time>2026-08-06T11:50:10Z</time>
      </trkpt>
      <trkpt lat="53.8500340" lon="14.4675768">
        <time>2026-08-06T11:51:37Z</time>
      </trkpt>
      <trkpt lat="53.8489472" lon="14.4690491">
        <time>2026-08-06T11:52:35Z</time>
      </trkpt>
      <trkpt lat="53.8483292" lon="14.4697203">
        <time>2026-08-06T11:53:05Z</time>
      </trkpt>
      <trkpt lat="53.8472603" lon="14.4707415">
        <time>2026-08-06T11:53:57Z</time>
      </trkpt>
      <trkpt lat="53.8465810" lon="14.4714671">
        <time>2026-08-06T11:54:31Z</time>
      </trkpt>
      <trkpt lat="53.8454860" lon="14.4728147">
        <time>2026-08-06T11:55:28Z</time>
      </trkpt>
      <trkpt lat="53.8440095" lon="14.4750532">
        <time>2026-08-06T11:56:50Z</time>
      </trkpt>
      <trkpt lat="53.8432738" lon="14.4760890">
        <time>2026-08-06T11:57:30Z</time>
      </trkpt>
      <trkpt lat="53.8414854" lon="14.4778076">
        <time>2026-08-06T11:58:57Z</time>
      </trkpt>
      <trkpt lat="53.8403270" lon="14.4785855">
        <time>2026-08-06T11:59:49Z</time>
      </trkpt>
      <trkpt lat="53.8387635" lon="14.4797852">
        <time>2026-08-06T12:01:01Z</time>
      </trkpt>
      <trkpt lat="53.8379617" lon="14.4804836">
        <time>2026-08-06T12:01:39Z</time>
      </trkpt>
      <trkpt lat="53.8353218" lon="14.4824855">
        <time>2026-08-06T12:03:42Z</time>
      </trkpt>
      <trkpt lat="53.8330548" lon="14.4839848">
        <time>2026-08-06T12:05:24Z</time>
      </trkpt>
      <trkpt lat="53.8312233" lon="14.4850880">
        <time>2026-08-06T12:06:47Z</time>
      </trkpt>
      <trkpt lat="53.8287895" lon="14.4868393">
        <time>2026-08-06T12:08:37Z</time>
      </trkpt>
      <trkpt lat="53.8273536" lon="14.4876673">
        <time>2026-08-06T12:09:42Z</time>
      </trkpt>
      <trkpt lat="53.8255701" lon="14.4883867">
        <time>2026-08-06T12:11:00Z</time>
      </trkpt>
      <trkpt lat="53.8236824" lon="14.4889462">
        <time>2026-08-06T12:12:22Z</time>
      </trkpt>
      <trkpt lat="53.8221128" lon="14.4894888">
        <time>2026-08-06T12:13:31Z</time>
      </trkpt>
      <trkpt lat="53.8201572" lon="14.4902901">
        <time>2026-08-06T12:14:57Z</time>
      </trkpt>
      <trkpt lat="53.8182518" lon="14.4910747">
        <time>2026-08-06T12:16:19Z</time>
      </trkpt>
      <trkpt lat="53.8166140" lon="14.4912536">
        <time>2026-08-06T12:17:30Z</time>
      </trkpt>
      <trkpt lat="53.8155827" lon="14.4912725">
        <time>2026-08-06T12:18:14Z</time>
      </trkpt>
      <trkpt lat="53.8144675" lon="14.4914441">
        <time>2026-08-06T12:19:02Z</time>
      </trkpt>
      <trkpt lat="53.8125571" lon="14.4920880">
        <time>2026-08-06T12:20:24Z</time>
      </trkpt>
      <trkpt lat="53.8097678" lon="14.4928435">
        <time>2026-08-06T12:22:25Z</time>
      </trkpt>
      <trkpt lat="53.8085883" lon="14.4930895">
        <time>2026-08-06T12:23:15Z</time>
      </trkpt>
      <trkpt lat="53.8075617" lon="14.4934050">
        <time>2026-08-06T12:23:59Z</time>
      </trkpt>
      <trkpt lat="53.8065861" lon="14.4937223">
        <time>2026-08-06T12:24:42Z</time>
      </trkpt>
      <trkpt lat="53.8057140" lon="14.4940463">
        <time>2026-08-06T12:25:20Z</time>
      </trkpt>
      <trkpt lat="53.8036533" lon="14.4946413">
        <time>2026-08-06T12:26:48Z</time>
      </trkpt>
      <trkpt lat="53.8026687" lon="14.4950598">
        <time>2026-08-06T12:27:30Z</time>
      </trkpt>
      <trkpt lat="53.8016283" lon="14.4956615">
        <time>2026-08-06T12:28:17Z</time>
      </trkpt>
      <trkpt lat="53.7991546" lon="14.4968475">
        <time>2026-08-06T12:30:05Z</time>
      </trkpt>
      <trkpt lat="53.7977177" lon="14.4974095">
        <time>2026-08-06T12:31:07Z</time>
      </trkpt>
      <trkpt lat="53.7954627" lon="14.4987218">
        <time>2026-08-06T12:32:46Z</time>
      </trkpt>
      <trkpt lat="53.7926909" lon="14.5001539">
        <time>2026-08-06T12:34:49Z</time>
      </trkpt>
      <trkpt lat="53.7912622" lon="14.5008024">
        <time>2026-08-06T12:35:51Z</time>
      </trkpt>
      <trkpt lat="53.7905329" lon="14.5012967">
        <time>2026-08-06T12:36:23Z</time>
      </trkpt>
      <trkpt lat="53.7898097" lon="14.5016228">
        <time>2026-08-06T12:36:55Z</time>
      </trkpt>
      <trkpt lat="53.7888887" lon="14.5018717">
        <time>2026-08-06T12:37:36Z</time>
      </trkpt>
      <trkpt lat="53.7877314" lon="14.5022689">
        <time>2026-08-06T12:38:26Z</time>
      </trkpt>
      <trkpt lat="53.7867662" lon="14.5030060">
        <time>2026-08-06T12:39:12Z</time>
      </trkpt>
      <trkpt lat="53.7856523" lon="14.5035350">
        <time>2026-08-06T12:40:00Z</time>
      </trkpt>
      <trkpt lat="53.7846431" lon="14.5038121">
        <time>2026-08-06T12:40:44Z</time>
      </trkpt>
      <trkpt lat="53.7836491" lon="14.5042028">
        <time>2026-08-06T12:41:29Z</time>
      </trkpt>
      <trkpt lat="53.7817437" lon="14.5051606">
        <time>2026-08-06T12:42:53Z</time>
      </trkpt>
      <trkpt lat="53.7804743" lon="14.5059313">
        <time>2026-08-06T12:43:49Z</time>
      </trkpt>
      <trkpt lat="53.7795798" lon="14.5064193">
        <time>2026-08-06T12:44:29Z</time>
      </trkpt>
      <trkpt lat="53.7787078" lon="14.5067357">
        <time>2026-08-06T12:45:08Z</time>
      </trkpt>
      <trkpt lat="53.7772967" lon="14.5074880">
        <time>2026-08-06T12:46:12Z</time>
      </trkpt>
      <trkpt lat="53.7754293" lon="14.5080945">
        <time>2026-08-06T12:47:34Z</time>
      </trkpt>
      <trkpt lat="53.7746587" lon="14.5085327">
        <time>2026-08-06T12:48:10Z</time>
      </trkpt>
      <trkpt lat="53.7706071" lon="14.5099843">
        <time>2026-08-06T12:51:10Z</time>
      </trkpt>
      <trkpt lat="53.7698840" lon="14.5102639">
        <time>2026-08-06T12:51:42Z</time>
      </trkpt>
      <trkpt lat="53.7688858" lon="14.5105349">
        <time>2026-08-06T12:52:27Z</time>
      </trkpt>
      <trkpt lat="53.7667320" lon="14.5112632">
        <time>2026-08-06T12:54:01Z</time>
      </trkpt>
      <trkpt lat="53.7659670" lon="14.5115886">
        <time>2026-08-06T12:54:35Z</time>
      </trkpt>
      <trkpt lat="53.7647381" lon="14.5120029">
        <time>2026-08-06T12:55:30Z</time>
      </trkpt>
      <trkpt lat="53.7625850" lon="14.5128270">
        <time>2026-08-06T12:57:06Z</time>
      </trkpt>
      <trkpt lat="53.7609955" lon="14.5134438">
        <time>2026-08-06T12:58:18Z</time>
      </trkpt>
      <trkpt lat="53.7594817" lon="14.5139203">
        <time>2026-08-06T12:59:27Z</time>
      </trkpt>
      <trkpt lat="53.7578577" lon="14.5146900">
        <time>2026-08-06T13:00:39Z</time>
      </trkpt>
      <trkpt lat="53.7557408" lon="14.5154694">
        <time>2026-08-06T13:02:11Z</time>
      </trkpt>
      <trkpt lat="53.7544276" lon="14.5158078">
        <time>2026-08-06T13:03:08Z</time>
      </trkpt>
      <trkpt lat="53.7527866" lon="14.5164733">
        <time>2026-08-06T13:04:18Z</time>
      </trkpt>
      <trkpt lat="53.7515225" lon="14.5167753">
        <time>2026-08-06T13:05:10Z</time>
      </trkpt>
      <trkpt lat="53.7508222" lon="14.5170757">
        <time>2026-08-06T13:05:40Z</time>
      </trkpt>
      <trkpt lat="53.7485513" lon="14.5177085">
        <time>2026-08-06T13:07:17Z</time>
      </trkpt>
      <trkpt lat="53.7475742" lon="14.5181289">
        <time>2026-08-06T13:07:59Z</time>
      </trkpt>
      <trkpt lat="53.7465311" lon="14.5183638">
        <time>2026-08-06T13:08:43Z</time>
      </trkpt>
      <trkpt lat="53.7456094" lon="14.5188448">
        <time>2026-08-06T13:09:23Z</time>
      </trkpt>
      <trkpt lat="53.7427123" lon="14.5196322">
        <time>2026-08-06T13:11:28Z</time>
      </trkpt>
      <trkpt lat="53.7414555" lon="14.5199785">
        <time>2026-08-06T13:12:23Z</time>
      </trkpt>
      <trkpt lat="53.7404775" lon="14.5205090">
        <time>2026-08-06T13:13:07Z</time>
      </trkpt>
      <trkpt lat="53.7384053" lon="14.5210639">
        <time>2026-08-06T13:14:38Z</time>
      </trkpt>
      <trkpt lat="53.7340469" lon="14.5221585">
        <time>2026-08-06T13:17:50Z</time>
      </trkpt>
      <trkpt lat="53.7325033" lon="14.5224776">
        <time>2026-08-06T13:18:58Z</time>
      </trkpt>
      <trkpt lat="53.7315410" lon="14.5226336">
        <time>2026-08-06T13:19:40Z</time>
      </trkpt>
      <trkpt lat="53.7303500" lon="14.5230376">
        <time>2026-08-06T13:20:35Z</time>
      </trkpt>
      <trkpt lat="53.7288128" lon="14.5234008">
        <time>2026-08-06T13:21:43Z</time>
      </trkpt>
      <trkpt lat="53.7272603" lon="14.5239470">
        <time>2026-08-06T13:22:53Z</time>
      </trkpt>
      <trkpt lat="53.7261986" lon="14.5242790">
        <time>2026-08-06T13:23:39Z</time>
      </trkpt>
      <trkpt lat="53.7253004" lon="14.5244865">
        <time>2026-08-06T13:24:20Z</time>
      </trkpt>
      <trkpt lat="53.7243701" lon="14.5248302">
        <time>2026-08-06T13:25:02Z</time>
      </trkpt>
      <trkpt lat="53.7233208" lon="14.5250910">
        <time>2026-08-06T13:25:48Z</time>
      </trkpt>
      <trkpt lat="53.7214717" lon="14.5257131">
        <time>2026-08-06T13:27:10Z</time>
      </trkpt>
      <trkpt lat="53.7204067" lon="14.5260524">
        <time>2026-08-06T13:27:58Z</time>
      </trkpt>
      <trkpt lat="53.7195185" lon="14.5263110">
        <time>2026-08-06T13:28:39Z</time>
      </trkpt>
      <trkpt lat="53.7187760" lon="14.5265994">
        <time>2026-08-06T13:29:13Z</time>
      </trkpt>
      <trkpt lat="53.7166877" lon="14.5272597">
        <time>2026-08-06T13:30:43Z</time>
      </trkpt>
      <trkpt lat="53.7157545" lon="14.5276423">
        <time>2026-08-06T13:31:26Z</time>
      </trkpt>
      <trkpt lat="53.7140365" lon="14.5279542">
        <time>2026-08-06T13:32:42Z</time>
      </trkpt>
      <trkpt lat="53.7122180" lon="14.5284682">
        <time>2026-08-06T13:34:04Z</time>
      </trkpt>
      <trkpt lat="53.7108467" lon="14.5289420">
        <time>2026-08-06T13:35:07Z</time>
      </trkpt>
      <trkpt lat="53.7100087" lon="14.5292863">
        <time>2026-08-06T13:35:45Z</time>
      </trkpt>
      <trkpt lat="53.7089010" lon="14.5296733">
        <time>2026-08-06T13:36:37Z</time>
      </trkpt>
      <trkpt lat="53.7077673" lon="14.5299618">
        <time>2026-08-06T13:37:27Z</time>
      </trkpt>
      <trkpt lat="53.7068388" lon="14.5303136">
        <time>2026-08-06T13:38:12Z</time>
      </trkpt>
      <trkpt lat="53.7061063" lon="14.5304202">
        <time>2026-08-06T13:38:46Z</time>
      </trkpt>
      <trkpt lat="53.7053305" lon="14.5299988">
        <time>2026-08-06T13:39:24Z</time>
      </trkpt>
      <trkpt lat="53.7046008" lon="14.5298688">
        <time>2026-08-06T13:39:59Z</time>
      </trkpt>
      <trkpt lat="53.7021175" lon="14.5286733">
        <time>2026-08-06T13:41:57Z</time>
      </trkpt>
      <trkpt lat="53.7004602" lon="14.5279303">
        <time>2026-08-06T13:43:13Z</time>
      </trkpt>
      <trkpt lat="53.6996167" lon="14.5278225">
        <time>2026-08-06T13:43:52Z</time>
      </trkpt>
      <trkpt lat="53.6976190" lon="14.5271774">
        <time>2026-08-06T13:45:22Z</time>
      </trkpt>
      <trkpt lat="53.6967534" lon="14.5268080">
        <time>2026-08-06T13:46:01Z</time>
      </trkpt>
      <trkpt lat="53.6956298" lon="14.5265176">
        <time>2026-08-06T13:46:51Z</time>
      </trkpt>
      <trkpt lat="53.6948153" lon="14.5261420">
        <time>2026-08-06T13:47:29Z</time>
      </trkpt>
      <trkpt lat="53.6938268" lon="14.5255092">
        <time>2026-08-06T13:48:17Z</time>
      </trkpt>
      <trkpt lat="53.6919532" lon="14.5247803">
        <time>2026-08-06T13:49:42Z</time>
      </trkpt>
      <trkpt lat="53.6904405" lon="14.5242577">
        <time>2026-08-06T13:50:50Z</time>
      </trkpt>
      <trkpt lat="53.6894030" lon="14.5239483">
        <time>2026-08-06T13:51:36Z</time>
      </trkpt>
      <trkpt lat="53.6878888" lon="14.5234888">
        <time>2026-08-06T13:52:45Z</time>
      </trkpt>
      <trkpt lat="53.6866650" lon="14.5232453">
        <time>2026-08-06T13:53:39Z</time>
      </trkpt>
      <trkpt lat="53.6844356" lon="14.5221564">
        <time>2026-08-06T13:55:21Z</time>
      </trkpt>
      <trkpt lat="53.6836245" lon="14.5217303">
        <time>2026-08-06T13:56:00Z</time>
      </trkpt>
      <trkpt lat="53.6826633" lon="14.5212685">
        <time>2026-08-06T13:56:44Z</time>
      </trkpt>
      <trkpt lat="53.6813563" lon="14.5207547">
        <time>2026-08-06T13:57:44Z</time>
      </trkpt>
      <trkpt lat="53.6795100" lon="14.5202575">
        <time>2026-08-06T13:59:04Z</time>
      </trkpt>
      <trkpt lat="53.6784956" lon="14.5201739">
        <time>2026-08-06T13:59:49Z</time>
      </trkpt>
      <trkpt lat="53.6772741" lon="14.5200545">
        <time>2026-08-06T14:00:45Z</time>
      </trkpt>
      <trkpt lat="53.6754748" lon="14.5205553">
        <time>2026-08-06T14:02:05Z</time>
      </trkpt>
      <trkpt lat="53.6740302" lon="14.5218545">
        <time>2026-08-06T14:03:20Z</time>
      </trkpt>
      <trkpt lat="53.6734070" lon="14.5225325">
        <time>2026-08-06T14:03:52Z</time>
      </trkpt>
      <trkpt lat="53.6726509" lon="14.5238327">
        <time>2026-08-06T14:04:38Z</time>
      </trkpt>
      <trkpt lat="53.6717174" lon="14.5264188">
        <time>2026-08-06T14:05:57Z</time>
      </trkpt>
      <trkpt lat="53.6711545" lon="14.5277959">
        <time>2026-08-06T14:06:39Z</time>
      </trkpt>
      <trkpt lat="53.6707856" lon="14.5289367">
        <time>2026-08-06T14:07:11Z</time>
      </trkpt>
      <trkpt lat="53.6699329" lon="14.5315385">
        <time>2026-08-06T14:08:26Z</time>
      </trkpt>
      <trkpt lat="53.6691265" lon="14.5339983">
        <time>2026-08-06T14:09:36Z</time>
      </trkpt>
      <trkpt lat="53.6686397" lon="14.5350840">
        <time>2026-08-06T14:10:11Z</time>
      </trkpt>
      <trkpt lat="53.6676880" lon="14.5382707">
        <time>2026-08-06T14:11:39Z</time>
      </trkpt>
      <trkpt lat="53.6671735" lon="14.5396925">
        <time>2026-08-06T14:12:21Z</time>
      </trkpt>
      <trkpt lat="53.6665114" lon="14.5417043">
        <time>2026-08-06T14:13:20Z</time>
      </trkpt>
      <trkpt lat="53.6653793" lon="14.5453510">
        <time>2026-08-06T14:15:04Z</time>
      </trkpt>
      <trkpt lat="53.6647840" lon="14.5476615">
        <time>2026-08-06T14:16:08Z</time>
      </trkpt>
      <trkpt lat="53.6644417" lon="14.5494182">
        <time>2026-08-06T14:16:54Z</time>
      </trkpt>
      <trkpt lat="53.6641440" lon="14.5520137">
        <time>2026-08-06T14:18:03Z</time>
      </trkpt>
      <trkpt lat="53.6638577" lon="14.5536872">
        <time>2026-08-06T14:18:47Z</time>
      </trkpt>
      <trkpt lat="53.6635686" lon="14.5558545">
        <time>2026-08-06T14:19:43Z</time>
      </trkpt>
      <trkpt lat="53.6631668" lon="14.5575293">
        <time>2026-08-06T14:20:29Z</time>
      </trkpt>
      <trkpt lat="53.6630247" lon="14.5600733">
        <time>2026-08-06T14:21:36Z</time>
      </trkpt>
      <trkpt lat="53.6630196" lon="14.5613213">
        <time>2026-08-06T14:22:08Z</time>
      </trkpt>
      <trkpt lat="53.6630735" lon="14.5635425">
        <time>2026-08-06T14:23:04Z</time>
      </trkpt>
      <trkpt lat="53.6631712" lon="14.5657538">
        <time>2026-08-06T14:24:02Z</time>
      </trkpt>
      <trkpt lat="53.6632305" lon="14.5664115">
        <time>2026-08-06T14:24:21Z</time>
      </trkpt>
      <trkpt lat="53.6633641" lon="14.5672756">
        <time>2026-08-06T14:24:45Z</time>
      </trkpt>
      <trkpt lat="53.6635352" lon="14.5680531">
        <time>2026-08-06T14:25:07Z</time>
      </trkpt>
      <trkpt lat="53.6637872" lon="14.5689694">
        <time>2026-08-06T14:25:33Z</time>
      </trkpt>
      <trkpt lat="53.6640590" lon="14.5696955">
        <time>2026-08-06T14:26:00Z</time>
      </trkpt>
      <trkpt lat="53.6642730" lon="14.5700770">
        <time>2026-08-06T14:26:20Z</time>
      </trkpt>
      <trkpt lat="53.6644173" lon="14.5702236">
        <time>2026-08-06T14:26:32Z</time>
      </trkpt>
      <trkpt lat="53.6646456" lon="14.5703553">
        <time>2026-08-06T14:26:50Z</time>
      </trkpt>
      <trkpt lat="53.6650455" lon="14.5703440">
        <time>2026-08-06T14:27:22Z</time>
      </trkpt>
      <trkpt lat="53.6654860" lon="14.5701645">
        <time>2026-08-06T14:28:00Z</time>
      </trkpt>
      <trkpt lat="53.6656273" lon="14.5701583">
        <time>2026-08-06T14:28:20Z</time>
      </trkpt>
    </trkseg>
  </trk>

  <trk>
    <name>20260807</name>
    <extensions>
      <gpxx:TrackExtension xmlns:gpxx="http://www.garmin.com/xmlschemas/GpxExtensions/v3">
        <gpxx:DisplayColor>Transparent</gpxx:DisplayColor>
      </gpxx:TrackExtension>
    </extensions>
    <trkseg>
      <trkpt lat="53.6656132" lon="14.5702852">
        <time>2026-08-07T07:44:53Z</time>
      </trkpt>
      <trkpt lat="53.6654128" lon="14.5703278">
        <time>2026-08-07T08:32:17Z</time>
      </trkpt>
      <trkpt lat="53.6652169" lon="14.5702692">
        <time>2026-08-07T08:32:33Z</time>
      </trkpt>
      <trkpt lat="53.6647942" lon="14.5703808">
        <time>2026-08-07T08:33:01Z</time>
      </trkpt>
      <trkpt lat="53.6646188" lon="14.5703540">
        <time>2026-08-07T08:33:11Z</time>
      </trkpt>
      <trkpt lat="53.6643643" lon="14.5701754">
        <time>2026-08-07T08:33:26Z</time>
      </trkpt>
      <trkpt lat="53.6641447" lon="14.5699371">
        <time>2026-08-07T08:33:40Z</time>
      </trkpt>
      <trkpt lat="53.6639475" lon="14.5695875">
        <time>2026-08-07T08:33:56Z</time>
      </trkpt>
      <trkpt lat="53.6638460" lon="14.5692890">
        <time>2026-08-07T08:34:08Z</time>
      </trkpt>
      <trkpt lat="53.6637182" lon="14.5686345">
        <time>2026-08-07T08:34:34Z</time>
      </trkpt>
      <trkpt lat="53.6632332" lon="14.5669886">
        <time>2026-08-07T08:35:51Z</time>
      </trkpt>
      <trkpt lat="53.6632075" lon="14.5667017">
        <time>2026-08-07T08:36:33Z</time>
      </trkpt>
      <trkpt lat="53.6629670" lon="14.5662322">
        <time>2026-08-07T08:36:55Z</time>
      </trkpt>
      <trkpt lat="53.6623508" lon="14.5655530">
        <time>2026-08-07T08:37:33Z</time>
      </trkpt>
      <trkpt lat="53.6614152" lon="14.5640617">
        <time>2026-08-07T08:38:37Z</time>
      </trkpt>
      <trkpt lat="53.6613253" lon="14.5639531">
        <time>2026-08-07T08:38:44Z</time>
      </trkpt>
      <trkpt lat="53.6612106" lon="14.5639250">
        <time>2026-08-07T08:38:50Z</time>
      </trkpt>
      <trkpt lat="53.6608162" lon="14.5640367">
        <time>2026-08-07T08:39:12Z</time>
      </trkpt>
      <trkpt lat="53.6599890" lon="14.5643784">
        <time>2026-08-07T08:39:54Z</time>
      </trkpt>
      <trkpt lat="53.6588315" lon="14.5649980">
        <time>2026-08-07T08:40:52Z</time>
      </trkpt>
      <trkpt lat="53.6574949" lon="14.5654038">
        <time>2026-08-07T08:41:59Z</time>
      </trkpt>
      <trkpt lat="53.6552452" lon="14.5659324">
        <time>2026-08-07T08:43:49Z</time>
      </trkpt>
      <trkpt lat="53.6541245" lon="14.5661413">
        <time>2026-08-07T08:44:43Z</time>
      </trkpt>
      <trkpt lat="53.6531890" lon="14.5662130">
        <time>2026-08-07T08:45:28Z</time>
      </trkpt>
      <trkpt lat="53.6505538" lon="14.5666680">
        <time>2026-08-07T08:47:36Z</time>
      </trkpt>
      <trkpt lat="53.6492935" lon="14.5665897">
        <time>2026-08-07T08:48:38Z</time>
      </trkpt>
      <trkpt lat="53.6472384" lon="14.5670580">
        <time>2026-08-07T08:50:19Z</time>
      </trkpt>
      <trkpt lat="53.6451588" lon="14.5677040">
        <time>2026-08-07T08:52:04Z</time>
      </trkpt>
      <trkpt lat="53.6443662" lon="14.5680670">
        <time>2026-08-07T08:52:44Z</time>
      </trkpt>
      <trkpt lat="53.6433877" lon="14.5686497">
        <time>2026-08-07T08:53:34Z</time>
      </trkpt>
      <trkpt lat="53.6426327" lon="14.5689858">
        <time>2026-08-07T08:54:12Z</time>
      </trkpt>
      <trkpt lat="53.6393393" lon="14.5701845">
        <time>2026-08-07T08:56:55Z</time>
      </trkpt>
      <trkpt lat="53.6382718" lon="14.5705865">
        <time>2026-08-07T08:57:49Z</time>
      </trkpt>
      <trkpt lat="53.6363890" lon="14.5712780">
        <time>2026-08-07T08:59:23Z</time>
      </trkpt>
      <trkpt lat="53.6351609" lon="14.5715552">
        <time>2026-08-07T09:00:25Z</time>
      </trkpt>
      <trkpt lat="53.6344485" lon="14.5718852">
        <time>2026-08-07T09:01:02Z</time>
      </trkpt>
      <trkpt lat="53.6337587" lon="14.5725185">
        <time>2026-08-07T09:01:40Z</time>
      </trkpt>
      <trkpt lat="53.6325458" lon="14.5732938">
        <time>2026-08-07T09:02:44Z</time>
      </trkpt>
      <trkpt lat="53.6302388" lon="14.5749900">
        <time>2026-08-07T09:04:45Z</time>
      </trkpt>
      <trkpt lat="53.6294932" lon="14.5754180">
        <time>2026-08-07T09:05:23Z</time>
      </trkpt>
      <trkpt lat="53.6278097" lon="14.5766305">
        <time>2026-08-07T09:06:51Z</time>
      </trkpt>
      <trkpt lat="53.6261041" lon="14.5775628">
        <time>2026-08-07T09:08:20Z</time>
      </trkpt>
      <trkpt lat="53.6251779" lon="14.5781488">
        <time>2026-08-07T09:09:08Z</time>
      </trkpt>
      <trkpt lat="53.6233315" lon="14.5790123">
        <time>2026-08-07T09:10:40Z</time>
      </trkpt>
      <trkpt lat="53.6193675" lon="14.5805025">
        <time>2026-08-07T09:13:59Z</time>
      </trkpt>
      <trkpt lat="53.6166807" lon="14.5820989">
        <time>2026-08-07T09:16:17Z</time>
      </trkpt>
      <trkpt lat="53.6151867" lon="14.5828051">
        <time>2026-08-07T09:17:33Z</time>
      </trkpt>
      <trkpt lat="53.6141945" lon="14.5833622">
        <time>2026-08-07T09:18:24Z</time>
      </trkpt>
      <trkpt lat="53.6128021" lon="14.5837981">
        <time>2026-08-07T09:19:34Z</time>
      </trkpt>
      <trkpt lat="53.6081502" lon="14.5845422">
        <time>2026-08-07T09:23:25Z</time>
      </trkpt>
      <trkpt lat="53.6068875" lon="14.5846618">
        <time>2026-08-07T09:24:28Z</time>
      </trkpt>
      <trkpt lat="53.6052655" lon="14.5845455">
        <time>2026-08-07T09:25:50Z</time>
      </trkpt>
      <trkpt lat="53.6043901" lon="14.5845935">
        <time>2026-08-07T09:26:34Z</time>
      </trkpt>
      <trkpt lat="53.6034853" lon="14.5848375">
        <time>2026-08-07T09:27:20Z</time>
      </trkpt>
      <trkpt lat="53.6025210" lon="14.5849620">
        <time>2026-08-07T09:28:09Z</time>
      </trkpt>
      <trkpt lat="53.6013940" lon="14.5849693">
        <time>2026-08-07T09:29:03Z</time>
      </trkpt>
      <trkpt lat="53.5992662" lon="14.5851727">
        <time>2026-08-07T09:30:45Z</time>
      </trkpt>
      <trkpt lat="53.5972082" lon="14.5851508">
        <time>2026-08-07T09:32:23Z</time>
      </trkpt>
      <trkpt lat="53.5963717" lon="14.5850075">
        <time>2026-08-07T09:33:06Z</time>
      </trkpt>
      <trkpt lat="53.5947592" lon="14.5849203">
        <time>2026-08-07T09:34:26Z</time>
      </trkpt>
      <trkpt lat="53.5935905" lon="14.5847792">
        <time>2026-08-07T09:35:24Z</time>
      </trkpt>
      <trkpt lat="53.5908015" lon="14.5844785">
        <time>2026-08-07T09:37:44Z</time>
      </trkpt>
      <trkpt lat="53.5898133" lon="14.5843908">
        <time>2026-08-07T09:38:33Z</time>
      </trkpt>
      <trkpt lat="53.5883858" lon="14.5844200">
        <time>2026-08-07T09:39:45Z</time>
      </trkpt>
      <trkpt lat="53.5869060" lon="14.5842166">
        <time>2026-08-07T09:41:00Z</time>
      </trkpt>
      <trkpt lat="53.5855505" lon="14.5842588">
        <time>2026-08-07T09:42:08Z</time>
      </trkpt>
      <trkpt lat="53.5840784" lon="14.5845262">
        <time>2026-08-07T09:43:22Z</time>
      </trkpt>
      <trkpt lat="53.5832015" lon="14.5847527">
        <time>2026-08-07T09:44:06Z</time>
      </trkpt>
      <trkpt lat="53.5813625" lon="14.5854236">
        <time>2026-08-07T09:45:39Z</time>
      </trkpt>
      <trkpt lat="53.5792320" lon="14.5861125">
        <time>2026-08-07T09:47:27Z</time>
      </trkpt>
      <trkpt lat="53.5774983" lon="14.5864466">
        <time>2026-08-07T09:48:55Z</time>
      </trkpt>
      <trkpt lat="53.5758649" lon="14.5869930">
        <time>2026-08-07T09:50:20Z</time>
      </trkpt>
      <trkpt lat="53.5723962" lon="14.5879528">
        <time>2026-08-07T09:53:16Z</time>
      </trkpt>
      <trkpt lat="53.5685580" lon="14.5891972">
        <time>2026-08-07T09:56:33Z</time>
      </trkpt>
      <trkpt lat="53.5654094" lon="14.5906535">
        <time>2026-08-07T09:59:17Z</time>
      </trkpt>
      <trkpt lat="53.5640130" lon="14.5914513">
        <time>2026-08-07T10:00:30Z</time>
      </trkpt>
      <trkpt lat="53.5623578" lon="14.5921360">
        <time>2026-08-07T10:01:54Z</time>
      </trkpt>
      <trkpt lat="53.5609303" lon="14.5930215">
        <time>2026-08-07T10:03:09Z</time>
      </trkpt>
      <trkpt lat="53.5590537" lon="14.5951508">
        <time>2026-08-07T10:04:57Z</time>
      </trkpt>
      <trkpt lat="53.5584047" lon="14.5960063">
        <time>2026-08-07T10:05:37Z</time>
      </trkpt>
      <trkpt lat="53.5574071" lon="14.5974962">
        <time>2026-08-07T10:06:43Z</time>
      </trkpt>
      <trkpt lat="53.5562487" lon="14.5994682">
        <time>2026-08-07T10:08:06Z</time>
      </trkpt>
      <trkpt lat="53.5548363" lon="14.6015720">
        <time>2026-08-07T10:09:40Z</time>
      </trkpt>
      <trkpt lat="53.5539515" lon="14.6030939">
        <time>2026-08-07T10:10:43Z</time>
      </trkpt>
      <trkpt lat="53.5534688" lon="14.6040223">
        <time>2026-08-07T10:11:19Z</time>
      </trkpt>
      <trkpt lat="53.5530170" lon="14.6050770">
        <time>2026-08-07T10:11:57Z</time>
      </trkpt>
      <trkpt lat="53.5525257" lon="14.6059753">
        <time>2026-08-07T10:12:33Z</time>
      </trkpt>
      <trkpt lat="53.5516698" lon="14.6073317">
        <time>2026-08-07T10:13:32Z</time>
      </trkpt>
      <trkpt lat="53.5506972" lon="14.6085906">
        <time>2026-08-07T10:14:32Z</time>
      </trkpt>
      <trkpt lat="53.5495620" lon="14.6095153">
        <time>2026-08-07T10:15:34Z</time>
      </trkpt>
      <trkpt lat="53.5466835" lon="14.6125267">
        <time>2026-08-07T10:18:18Z</time>
      </trkpt>
      <trkpt lat="53.5456413" lon="14.6134838">
        <time>2026-08-07T10:19:15Z</time>
      </trkpt>
      <trkpt lat="53.5445943" lon="14.6141363">
        <time>2026-08-07T10:20:09Z</time>
      </trkpt>
      <trkpt lat="53.5434940" lon="14.6149685">
        <time>2026-08-07T10:21:09Z</time>
      </trkpt>
      <trkpt lat="53.5422505" lon="14.6157562">
        <time>2026-08-07T10:22:16Z</time>
      </trkpt>
      <trkpt lat="53.5405987" lon="14.6162109">
        <time>2026-08-07T10:23:40Z</time>
      </trkpt>
      <trkpt lat="53.5396974" lon="14.6166832">
        <time>2026-08-07T10:24:28Z</time>
      </trkpt>
      <trkpt lat="53.5379739" lon="14.6184692">
        <time>2026-08-07T10:26:09Z</time>
      </trkpt>
      <trkpt lat="53.5355315" lon="14.6216508">
        <time>2026-08-07T10:28:43Z</time>
      </trkpt>
      <trkpt lat="53.5347043" lon="14.6228239">
        <time>2026-08-07T10:29:37Z</time>
      </trkpt>
      <trkpt lat="53.5335357" lon="14.6242474">
        <time>2026-08-07T10:30:50Z</time>
      </trkpt>
      <trkpt lat="53.5323380" lon="14.6259698">
        <time>2026-08-07T10:32:06Z</time>
      </trkpt>
      <trkpt lat="53.5293533" lon="14.6287408">
        <time>2026-08-07T10:34:52Z</time>
      </trkpt>
      <trkpt lat="53.5277260" lon="14.6299498">
        <time>2026-08-07T10:36:19Z</time>
      </trkpt>
      <trkpt lat="53.5266025" lon="14.6304960">
        <time>2026-08-07T10:37:15Z</time>
      </trkpt>
      <trkpt lat="53.5241457" lon="14.6306376">
        <time>2026-08-07T10:39:16Z</time>
      </trkpt>
      <trkpt lat="53.5233195" lon="14.6304167">
        <time>2026-08-07T10:39:56Z</time>
      </trkpt>
      <trkpt lat="53.5222020" lon="14.6298360">
        <time>2026-08-07T10:40:52Z</time>
      </trkpt>
      <trkpt lat="53.5198037" lon="14.6282702">
        <time>2026-08-07T10:42:57Z</time>
      </trkpt>
      <trkpt lat="53.5190575" lon="14.6278683">
        <time>2026-08-07T10:43:35Z</time>
      </trkpt>
      <trkpt lat="53.5179682" lon="14.6271964">
        <time>2026-08-07T10:44:32Z</time>
      </trkpt>
      <trkpt lat="53.5170673" lon="14.6270570">
        <time>2026-08-07T10:45:16Z</time>
      </trkpt>
      <trkpt lat="53.5160802" lon="14.6271662">
        <time>2026-08-07T10:46:02Z</time>
      </trkpt>
      <trkpt lat="53.5142017" lon="14.6275603">
        <time>2026-08-07T10:47:35Z</time>
      </trkpt>
      <trkpt lat="53.5125600" lon="14.6280107">
        <time>2026-08-07T10:48:55Z</time>
      </trkpt>
      <trkpt lat="53.5113458" lon="14.6281776">
        <time>2026-08-07T10:49:55Z</time>
      </trkpt>
      <trkpt lat="53.5099647" lon="14.6287489">
        <time>2026-08-07T10:51:03Z</time>
      </trkpt>
      <trkpt lat="53.5091600" lon="14.6288723">
        <time>2026-08-07T10:51:42Z</time>
      </trkpt>
      <trkpt lat="53.5082175" lon="14.6287505">
        <time>2026-08-07T10:52:28Z</time>
      </trkpt>
      <trkpt lat="53.5065272" lon="14.6283022">
        <time>2026-08-07T10:53:51Z</time>
      </trkpt>
      <trkpt lat="53.5054886" lon="14.6279179">
        <time>2026-08-07T10:54:43Z</time>
      </trkpt>
      <trkpt lat="53.5037179" lon="14.6269120">
        <time>2026-08-07T10:56:15Z</time>
      </trkpt>
      <trkpt lat="53.5024774" lon="14.6263740">
        <time>2026-08-07T10:57:18Z</time>
      </trkpt>
      <trkpt lat="53.5004738" lon="14.6251665">
        <time>2026-08-07T10:59:02Z</time>
      </trkpt>
      <trkpt lat="53.4991662" lon="14.6245175">
        <time>2026-08-07T11:00:10Z</time>
      </trkpt>
      <trkpt lat="53.4984418" lon="14.6242515">
        <time>2026-08-07T11:00:47Z</time>
      </trkpt>
      <trkpt lat="53.4965497" lon="14.6231170">
        <time>2026-08-07T11:02:27Z</time>
      </trkpt>
      <trkpt lat="53.4944559" lon="14.6214260">
        <time>2026-08-07T11:04:21Z</time>
      </trkpt>
      <trkpt lat="53.4929200" lon="14.6201758">
        <time>2026-08-07T11:05:46Z</time>
      </trkpt>
      <trkpt lat="53.4919923" lon="14.6195897">
        <time>2026-08-07T11:06:34Z</time>
      </trkpt>
      <trkpt lat="53.4908600" lon="14.6190975">
        <time>2026-08-07T11:07:32Z</time>
      </trkpt>
      <trkpt lat="53.4894555" lon="14.6182978">
        <time>2026-08-07T11:08:44Z</time>
      </trkpt>
      <trkpt lat="53.4884310" lon="14.6177642">
        <time>2026-08-07T11:09:36Z</time>
      </trkpt>
      <trkpt lat="53.4869298" lon="14.6171248">
        <time>2026-08-07T11:10:53Z</time>
      </trkpt>
      <trkpt lat="53.4852860" lon="14.6164957">
        <time>2026-08-07T11:12:15Z</time>
      </trkpt>
      <trkpt lat="53.4833487" lon="14.6158380">
        <time>2026-08-07T11:13:52Z</time>
      </trkpt>
      <trkpt lat="53.4817313" lon="14.6154024">
        <time>2026-08-07T11:15:12Z</time>
      </trkpt>
      <trkpt lat="53.4798662" lon="14.6139667">
        <time>2026-08-07T11:16:56Z</time>
      </trkpt>
      <trkpt lat="53.4789868" lon="14.6128213">
        <time>2026-08-07T11:17:55Z</time>
      </trkpt>
      <trkpt lat="53.4781053" lon="14.6117053">
        <time>2026-08-07T11:18:49Z</time>
      </trkpt>
      <trkpt lat="53.4768540" lon="14.6099382">
        <time>2026-08-07T11:20:11Z</time>
      </trkpt>
      <trkpt lat="53.4762632" lon="14.6091743">
        <time>2026-08-07T11:20:49Z</time>
      </trkpt>
      <trkpt lat="53.4746355" lon="14.6072642">
        <time>2026-08-07T11:22:28Z</time>
      </trkpt>
      <trkpt lat="53.4730710" lon="14.6057005">
        <time>2026-08-07T11:24:00Z</time>
      </trkpt>
      <trkpt lat="53.4719100" lon="14.6047490">
        <time>2026-08-07T11:25:04Z</time>
      </trkpt>
      <trkpt lat="53.4698282" lon="14.6031836">
        <time>2026-08-07T11:26:57Z</time>
      </trkpt>
      <trkpt lat="53.4684465" lon="14.6022791">
        <time>2026-08-07T11:28:11Z</time>
      </trkpt>
      <trkpt lat="53.4663343" lon="14.6011815">
        <time>2026-08-07T11:30:01Z</time>
      </trkpt>
      <trkpt lat="53.4645144" lon="14.6003910">
        <time>2026-08-07T11:31:34Z</time>
      </trkpt>
      <trkpt lat="53.4632388" lon="14.5996272">
        <time>2026-08-07T11:32:42Z</time>
      </trkpt>
      <trkpt lat="53.4605740" lon="14.5976455">
        <time>2026-08-07T11:35:05Z</time>
      </trkpt>
      <trkpt lat="53.4594290" lon="14.5970045">
        <time>2026-08-07T11:36:03Z</time>
      </trkpt>
      <trkpt lat="53.4583885" lon="14.5967753">
        <time>2026-08-07T11:36:55Z</time>
      </trkpt>
      <trkpt lat="53.4570415" lon="14.5968235">
        <time>2026-08-07T11:37:59Z</time>
      </trkpt>
      <trkpt lat="53.4550380" lon="14.5967307">
        <time>2026-08-07T11:39:38Z</time>
      </trkpt>
      <trkpt lat="53.4543048" lon="14.5966340">
        <time>2026-08-07T11:40:14Z</time>
      </trkpt>
      <trkpt lat="53.4532597" lon="14.5963654">
        <time>2026-08-07T11:41:06Z</time>
      </trkpt>
      <trkpt lat="53.4504725" lon="14.5954765">
        <time>2026-08-07T11:43:27Z</time>
      </trkpt>
      <trkpt lat="53.4489443" lon="14.5950803">
        <time>2026-08-07T11:44:45Z</time>
      </trkpt>
      <trkpt lat="53.4458627" lon="14.5940315">
        <time>2026-08-07T11:47:20Z</time>
      </trkpt>
      <trkpt lat="53.4448067" lon="14.5932828">
        <time>2026-08-07T11:48:16Z</time>
      </trkpt>
      <trkpt lat="53.4441236" lon="14.5926141">
        <time>2026-08-07T11:48:54Z</time>
      </trkpt>
      <trkpt lat="53.4431515" lon="14.5914022">
        <time>2026-08-07T11:49:53Z</time>
      </trkpt>
      <trkpt lat="53.4424790" lon="14.5903382">
        <time>2026-08-07T11:50:39Z</time>
      </trkpt>
      <trkpt lat="53.4418693" lon="14.5892122">
        <time>2026-08-07T11:51:23Z</time>
      </trkpt>
      <trkpt lat="53.4403970" lon="14.5862540">
        <time>2026-08-07T11:53:18Z</time>
      </trkpt>
      <trkpt lat="53.4398477" lon="14.5846770">
        <time>2026-08-07T11:54:14Z</time>
      </trkpt>
      <trkpt lat="53.4393090" lon="14.5834175">
        <time>2026-08-07T11:55:02Z</time>
      </trkpt>
      <trkpt lat="53.4363606" lon="14.5794635">
        <time>2026-08-07T11:58:13Z</time>
      </trkpt>
      <trkpt lat="53.4356757" lon="14.5784763">
        <time>2026-08-07T11:58:59Z</time>
      </trkpt>
      <trkpt lat="53.4346636" lon="14.5766285">
        <time>2026-08-07T12:00:15Z</time>
      </trkpt>
      <trkpt lat="53.4340741" lon="14.5753773">
        <time>2026-08-07T12:01:04Z</time>
      </trkpt>
      <trkpt lat="53.4335443" lon="14.5744474">
        <time>2026-08-07T12:01:44Z</time>
      </trkpt>
      <trkpt lat="53.4329435" lon="14.5736451">
        <time>2026-08-07T12:02:24Z</time>
      </trkpt>
      <trkpt lat="53.4319315" lon="14.5717532">
        <time>2026-08-07T12:03:43Z</time>
      </trkpt>
      <trkpt lat="53.4313748" lon="14.5706893">
        <time>2026-08-07T12:04:27Z</time>
      </trkpt>
      <trkpt lat="53.4302793" lon="14.5689598">
        <time>2026-08-07T12:05:45Z</time>
      </trkpt>
      <trkpt lat="53.4294686" lon="14.5679454">
        <time>2026-08-07T12:06:38Z</time>
      </trkpt>
      <trkpt lat="53.4284525" lon="14.5671555">
        <time>2026-08-07T12:07:36Z</time>
      </trkpt>
      <trkpt lat="53.4281885" lon="14.5670275">
        <time>2026-08-07T12:07:50Z</time>
      </trkpt>
      <trkpt lat="53.4279147" lon="14.5669856">
        <time>2026-08-07T12:08:04Z</time>
      </trkpt>
      <trkpt lat="53.4276807" lon="14.5670280">
        <time>2026-08-07T12:08:16Z</time>
      </trkpt>
      <trkpt lat="53.4274411" lon="14.5671637">
        <time>2026-08-07T12:08:28Z</time>
      </trkpt>
      <trkpt lat="53.4273063" lon="14.5672937">
        <time>2026-08-07T12:08:39Z</time>
      </trkpt>
      <trkpt lat="53.4272065" lon="14.5675002">
        <time>2026-08-07T12:08:53Z</time>
      </trkpt>
      <trkpt lat="53.4270372" lon="14.5681410">
        <time>2026-08-07T12:09:41Z</time>
      </trkpt>
      <trkpt lat="53.4270084" lon="14.5683937">
        <time>2026-08-07T12:10:01Z</time>
      </trkpt>
      <trkpt lat="53.4270479" lon="14.5687482">
        <time>2026-08-07T12:10:50Z</time>
      </trkpt>
      <trkpt lat="53.4269630" lon="14.5690702">
        <time>2026-08-07T12:12:14Z</time>
      </trkpt>
    </trkseg>
  </trk>

  <trk>
    <name>20260808</name>
    <extensions>
      <gpxx:TrackExtension xmlns:gpxx="http://www.garmin.com/xmlschemas/GpxExtensions/v3">
        <gpxx:DisplayColor>Transparent</gpxx:DisplayColor>
      </gpxx:TrackExtension>
    </extensions>
    <trkseg>
      <trkpt lat="53.4267850" lon="14.5688485">
        <time>2026-08-08T08:27:33Z</time>
      </trkpt>
      <trkpt lat="53.4268363" lon="14.5691436">
        <time>2026-08-08T08:34:19Z</time>
      </trkpt>
      <trkpt lat="53.4269898" lon="14.5689703">
        <time>2026-08-08T08:34:50Z</time>
      </trkpt>
      <trkpt lat="53.4269448" lon="14.5683937">
        <time>2026-08-08T08:35:20Z</time>
      </trkpt>
      <trkpt lat="53.4269642" lon="14.5681855">
        <time>2026-08-08T08:35:28Z</time>
      </trkpt>
      <trkpt lat="53.4272082" lon="14.5676859">
        <time>2026-08-08T08:35:50Z</time>
      </trkpt>
      <trkpt lat="53.4272998" lon="14.5676020">
        <time>2026-08-08T08:35:56Z</time>
      </trkpt>
      <trkpt lat="53.4276450" lon="14.5675988">
        <time>2026-08-08T08:36:14Z</time>
      </trkpt>
      <trkpt lat="53.4278083" lon="14.5676600">
        <time>2026-08-08T08:36:22Z</time>
      </trkpt>
      <trkpt lat="53.4284936" lon="14.5682470">
        <time>2026-08-08T08:36:57Z</time>
      </trkpt>
      <trkpt lat="53.4289723" lon="14.5687753">
        <time>2026-08-08T08:37:21Z</time>
      </trkpt>
      <trkpt lat="53.4299787" lon="14.5700465">
        <time>2026-08-08T08:38:25Z</time>
      </trkpt>
      <trkpt lat="53.4308500" lon="14.5714468">
        <time>2026-08-08T08:39:19Z</time>
      </trkpt>
      <trkpt lat="53.4316080" lon="14.5727460">
        <time>2026-08-08T08:40:08Z</time>
      </trkpt>
      <trkpt lat="53.4329086" lon="14.5753389">
        <time>2026-08-08T08:41:36Z</time>
      </trkpt>
      <trkpt lat="53.4333917" lon="14.5766083">
        <time>2026-08-08T08:42:16Z</time>
      </trkpt>
      <trkpt lat="53.4334671" lon="14.5769946">
        <time>2026-08-08T08:42:28Z</time>
      </trkpt>
      <trkpt lat="53.4334762" lon="14.5773202">
        <time>2026-08-08T08:42:38Z</time>
      </trkpt>
      <trkpt lat="53.4334460" lon="14.5775664">
        <time>2026-08-08T08:42:47Z</time>
      </trkpt>
      <trkpt lat="53.4333757" lon="14.5777797">
        <time>2026-08-08T08:42:55Z</time>
      </trkpt>
      <trkpt lat="53.4332540" lon="14.5779567">
        <time>2026-08-08T08:43:03Z</time>
      </trkpt>
      <trkpt lat="53.4324495" lon="14.5783343">
        <time>2026-08-08T08:43:49Z</time>
      </trkpt>
      <trkpt lat="53.4315308" lon="14.5782228">
        <time>2026-08-08T08:44:38Z</time>
      </trkpt>
      <trkpt lat="53.4306167" lon="14.5776851">
        <time>2026-08-08T08:45:28Z</time>
      </trkpt>
      <trkpt lat="53.4295593" lon="14.5764985">
        <time>2026-08-08T08:46:36Z</time>
      </trkpt>
      <trkpt lat="53.4288221" lon="14.5753898">
        <time>2026-08-08T08:47:31Z</time>
      </trkpt>
      <trkpt lat="53.4283926" lon="14.5746510">
        <time>2026-08-08T08:48:51Z</time>
      </trkpt>
      <trkpt lat="53.4283304" lon="14.5744265">
        <time>2026-08-08T08:49:25Z</time>
      </trkpt>
      <trkpt lat="53.4283427" lon="14.5743348">
        <time>2026-08-08T08:49:37Z</time>
      </trkpt>
      <trkpt lat="53.4284147" lon="14.5743427">
        <time>2026-08-08T08:49:49Z</time>
      </trkpt>
      <trkpt lat="53.4287071" lon="14.5747872">
        <time>2026-08-08T08:50:14Z</time>
      </trkpt>
      <trkpt lat="53.4293812" lon="14.5763707">
        <time>2026-08-08T08:51:08Z</time>
      </trkpt>
      <trkpt lat="53.4299488" lon="14.5775293">
        <time>2026-08-08T08:51:48Z</time>
      </trkpt>
      <trkpt lat="53.4302910" lon="14.5781115">
        <time>2026-08-08T08:52:10Z</time>
      </trkpt>
      <trkpt lat="53.4304314" lon="14.5782746">
        <time>2026-08-08T08:52:18Z</time>
      </trkpt>
      <trkpt lat="53.4316385" lon="14.5790995">
        <time>2026-08-08T08:53:18Z</time>
      </trkpt>
      <trkpt lat="53.4323643" lon="14.5795126">
        <time>2026-08-08T08:53:53Z</time>
      </trkpt>
      <trkpt lat="53.4334708" lon="14.5799031">
        <time>2026-08-08T08:54:43Z</time>
      </trkpt>
      <trkpt lat="53.4348227" lon="14.5805068">
        <time>2026-08-08T08:55:45Z</time>
      </trkpt>
      <trkpt lat="53.4351722" lon="14.5807056">
        <time>2026-08-08T08:56:01Z</time>
      </trkpt>
      <trkpt lat="53.4356777" lon="14.5811039">
        <time>2026-08-08T08:56:26Z</time>
      </trkpt>
      <trkpt lat="53.4370853" lon="14.5824289">
        <time>2026-08-08T08:57:34Z</time>
      </trkpt>
      <trkpt lat="53.4378654" lon="14.5832769">
        <time>2026-08-08T08:58:14Z</time>
      </trkpt>
      <trkpt lat="53.4390778" lon="14.5848673">
        <time>2026-08-08T08:59:19Z</time>
      </trkpt>
      <trkpt lat="53.4393299" lon="14.5852400">
        <time>2026-08-08T08:59:33Z</time>
      </trkpt>
      <trkpt lat="53.4396614" lon="14.5859160">
        <time>2026-08-08T08:59:55Z</time>
      </trkpt>
      <trkpt lat="53.4399873" lon="14.5868439">
        <time>2026-08-08T09:00:21Z</time>
      </trkpt>
      <trkpt lat="53.4404410" lon="14.5885166">
        <time>2026-08-08T09:01:07Z</time>
      </trkpt>
      <trkpt lat="53.4406705" lon="14.5897143">
        <time>2026-08-08T09:01:39Z</time>
      </trkpt>
      <trkpt lat="53.4408783" lon="14.5913926">
        <time>2026-08-08T09:02:24Z</time>
      </trkpt>
      <trkpt lat="53.4409018" lon="14.5926871">
        <time>2026-08-08T09:02:58Z</time>
      </trkpt>
      <trkpt lat="53.4408465" lon="14.5941028">
        <time>2026-08-08T09:03:34Z</time>
      </trkpt>
      <trkpt lat="53.4407005" lon="14.5954373">
        <time>2026-08-08T09:04:10Z</time>
      </trkpt>
      <trkpt lat="53.4404249" lon="14.5963438">
        <time>2026-08-08T09:04:39Z</time>
      </trkpt>
      <trkpt lat="53.4400753" lon="14.5969232">
        <time>2026-08-08T09:05:01Z</time>
      </trkpt>
      <trkpt lat="53.4396558" lon="14.5972987">
        <time>2026-08-08T09:05:23Z</time>
      </trkpt>
      <trkpt lat="53.4390590" lon="14.5977150">
        <time>2026-08-08T09:05:53Z</time>
      </trkpt>
      <trkpt lat="53.4378708" lon="14.5983495">
        <time>2026-08-08T09:06:52Z</time>
      </trkpt>
      <trkpt lat="53.4369262" lon="14.5989942">
        <time>2026-08-08T09:07:38Z</time>
      </trkpt>
      <trkpt lat="53.4359442" lon="14.6000830">
        <time>2026-08-08T09:08:33Z</time>
      </trkpt>
      <trkpt lat="53.4348918" lon="14.6009182">
        <time>2026-08-08T09:09:25Z</time>
      </trkpt>
      <trkpt lat="53.4341298" lon="14.6017542">
        <time>2026-08-08T09:10:07Z</time>
      </trkpt>
      <trkpt lat="53.4327828" lon="14.6026152">
        <time>2026-08-08T09:11:14Z</time>
      </trkpt>
      <trkpt lat="53.4300913" lon="14.6043225">
        <time>2026-08-08T09:13:24Z</time>
      </trkpt>
      <trkpt lat="53.4291452" lon="14.6049875">
        <time>2026-08-08T09:14:10Z</time>
      </trkpt>
      <trkpt lat="53.4275697" lon="14.6058962">
        <time>2026-08-08T09:15:26Z</time>
      </trkpt>
      <trkpt lat="53.4261435" lon="14.6066795">
        <time>2026-08-08T09:16:35Z</time>
      </trkpt>
      <trkpt lat="53.4247482" lon="14.6074918">
        <time>2026-08-08T09:17:41Z</time>
      </trkpt>
      <trkpt lat="53.4228100" lon="14.6087707">
        <time>2026-08-08T09:19:17Z</time>
      </trkpt>
      <trkpt lat="53.4212215" lon="14.6096084">
        <time>2026-08-08T09:20:34Z</time>
      </trkpt>
      <trkpt lat="53.4192315" lon="14.6103893">
        <time>2026-08-08T09:22:06Z</time>
      </trkpt>
      <trkpt lat="53.4179940" lon="14.6108907">
        <time>2026-08-08T09:23:05Z</time>
      </trkpt>
      <trkpt lat="53.4165674" lon="14.6114841">
        <time>2026-08-08T09:24:11Z</time>
      </trkpt>
      <trkpt lat="53.4155247" lon="14.6118617">
        <time>2026-08-08T09:24:59Z</time>
      </trkpt>
      <trkpt lat="53.4139910" lon="14.6122026">
        <time>2026-08-08T09:26:09Z</time>
      </trkpt>
      <trkpt lat="53.4130875" lon="14.6125653">
        <time>2026-08-08T09:26:52Z</time>
      </trkpt>
      <trkpt lat="53.4122152" lon="14.6128680">
        <time>2026-08-08T09:27:32Z</time>
      </trkpt>
      <trkpt lat="53.4119877" lon="14.6130113">
        <time>2026-08-08T09:27:42Z</time>
      </trkpt>
      <trkpt lat="53.4117673" lon="14.6132511">
        <time>2026-08-08T09:27:54Z</time>
      </trkpt>
      <trkpt lat="53.4115887" lon="14.6135671">
        <time>2026-08-08T09:28:06Z</time>
      </trkpt>
      <trkpt lat="53.4115194" lon="14.6138170">
        <time>2026-08-08T09:28:14Z</time>
      </trkpt>
      <trkpt lat="53.4114707" lon="14.6142930">
        <time>2026-08-08T09:28:29Z</time>
      </trkpt>
      <trkpt lat="53.4114236" lon="14.6156406">
        <time>2026-08-08T09:29:07Z</time>
      </trkpt>
      <trkpt lat="53.4115995" lon="14.6172245">
        <time>2026-08-08T09:29:51Z</time>
      </trkpt>
      <trkpt lat="53.4119406" lon="14.6193838">
        <time>2026-08-08T09:30:54Z</time>
      </trkpt>
      <trkpt lat="53.4121998" lon="14.6220825">
        <time>2026-08-08T09:32:08Z</time>
      </trkpt>
      <trkpt lat="53.4122861" lon="14.6246723">
        <time>2026-08-08T09:33:18Z</time>
      </trkpt>
      <trkpt lat="53.4125515" lon="14.6261218">
        <time>2026-08-08T09:33:58Z</time>
      </trkpt>
      <trkpt lat="53.4125943" lon="14.6265681">
        <time>2026-08-08T09:34:10Z</time>
      </trkpt>
      <trkpt lat="53.4125814" lon="14.6269406">
        <time>2026-08-08T09:34:21Z</time>
      </trkpt>
      <trkpt lat="53.4125252" lon="14.6272170">
        <time>2026-08-08T09:34:29Z</time>
      </trkpt>
      <trkpt lat="53.4117970" lon="14.6284693">
        <time>2026-08-08T09:35:15Z</time>
      </trkpt>
      <trkpt lat="53.4111630" lon="14.6298700">
        <time>2026-08-08T09:36:02Z</time>
      </trkpt>
      <trkpt lat="53.4109368" lon="14.6308676">
        <time>2026-08-08T09:36:30Z</time>
      </trkpt>
      <trkpt lat="53.4109159" lon="14.6319673">
        <time>2026-08-08T09:36:58Z</time>
      </trkpt>
      <trkpt lat="53.4110445" lon="14.6330082">
        <time>2026-08-08T09:37:26Z</time>
      </trkpt>
      <trkpt lat="53.4109787" lon="14.6339013">
        <time>2026-08-08T09:37:51Z</time>
      </trkpt>
      <trkpt lat="53.4104065" lon="14.6357503">
        <time>2026-08-08T09:38:45Z</time>
      </trkpt>
      <trkpt lat="53.4098930" lon="14.6380357">
        <time>2026-08-08T09:39:49Z</time>
      </trkpt>
      <trkpt lat="53.4093378" lon="14.6405872">
        <time>2026-08-08T09:41:02Z</time>
      </trkpt>
      <trkpt lat="53.4088658" lon="14.6425522">
        <time>2026-08-08T09:41:58Z</time>
      </trkpt>
      <trkpt lat="53.4086290" lon="14.6444738">
        <time>2026-08-08T09:42:52Z</time>
      </trkpt>
      <trkpt lat="53.4080359" lon="14.6483408">
        <time>2026-08-08T09:44:43Z</time>
      </trkpt>
      <trkpt lat="53.4075194" lon="14.6507550">
        <time>2026-08-08T09:45:53Z</time>
      </trkpt>
      <trkpt lat="53.4070936" lon="14.6533618">
        <time>2026-08-08T09:47:08Z</time>
      </trkpt>
      <trkpt lat="53.4068719" lon="14.6551037">
        <time>2026-08-08T09:47:56Z</time>
      </trkpt>
      <trkpt lat="53.4067616" lon="14.6567659">
        <time>2026-08-08T09:48:42Z</time>
      </trkpt>
      <trkpt lat="53.4067485" lon="14.6584335">
        <time>2026-08-08T09:49:28Z</time>
      </trkpt>
      <trkpt lat="53.4066270" lon="14.6603128">
        <time>2026-08-08T09:50:21Z</time>
      </trkpt>
      <trkpt lat="53.4065777" lon="14.6617942">
        <time>2026-08-08T09:51:01Z</time>
      </trkpt>
      <trkpt lat="53.4063383" lon="14.6645808">
        <time>2026-08-08T09:52:19Z</time>
      </trkpt>
      <trkpt lat="53.4062446" lon="14.6648973">
        <time>2026-08-08T09:52:30Z</time>
      </trkpt>
      <trkpt lat="53.4060765" lon="14.6651558">
        <time>2026-08-08T09:52:40Z</time>
      </trkpt>
      <trkpt lat="53.4057428" lon="14.6654887">
        <time>2026-08-08T09:52:58Z</time>
      </trkpt>
      <trkpt lat="53.4052975" lon="14.6657983">
        <time>2026-08-08T09:53:20Z</time>
      </trkpt>
      <trkpt lat="53.4049172" lon="14.6659763">
        <time>2026-08-08T09:53:38Z</time>
      </trkpt>
      <trkpt lat="53.4046213" lon="14.6660192">
        <time>2026-08-08T09:53:53Z</time>
      </trkpt>
      <trkpt lat="53.4043748" lon="14.6659778">
        <time>2026-08-08T09:54:09Z</time>
      </trkpt>
      <trkpt lat="53.4040875" lon="14.6657102">
        <time>2026-08-08T09:55:55Z</time>
      </trkpt>
      <trkpt lat="53.4041292" lon="14.6656424"/>
      <trkpt lat="53.4040969" lon="14.6655249"/>
      <trkpt lat="53.4041697" lon="14.6655022"/>
    </trkseg>
  </trk>

</gpx>
